<?xml version="1.0" encoding="UTF-8" standalone="no" ?>
<gpx xmlns="http://www.topografix.com/GPX/1/1" xmlns:xsi="http://www.w3.org/2001/XMLSchema-instance" xsi:schemaLocation="http://www.topografix.com/GPX/1/1 http://www.topografix.com/GPX/1/1/gpx.xsd" version="1.1" creator="VisuGPX - https://www.visugpx.com">
  <metadata>
    <name>boue roger mars 2014 42 km</name>
    <desc><![CDATA[parcours 45 km variante facile sur la fin...]]></desc>
  </metadata>
  <trk>
    <name><![CDATA[2014-03-23 08:09]]></name>
    <desc><![CDATA[<h1>OruxMaps</h1><br /><hr align="center" width="480" style="height: 2px; width: 517px"/><h2>Nom: 2014-03-23 08:09</h2><br /><p>Temps de départ: 03/23/2014 08:11</p><p>Temps d'arrivée: 03/23/2014 12:34</p><p>Distance: 41,6 km (04:22)</p><p>Temps déplacement: 03:20</p><p>Vitesse moyenne: 9,5 km/h</p><p>Vitesse moyenne: 12,5 km/h</p><p>Vitess Max.: 42,3 km/h</p><p>Altitude minimale: 16 m</p><p>Altitude maximale: 167 m</p><p>Vitesse d'élévation: 616,7 m/h</p><p>Vitesse de descente: -751 m/h</p><p>Gain Altitude: 1143 m</p><p>Perte Altitude: -1173 m</p><p>Temps d'élévation: 01:51</p><p>Temps de descente: 01:33</p><hr align="center" width="480" style="height: 2px; width: 517px"/>]]></desc>
    <trkseg>
      <trkpt lat="49.29091" lon="0.92651">
        <ele>139</ele>
        <time>2014-03-23T07:11:35Z</time>
      </trkpt>
      <trkpt lat="49.29112" lon="0.9263">
        <ele>139</ele>
        <time>2014-03-23T07:13:55Z</time>
      </trkpt>
      <trkpt lat="49.29108" lon="0.92593">
        <ele>139</ele>
        <time>2014-03-23T07:14:07Z</time>
      </trkpt>
      <trkpt lat="49.29101" lon="0.92562">
        <ele>139</ele>
        <time>2014-03-23T07:14:15Z</time>
      </trkpt>
      <trkpt lat="49.2909" lon="0.92524">
        <ele>139</ele>
        <time>2014-03-23T07:14:23Z</time>
      </trkpt>
      <trkpt lat="49.29074" lon="0.92481">
        <ele>140</ele>
        <time>2014-03-23T07:14:31Z</time>
      </trkpt>
      <trkpt lat="49.29054" lon="0.92445">
        <ele>140</ele>
        <time>2014-03-23T07:14:39Z</time>
      </trkpt>
      <trkpt lat="49.29039" lon="0.92412">
        <ele>140</ele>
        <time>2014-03-23T07:14:47Z</time>
      </trkpt>
      <trkpt lat="49.29058" lon="0.92392">
        <ele>140</ele>
        <time>2014-03-23T07:14:59Z</time>
      </trkpt>
      <trkpt lat="49.29047" lon="0.92368">
        <ele>140</ele>
        <time>2014-03-23T07:15:55Z</time>
      </trkpt>
      <trkpt lat="49.29065" lon="0.92371">
        <ele>140</ele>
        <time>2014-03-23T07:24:43Z</time>
      </trkpt>
      <trkpt lat="49.29058" lon="0.92398">
        <ele>140</ele>
        <time>2014-03-23T07:28:23Z</time>
      </trkpt>
      <trkpt lat="49.2904" lon="0.92402">
        <ele>140</ele>
        <time>2014-03-23T07:28:31Z</time>
      </trkpt>
      <trkpt lat="49.29021" lon="0.92383">
        <ele>140</ele>
        <time>2014-03-23T07:28:39Z</time>
      </trkpt>
      <trkpt lat="49.29001" lon="0.92352">
        <ele>140</ele>
        <time>2014-03-23T07:28:47Z</time>
      </trkpt>
      <trkpt lat="49.28986" lon="0.92329">
        <ele>141</ele>
        <time>2014-03-23T07:28:55Z</time>
      </trkpt>
      <trkpt lat="49.29001" lon="0.92293">
        <ele>140</ele>
        <time>2014-03-23T07:29:07Z</time>
      </trkpt>
      <trkpt lat="49.29025" lon="0.92265">
        <ele>140</ele>
        <time>2014-03-23T07:29:15Z</time>
      </trkpt>
      <trkpt lat="49.29051" lon="0.92239">
        <ele>140</ele>
        <time>2014-03-23T07:29:23Z</time>
      </trkpt>
      <trkpt lat="49.29083" lon="0.92216">
        <ele>140</ele>
        <time>2014-03-23T07:29:31Z</time>
      </trkpt>
      <trkpt lat="49.29099" lon="0.92205">
        <ele>140</ele>
        <time>2014-03-23T07:29:35Z</time>
      </trkpt>
      <trkpt lat="49.29134" lon="0.92185">
        <ele>140</ele>
        <time>2014-03-23T07:29:43Z</time>
      </trkpt>
      <trkpt lat="49.29151" lon="0.92175">
        <ele>140</ele>
        <time>2014-03-23T07:29:47Z</time>
      </trkpt>
      <trkpt lat="49.29169" lon="0.92166">
        <ele>140</ele>
        <time>2014-03-23T07:29:51Z</time>
      </trkpt>
      <trkpt lat="49.29188" lon="0.92156">
        <ele>139</ele>
        <time>2014-03-23T07:29:55Z</time>
      </trkpt>
      <trkpt lat="49.29207" lon="0.92147">
        <ele>139</ele>
        <time>2014-03-23T07:29:59Z</time>
      </trkpt>
      <trkpt lat="49.29226" lon="0.92138">
        <ele>139</ele>
        <time>2014-03-23T07:30:03Z</time>
      </trkpt>
      <trkpt lat="49.29244" lon="0.92128">
        <ele>139</ele>
        <time>2014-03-23T07:30:07Z</time>
      </trkpt>
      <trkpt lat="49.29262" lon="0.92121">
        <ele>139</ele>
        <time>2014-03-23T07:30:11Z</time>
      </trkpt>
      <trkpt lat="49.29283" lon="0.92115">
        <ele>139</ele>
        <time>2014-03-23T07:30:15Z</time>
      </trkpt>
      <trkpt lat="49.29305" lon="0.92109">
        <ele>139</ele>
        <time>2014-03-23T07:30:19Z</time>
      </trkpt>
      <trkpt lat="49.29327" lon="0.92104">
        <ele>139</ele>
        <time>2014-03-23T07:30:23Z</time>
      </trkpt>
      <trkpt lat="49.29351" lon="0.921">
        <ele>139</ele>
        <time>2014-03-23T07:30:27Z</time>
      </trkpt>
      <trkpt lat="49.29376" lon="0.92094">
        <ele>138</ele>
        <time>2014-03-23T07:30:31Z</time>
      </trkpt>
      <trkpt lat="49.29401" lon="0.9209">
        <ele>138</ele>
        <time>2014-03-23T07:30:35Z</time>
      </trkpt>
      <trkpt lat="49.29426" lon="0.92082">
        <ele>137</ele>
        <time>2014-03-23T07:30:39Z</time>
      </trkpt>
      <trkpt lat="49.29449" lon="0.9207">
        <ele>136</ele>
        <time>2014-03-23T07:30:43Z</time>
      </trkpt>
      <trkpt lat="49.29473" lon="0.92057">
        <ele>136</ele>
        <time>2014-03-23T07:30:47Z</time>
      </trkpt>
      <trkpt lat="49.29497" lon="0.92043">
        <ele>135</ele>
        <time>2014-03-23T07:30:51Z</time>
      </trkpt>
      <trkpt lat="49.29521" lon="0.9203">
        <ele>135</ele>
        <time>2014-03-23T07:30:55Z</time>
      </trkpt>
      <trkpt lat="49.29545" lon="0.92018">
        <ele>135</ele>
        <time>2014-03-23T07:30:59Z</time>
      </trkpt>
      <trkpt lat="49.29567" lon="0.9201">
        <ele>134</ele>
        <time>2014-03-23T07:31:03Z</time>
      </trkpt>
      <trkpt lat="49.29585" lon="0.92004">
        <ele>134</ele>
        <time>2014-03-23T07:31:07Z</time>
      </trkpt>
      <trkpt lat="49.29611" lon="0.91996">
        <ele>134</ele>
        <time>2014-03-23T07:31:35Z</time>
      </trkpt>
      <trkpt lat="49.29644" lon="0.91991">
        <ele>133</ele>
        <time>2014-03-23T07:31:43Z</time>
      </trkpt>
      <trkpt lat="49.29666" lon="0.9199">
        <ele>133</ele>
        <time>2014-03-23T07:31:47Z</time>
      </trkpt>
      <trkpt lat="49.2969" lon="0.91992">
        <ele>133</ele>
        <time>2014-03-23T07:31:51Z</time>
      </trkpt>
      <trkpt lat="49.29713" lon="0.91994">
        <ele>133</ele>
        <time>2014-03-23T07:31:55Z</time>
      </trkpt>
      <trkpt lat="49.29736" lon="0.91994">
        <ele>133</ele>
        <time>2014-03-23T07:31:59Z</time>
      </trkpt>
      <trkpt lat="49.29758" lon="0.91993">
        <ele>133</ele>
        <time>2014-03-23T07:32:03Z</time>
      </trkpt>
      <trkpt lat="49.29782" lon="0.91984">
        <ele>133</ele>
        <time>2014-03-23T07:32:07Z</time>
      </trkpt>
      <trkpt lat="49.29803" lon="0.91973">
        <ele>133</ele>
        <time>2014-03-23T07:32:11Z</time>
      </trkpt>
      <trkpt lat="49.29825" lon="0.91962">
        <ele>132</ele>
        <time>2014-03-23T07:32:15Z</time>
      </trkpt>
      <trkpt lat="49.29848" lon="0.91953">
        <ele>132</ele>
        <time>2014-03-23T07:32:19Z</time>
      </trkpt>
      <trkpt lat="49.29872" lon="0.91945">
        <ele>132</ele>
        <time>2014-03-23T07:32:23Z</time>
      </trkpt>
      <trkpt lat="49.29896" lon="0.91936">
        <ele>132</ele>
        <time>2014-03-23T07:32:27Z</time>
      </trkpt>
      <trkpt lat="49.2992" lon="0.91924">
        <ele>133</ele>
        <time>2014-03-23T07:32:30Z</time>
      </trkpt>
      <trkpt lat="49.2994" lon="0.91911">
        <ele>132</ele>
        <time>2014-03-23T07:32:35Z</time>
      </trkpt>
      <trkpt lat="49.29961" lon="0.91901">
        <ele>131</ele>
        <time>2014-03-23T07:32:39Z</time>
      </trkpt>
      <trkpt lat="49.29983" lon="0.91908">
        <ele>131</ele>
        <time>2014-03-23T07:32:43Z</time>
      </trkpt>
      <trkpt lat="49.29993" lon="0.91936">
        <ele>131</ele>
        <time>2014-03-23T07:32:47Z</time>
      </trkpt>
      <trkpt lat="49.30022" lon="0.91933">
        <ele>131</ele>
        <time>2014-03-23T07:32:55Z</time>
      </trkpt>
      <trkpt lat="49.30056" lon="0.91923">
        <ele>131</ele>
        <time>2014-03-23T07:33:03Z</time>
      </trkpt>
      <trkpt lat="49.30089" lon="0.91911">
        <ele>131</ele>
        <time>2014-03-23T07:33:11Z</time>
      </trkpt>
      <trkpt lat="49.30126" lon="0.91901">
        <ele>131</ele>
        <time>2014-03-23T07:33:19Z</time>
      </trkpt>
      <trkpt lat="49.30146" lon="0.91893">
        <ele>131</ele>
        <time>2014-03-23T07:33:23Z</time>
      </trkpt>
      <trkpt lat="49.30163" lon="0.91889">
        <ele>132</ele>
        <time>2014-03-23T07:33:27Z</time>
      </trkpt>
      <trkpt lat="49.30181" lon="0.91882">
        <ele>133</ele>
        <time>2014-03-23T07:33:31Z</time>
      </trkpt>
      <trkpt lat="49.30202" lon="0.91876">
        <ele>133</ele>
        <time>2014-03-23T07:33:35Z</time>
      </trkpt>
      <trkpt lat="49.30224" lon="0.91872">
        <ele>133</ele>
        <time>2014-03-23T07:33:39Z</time>
      </trkpt>
      <trkpt lat="49.30244" lon="0.91867">
        <ele>133</ele>
        <time>2014-03-23T07:33:43Z</time>
      </trkpt>
      <trkpt lat="49.30269" lon="0.91858">
        <ele>133</ele>
        <time>2014-03-23T07:33:47Z</time>
      </trkpt>
      <trkpt lat="49.30292" lon="0.91851">
        <ele>132</ele>
        <time>2014-03-23T07:33:51Z</time>
      </trkpt>
      <trkpt lat="49.30312" lon="0.91844">
        <ele>131</ele>
        <time>2014-03-23T07:33:55Z</time>
      </trkpt>
      <trkpt lat="49.30333" lon="0.91839">
        <ele>130</ele>
        <time>2014-03-23T07:33:59Z</time>
      </trkpt>
      <trkpt lat="49.30355" lon="0.91833">
        <ele>130</ele>
        <time>2014-03-23T07:34:03Z</time>
      </trkpt>
      <trkpt lat="49.30376" lon="0.91827">
        <ele>130</ele>
        <time>2014-03-23T07:34:07Z</time>
      </trkpt>
      <trkpt lat="49.30397" lon="0.9182">
        <ele>130</ele>
        <time>2014-03-23T07:34:11Z</time>
      </trkpt>
      <trkpt lat="49.30419" lon="0.91814">
        <ele>130</ele>
        <time>2014-03-23T07:34:15Z</time>
      </trkpt>
      <trkpt lat="49.3044" lon="0.91809">
        <ele>130</ele>
        <time>2014-03-23T07:34:19Z</time>
      </trkpt>
      <trkpt lat="49.30461" lon="0.91803">
        <ele>129</ele>
        <time>2014-03-23T07:34:23Z</time>
      </trkpt>
      <trkpt lat="49.30483" lon="0.91796">
        <ele>129</ele>
        <time>2014-03-23T07:34:27Z</time>
      </trkpt>
      <trkpt lat="49.30505" lon="0.91789">
        <ele>129</ele>
        <time>2014-03-23T07:34:31Z</time>
      </trkpt>
      <trkpt lat="49.30527" lon="0.91782">
        <ele>129</ele>
        <time>2014-03-23T07:34:35Z</time>
      </trkpt>
      <trkpt lat="49.30549" lon="0.91774">
        <ele>130</ele>
        <time>2014-03-23T07:34:39Z</time>
      </trkpt>
      <trkpt lat="49.30571" lon="0.91769">
        <ele>130</ele>
        <time>2014-03-23T07:34:43Z</time>
      </trkpt>
      <trkpt lat="49.30592" lon="0.91763">
        <ele>130</ele>
        <time>2014-03-23T07:34:47Z</time>
      </trkpt>
      <trkpt lat="49.30613" lon="0.91757">
        <ele>129</ele>
        <time>2014-03-23T07:34:51Z</time>
      </trkpt>
      <trkpt lat="49.30627" lon="0.91801">
        <ele>129</ele>
        <time>2014-03-23T07:34:59Z</time>
      </trkpt>
      <trkpt lat="49.30633" lon="0.91828">
        <ele>129</ele>
        <time>2014-03-23T07:35:03Z</time>
      </trkpt>
      <trkpt lat="49.30643" lon="0.91874">
        <ele>129</ele>
        <time>2014-03-23T07:35:11Z</time>
      </trkpt>
      <trkpt lat="49.30651" lon="0.91922">
        <ele>129</ele>
        <time>2014-03-23T07:35:19Z</time>
      </trkpt>
      <trkpt lat="49.30662" lon="0.91972">
        <ele>129</ele>
        <time>2014-03-23T07:35:27Z</time>
      </trkpt>
      <trkpt lat="49.30668" lon="0.91999">
        <ele>129</ele>
        <time>2014-03-23T07:35:31Z</time>
      </trkpt>
      <trkpt lat="49.30674" lon="0.92028">
        <ele>128</ele>
        <time>2014-03-23T07:35:35Z</time>
      </trkpt>
      <trkpt lat="49.30681" lon="0.92058">
        <ele>128</ele>
        <time>2014-03-23T07:35:39Z</time>
      </trkpt>
      <trkpt lat="49.30687" lon="0.92086">
        <ele>127</ele>
        <time>2014-03-23T07:35:43Z</time>
      </trkpt>
      <trkpt lat="49.30692" lon="0.92114">
        <ele>127</ele>
        <time>2014-03-23T07:35:47Z</time>
      </trkpt>
      <trkpt lat="49.30698" lon="0.9214">
        <ele>127</ele>
        <time>2014-03-23T07:35:51Z</time>
      </trkpt>
      <trkpt lat="49.30703" lon="0.92168">
        <ele>126</ele>
        <time>2014-03-23T07:35:55Z</time>
      </trkpt>
      <trkpt lat="49.3071" lon="0.92197">
        <ele>126</ele>
        <time>2014-03-23T07:35:59Z</time>
      </trkpt>
      <trkpt lat="49.30716" lon="0.92226">
        <ele>126</ele>
        <time>2014-03-23T07:36:03Z</time>
      </trkpt>
      <trkpt lat="49.30723" lon="0.92257">
        <ele>126</ele>
        <time>2014-03-23T07:36:07Z</time>
      </trkpt>
      <trkpt lat="49.30729" lon="0.92292">
        <ele>126</ele>
        <time>2014-03-23T07:36:11Z</time>
      </trkpt>
      <trkpt lat="49.30736" lon="0.92326">
        <ele>125</ele>
        <time>2014-03-23T07:36:15Z</time>
      </trkpt>
      <trkpt lat="49.30743" lon="0.92362">
        <ele>125</ele>
        <time>2014-03-23T07:36:19Z</time>
      </trkpt>
      <trkpt lat="49.30752" lon="0.92398">
        <ele>124</ele>
        <time>2014-03-23T07:36:23Z</time>
      </trkpt>
      <trkpt lat="49.30758" lon="0.92433">
        <ele>124</ele>
        <time>2014-03-23T07:36:27Z</time>
      </trkpt>
      <trkpt lat="49.30765" lon="0.92467">
        <ele>123</ele>
        <time>2014-03-23T07:36:31Z</time>
      </trkpt>
      <trkpt lat="49.30772" lon="0.92504">
        <ele>123</ele>
        <time>2014-03-23T07:36:35Z</time>
      </trkpt>
      <trkpt lat="49.30778" lon="0.9254">
        <ele>122</ele>
        <time>2014-03-23T07:36:39Z</time>
      </trkpt>
      <trkpt lat="49.30787" lon="0.92575">
        <ele>122</ele>
        <time>2014-03-23T07:36:43Z</time>
      </trkpt>
      <trkpt lat="49.30794" lon="0.92609">
        <ele>122</ele>
        <time>2014-03-23T07:36:47Z</time>
      </trkpt>
      <trkpt lat="49.30802" lon="0.92644">
        <ele>123</ele>
        <time>2014-03-23T07:36:51Z</time>
      </trkpt>
      <trkpt lat="49.30809" lon="0.92678">
        <ele>124</ele>
        <time>2014-03-23T07:36:55Z</time>
      </trkpt>
      <trkpt lat="49.30815" lon="0.9271">
        <ele>124</ele>
        <time>2014-03-23T07:36:59Z</time>
      </trkpt>
      <trkpt lat="49.30822" lon="0.9274">
        <ele>124</ele>
        <time>2014-03-23T07:37:03Z</time>
      </trkpt>
      <trkpt lat="49.30828" lon="0.92771">
        <ele>125</ele>
        <time>2014-03-23T07:37:07Z</time>
      </trkpt>
      <trkpt lat="49.30835" lon="0.92797">
        <ele>124</ele>
        <time>2014-03-23T07:37:11Z</time>
      </trkpt>
      <trkpt lat="49.30854" lon="0.92796">
        <ele>124</ele>
        <time>2014-03-23T07:37:15Z</time>
      </trkpt>
      <trkpt lat="49.30875" lon="0.92788">
        <ele>124</ele>
        <time>2014-03-23T07:37:19Z</time>
      </trkpt>
      <trkpt lat="49.30897" lon="0.9278">
        <ele>123</ele>
        <time>2014-03-23T07:37:23Z</time>
      </trkpt>
      <trkpt lat="49.30919" lon="0.92773">
        <ele>123</ele>
        <time>2014-03-23T07:37:27Z</time>
      </trkpt>
      <trkpt lat="49.30941" lon="0.92766">
        <ele>123</ele>
        <time>2014-03-23T07:37:31Z</time>
      </trkpt>
      <trkpt lat="49.30963" lon="0.92758">
        <ele>123</ele>
        <time>2014-03-23T07:37:35Z</time>
      </trkpt>
      <trkpt lat="49.30986" lon="0.92751">
        <ele>123</ele>
        <time>2014-03-23T07:37:39Z</time>
      </trkpt>
      <trkpt lat="49.31008" lon="0.92743">
        <ele>123</ele>
        <time>2014-03-23T07:37:43Z</time>
      </trkpt>
      <trkpt lat="49.3103" lon="0.92757">
        <ele>126</ele>
        <time>2014-03-23T07:37:51Z</time>
      </trkpt>
      <trkpt lat="49.31038" lon="0.92807">
        <ele>127</ele>
        <time>2014-03-23T07:37:59Z</time>
      </trkpt>
      <trkpt lat="49.31048" lon="0.92858">
        <ele>129</ele>
        <time>2014-03-23T07:38:07Z</time>
      </trkpt>
      <trkpt lat="49.31059" lon="0.92907">
        <ele>130</ele>
        <time>2014-03-23T07:38:15Z</time>
      </trkpt>
      <trkpt lat="49.31069" lon="0.92956">
        <ele>129</ele>
        <time>2014-03-23T07:38:23Z</time>
      </trkpt>
      <trkpt lat="49.31078" lon="0.93003">
        <ele>130</ele>
        <time>2014-03-23T07:38:31Z</time>
      </trkpt>
      <trkpt lat="49.31092" lon="0.93049">
        <ele>131</ele>
        <time>2014-03-23T07:38:39Z</time>
      </trkpt>
      <trkpt lat="49.31101" lon="0.93075">
        <ele>131</ele>
        <time>2014-03-23T07:38:43Z</time>
      </trkpt>
      <trkpt lat="49.31107" lon="0.93125">
        <ele>131</ele>
        <time>2014-03-23T07:38:51Z</time>
      </trkpt>
      <trkpt lat="49.31105" lon="0.93153">
        <ele>131</ele>
        <time>2014-03-23T07:38:55Z</time>
      </trkpt>
      <trkpt lat="49.31112" lon="0.93202">
        <ele>130</ele>
        <time>2014-03-23T07:39:03Z</time>
      </trkpt>
      <trkpt lat="49.31119" lon="0.93232">
        <ele>130</ele>
        <time>2014-03-23T07:39:07Z</time>
      </trkpt>
      <trkpt lat="49.3113" lon="0.93286">
        <ele>129</ele>
        <time>2014-03-23T07:39:15Z</time>
      </trkpt>
      <trkpt lat="49.31138" lon="0.93327">
        <ele>130</ele>
        <time>2014-03-23T07:39:23Z</time>
      </trkpt>
      <trkpt lat="49.31144" lon="0.93369">
        <ele>128</ele>
        <time>2014-03-23T07:39:35Z</time>
      </trkpt>
      <trkpt lat="49.31153" lon="0.93412">
        <ele>128</ele>
        <time>2014-03-23T07:39:43Z</time>
      </trkpt>
      <trkpt lat="49.31161" lon="0.93441">
        <ele>127</ele>
        <time>2014-03-23T07:39:51Z</time>
      </trkpt>
      <trkpt lat="49.31167" lon="0.93474">
        <ele>129</ele>
        <time>2014-03-23T07:39:59Z</time>
      </trkpt>
      <trkpt lat="49.31173" lon="0.93512">
        <ele>128</ele>
        <time>2014-03-23T07:40:11Z</time>
      </trkpt>
      <trkpt lat="49.31185" lon="0.93566">
        <ele>127</ele>
        <time>2014-03-23T07:40:19Z</time>
      </trkpt>
      <trkpt lat="49.3119" lon="0.93613">
        <ele>127</ele>
        <time>2014-03-23T07:40:27Z</time>
      </trkpt>
      <trkpt lat="49.31197" lon="0.93658">
        <ele>126</ele>
        <time>2014-03-23T07:40:35Z</time>
      </trkpt>
      <trkpt lat="49.312" lon="0.93707">
        <ele>126</ele>
        <time>2014-03-23T07:40:43Z</time>
      </trkpt>
      <trkpt lat="49.31208" lon="0.93757">
        <ele>125</ele>
        <time>2014-03-23T07:40:51Z</time>
      </trkpt>
      <trkpt lat="49.31212" lon="0.93799">
        <ele>125</ele>
        <time>2014-03-23T07:40:59Z</time>
      </trkpt>
      <trkpt lat="49.31219" lon="0.93843">
        <ele>124</ele>
        <time>2014-03-23T07:41:07Z</time>
      </trkpt>
      <trkpt lat="49.31225" lon="0.93891">
        <ele>124</ele>
        <time>2014-03-23T07:41:15Z</time>
      </trkpt>
      <trkpt lat="49.3123" lon="0.93937">
        <ele>123</ele>
        <time>2014-03-23T07:41:23Z</time>
      </trkpt>
      <trkpt lat="49.31239" lon="0.93977">
        <ele>123</ele>
        <time>2014-03-23T07:41:31Z</time>
      </trkpt>
      <trkpt lat="49.31237" lon="0.94014">
        <ele>121</ele>
        <time>2014-03-23T07:41:39Z</time>
      </trkpt>
      <trkpt lat="49.31236" lon="0.94052">
        <ele>119</ele>
        <time>2014-03-23T07:41:47Z</time>
      </trkpt>
      <trkpt lat="49.31255" lon="0.94088">
        <ele>119</ele>
        <time>2014-03-23T07:41:55Z</time>
      </trkpt>
      <trkpt lat="49.3127" lon="0.94111">
        <ele>118</ele>
        <time>2014-03-23T07:42:03Z</time>
      </trkpt>
      <trkpt lat="49.31297" lon="0.94121">
        <ele>118</ele>
        <time>2014-03-23T07:42:11Z</time>
      </trkpt>
      <trkpt lat="49.31321" lon="0.94151">
        <ele>117</ele>
        <time>2014-03-23T07:42:19Z</time>
      </trkpt>
      <trkpt lat="49.31329" lon="0.94191">
        <ele>118</ele>
        <time>2014-03-23T07:42:27Z</time>
      </trkpt>
      <trkpt lat="49.31347" lon="0.94208">
        <ele>119</ele>
        <time>2014-03-23T07:42:35Z</time>
      </trkpt>
      <trkpt lat="49.31372" lon="0.9423">
        <ele>120</ele>
        <time>2014-03-23T07:42:43Z</time>
      </trkpt>
      <trkpt lat="49.31397" lon="0.9425">
        <ele>119</ele>
        <time>2014-03-23T07:42:51Z</time>
      </trkpt>
      <trkpt lat="49.3142" lon="0.94272">
        <ele>122</ele>
        <time>2014-03-23T07:42:59Z</time>
      </trkpt>
      <trkpt lat="49.3144" lon="0.94296">
        <ele>125</ele>
        <time>2014-03-23T07:43:07Z</time>
      </trkpt>
      <trkpt lat="49.31436" lon="0.94328">
        <ele>127</ele>
        <time>2014-03-23T07:43:15Z</time>
      </trkpt>
      <trkpt lat="49.31434" lon="0.94365">
        <ele>132</ele>
        <time>2014-03-23T07:43:23Z</time>
      </trkpt>
      <trkpt lat="49.31442" lon="0.94413">
        <ele>133</ele>
        <time>2014-03-23T07:43:31Z</time>
      </trkpt>
      <trkpt lat="49.31445" lon="0.94458">
        <ele>135</ele>
        <time>2014-03-23T07:43:39Z</time>
      </trkpt>
      <trkpt lat="49.31449" lon="0.94489">
        <ele>135</ele>
        <time>2014-03-23T07:43:47Z</time>
      </trkpt>
      <trkpt lat="49.31443" lon="0.9453">
        <ele>135</ele>
        <time>2014-03-23T07:43:55Z</time>
      </trkpt>
      <trkpt lat="49.31449" lon="0.94569">
        <ele>134</ele>
        <time>2014-03-23T07:44:03Z</time>
      </trkpt>
      <trkpt lat="49.31452" lon="0.94597">
        <ele>134</ele>
        <time>2014-03-23T07:44:07Z</time>
      </trkpt>
      <trkpt lat="49.31455" lon="0.94641">
        <ele>135</ele>
        <time>2014-03-23T07:44:15Z</time>
      </trkpt>
      <trkpt lat="49.31458" lon="0.94669">
        <ele>134</ele>
        <time>2014-03-23T07:44:19Z</time>
      </trkpt>
      <trkpt lat="49.31468" lon="0.94715">
        <ele>134</ele>
        <time>2014-03-23T07:44:27Z</time>
      </trkpt>
      <trkpt lat="49.31473" lon="0.94766">
        <ele>132</ele>
        <time>2014-03-23T07:44:35Z</time>
      </trkpt>
      <trkpt lat="49.31459" lon="0.94798">
        <ele>131</ele>
        <time>2014-03-23T07:44:43Z</time>
      </trkpt>
      <trkpt lat="49.31444" lon="0.94835">
        <ele>131</ele>
        <time>2014-03-23T07:44:51Z</time>
      </trkpt>
      <trkpt lat="49.31426" lon="0.94874">
        <ele>131</ele>
        <time>2014-03-23T07:44:59Z</time>
      </trkpt>
      <trkpt lat="49.3141" lon="0.94911">
        <ele>133</ele>
        <time>2014-03-23T07:45:07Z</time>
      </trkpt>
      <trkpt lat="49.31397" lon="0.94937">
        <ele>133</ele>
        <time>2014-03-23T07:45:15Z</time>
      </trkpt>
      <trkpt lat="49.31379" lon="0.94968">
        <ele>133</ele>
        <time>2014-03-23T07:45:27Z</time>
      </trkpt>
      <trkpt lat="49.31386" lon="0.95007">
        <ele>134</ele>
        <time>2014-03-23T07:45:39Z</time>
      </trkpt>
      <trkpt lat="49.31409" lon="0.95028">
        <ele>134</ele>
        <time>2014-03-23T07:45:47Z</time>
      </trkpt>
      <trkpt lat="49.3144" lon="0.9502">
        <ele>134</ele>
        <time>2014-03-23T07:45:55Z</time>
      </trkpt>
      <trkpt lat="49.31471" lon="0.95012">
        <ele>133</ele>
        <time>2014-03-23T07:46:03Z</time>
      </trkpt>
      <trkpt lat="49.3151" lon="0.94988">
        <ele>129</ele>
        <time>2014-03-23T07:46:11Z</time>
      </trkpt>
      <trkpt lat="49.31531" lon="0.94974">
        <ele>127</ele>
        <time>2014-03-23T07:46:15Z</time>
      </trkpt>
      <trkpt lat="49.31548" lon="0.94966">
        <ele>126</ele>
        <time>2014-03-23T07:46:19Z</time>
      </trkpt>
      <trkpt lat="49.31582" lon="0.94969">
        <ele>125</ele>
        <time>2014-03-23T07:46:27Z</time>
      </trkpt>
      <trkpt lat="49.3158" lon="0.95001">
        <ele>126</ele>
        <time>2014-03-23T07:46:35Z</time>
      </trkpt>
      <trkpt lat="49.31565" lon="0.95038">
        <ele>128</ele>
        <time>2014-03-23T07:46:43Z</time>
      </trkpt>
      <trkpt lat="49.31551" lon="0.95071">
        <ele>129</ele>
        <time>2014-03-23T07:46:51Z</time>
      </trkpt>
      <trkpt lat="49.31537" lon="0.95098">
        <ele>129</ele>
        <time>2014-03-23T07:46:59Z</time>
      </trkpt>
      <trkpt lat="49.31525" lon="0.95139">
        <ele>129</ele>
        <time>2014-03-23T07:47:07Z</time>
      </trkpt>
      <trkpt lat="49.31507" lon="0.9517">
        <ele>129</ele>
        <time>2014-03-23T07:47:15Z</time>
      </trkpt>
      <trkpt lat="49.31488" lon="0.952">
        <ele>131</ele>
        <time>2014-03-23T07:47:23Z</time>
      </trkpt>
      <trkpt lat="49.31463" lon="0.9523">
        <ele>131</ele>
        <time>2014-03-23T07:47:31Z</time>
      </trkpt>
      <trkpt lat="49.31442" lon="0.95257">
        <ele>131</ele>
        <time>2014-03-23T07:47:39Z</time>
      </trkpt>
      <trkpt lat="49.31426" lon="0.95295">
        <ele>132</ele>
        <time>2014-03-23T07:47:47Z</time>
      </trkpt>
      <trkpt lat="49.31415" lon="0.95333">
        <ele>133</ele>
        <time>2014-03-23T07:47:55Z</time>
      </trkpt>
      <trkpt lat="49.31406" lon="0.95358">
        <ele>133</ele>
        <time>2014-03-23T07:47:59Z</time>
      </trkpt>
      <trkpt lat="49.31393" lon="0.95396">
        <ele>133</ele>
        <time>2014-03-23T07:48:07Z</time>
      </trkpt>
      <trkpt lat="49.31377" lon="0.95433">
        <ele>133</ele>
        <time>2014-03-23T07:48:15Z</time>
      </trkpt>
      <trkpt lat="49.3136" lon="0.95472">
        <ele>133</ele>
        <time>2014-03-23T07:48:23Z</time>
      </trkpt>
      <trkpt lat="49.31349" lon="0.95513">
        <ele>134</ele>
        <time>2014-03-23T07:48:31Z</time>
      </trkpt>
      <trkpt lat="49.3134" lon="0.95548">
        <ele>134</ele>
        <time>2014-03-23T07:48:39Z</time>
      </trkpt>
      <trkpt lat="49.31333" lon="0.95592">
        <ele>134</ele>
        <time>2014-03-23T07:48:47Z</time>
      </trkpt>
      <trkpt lat="49.31318" lon="0.95631">
        <ele>133</ele>
        <time>2014-03-23T07:48:55Z</time>
      </trkpt>
      <trkpt lat="49.31306" lon="0.95663">
        <ele>133</ele>
        <time>2014-03-23T07:49:03Z</time>
      </trkpt>
      <trkpt lat="49.31302" lon="0.95699">
        <ele>132</ele>
        <time>2014-03-23T07:49:11Z</time>
      </trkpt>
      <trkpt lat="49.31314" lon="0.95732">
        <ele>132</ele>
        <time>2014-03-23T07:49:19Z</time>
      </trkpt>
      <trkpt lat="49.31327" lon="0.95765">
        <ele>131</ele>
        <time>2014-03-23T07:49:27Z</time>
      </trkpt>
      <trkpt lat="49.31338" lon="0.95795">
        <ele>131</ele>
        <time>2014-03-23T07:49:35Z</time>
      </trkpt>
      <trkpt lat="49.31343" lon="0.95837">
        <ele>131</ele>
        <time>2014-03-23T07:49:43Z</time>
      </trkpt>
      <trkpt lat="49.31345" lon="0.95876">
        <ele>130</ele>
        <time>2014-03-23T07:49:51Z</time>
      </trkpt>
      <trkpt lat="49.31325" lon="0.95914">
        <ele>128</ele>
        <time>2014-03-23T07:49:59Z</time>
      </trkpt>
      <trkpt lat="49.31326" lon="0.95944">
        <ele>126</ele>
        <time>2014-03-23T07:50:03Z</time>
      </trkpt>
      <trkpt lat="49.31321" lon="0.96001">
        <ele>126</ele>
        <time>2014-03-23T07:50:11Z</time>
      </trkpt>
      <trkpt lat="49.31315" lon="0.96032">
        <ele>125</ele>
        <time>2014-03-23T07:50:15Z</time>
      </trkpt>
      <trkpt lat="49.3131" lon="0.96091">
        <ele>126</ele>
        <time>2014-03-23T07:50:23Z</time>
      </trkpt>
      <trkpt lat="49.31301" lon="0.96122">
        <ele>125</ele>
        <time>2014-03-23T07:50:27Z</time>
      </trkpt>
      <trkpt lat="49.31292" lon="0.96148">
        <ele>125</ele>
        <time>2014-03-23T07:50:31Z</time>
      </trkpt>
      <trkpt lat="49.31273" lon="0.96191">
        <ele>125</ele>
        <time>2014-03-23T07:50:39Z</time>
      </trkpt>
      <trkpt lat="49.31265" lon="0.96223">
        <ele>124</ele>
        <time>2014-03-23T07:50:47Z</time>
      </trkpt>
      <trkpt lat="49.31253" lon="0.96244">
        <ele>123</ele>
        <time>2014-03-23T07:50:55Z</time>
      </trkpt>
      <trkpt lat="49.31228" lon="0.96266">
        <ele>120</ele>
        <time>2014-03-23T07:51:03Z</time>
      </trkpt>
      <trkpt lat="49.31204" lon="0.96293">
        <ele>119</ele>
        <time>2014-03-23T07:51:11Z</time>
      </trkpt>
      <trkpt lat="49.31182" lon="0.96312">
        <ele>118</ele>
        <time>2014-03-23T07:51:19Z</time>
      </trkpt>
      <trkpt lat="49.31164" lon="0.96325">
        <ele>117</ele>
        <time>2014-03-23T07:51:31Z</time>
      </trkpt>
      <trkpt lat="49.31141" lon="0.96344">
        <ele>119</ele>
        <time>2014-03-23T07:51:39Z</time>
      </trkpt>
      <trkpt lat="49.31126" lon="0.9636">
        <ele>120</ele>
        <time>2014-03-23T07:51:47Z</time>
      </trkpt>
      <trkpt lat="49.3111" lon="0.9639">
        <ele>120</ele>
        <time>2014-03-23T07:51:59Z</time>
      </trkpt>
      <trkpt lat="49.31113" lon="0.96424">
        <ele>122</ele>
        <time>2014-03-23T07:52:07Z</time>
      </trkpt>
      <trkpt lat="49.31125" lon="0.96459">
        <ele>122</ele>
        <time>2014-03-23T07:52:15Z</time>
      </trkpt>
      <trkpt lat="49.31141" lon="0.96495">
        <ele>122</ele>
        <time>2014-03-23T07:52:23Z</time>
      </trkpt>
      <trkpt lat="49.31148" lon="0.9654">
        <ele>124</ele>
        <time>2014-03-23T07:52:31Z</time>
      </trkpt>
      <trkpt lat="49.31153" lon="0.96577">
        <ele>125</ele>
        <time>2014-03-23T07:52:39Z</time>
      </trkpt>
      <trkpt lat="49.3117" lon="0.96616">
        <ele>125</ele>
        <time>2014-03-23T07:52:47Z</time>
      </trkpt>
      <trkpt lat="49.3118" lon="0.9664">
        <ele>125</ele>
        <time>2014-03-23T07:52:51Z</time>
      </trkpt>
      <trkpt lat="49.31195" lon="0.96679">
        <ele>126</ele>
        <time>2014-03-23T07:52:59Z</time>
      </trkpt>
      <trkpt lat="49.31212" lon="0.96719">
        <ele>127</ele>
        <time>2014-03-23T07:53:07Z</time>
      </trkpt>
      <trkpt lat="49.31231" lon="0.96757">
        <ele>128</ele>
        <time>2014-03-23T07:53:15Z</time>
      </trkpt>
      <trkpt lat="49.31255" lon="0.96786">
        <ele>127</ele>
        <time>2014-03-23T07:53:23Z</time>
      </trkpt>
      <trkpt lat="49.31279" lon="0.96805">
        <ele>127</ele>
        <time>2014-03-23T07:53:31Z</time>
      </trkpt>
      <trkpt lat="49.31302" lon="0.96815">
        <ele>127</ele>
        <time>2014-03-23T07:53:39Z</time>
      </trkpt>
      <trkpt lat="49.3132" lon="0.96827">
        <ele>127</ele>
        <time>2014-03-23T07:53:43Z</time>
      </trkpt>
      <trkpt lat="49.31351" lon="0.96841">
        <ele>126</ele>
        <time>2014-03-23T07:53:51Z</time>
      </trkpt>
      <trkpt lat="49.3138" lon="0.96866">
        <ele>124</ele>
        <time>2014-03-23T07:53:59Z</time>
      </trkpt>
      <trkpt lat="49.31398" lon="0.96879">
        <ele>124</ele>
        <time>2014-03-23T07:54:03Z</time>
      </trkpt>
      <trkpt lat="49.31416" lon="0.96888">
        <ele>124</ele>
        <time>2014-03-23T07:54:07Z</time>
      </trkpt>
      <trkpt lat="49.31435" lon="0.96901">
        <ele>120</ele>
        <time>2014-03-23T07:54:11Z</time>
      </trkpt>
      <trkpt lat="49.31454" lon="0.9692">
        <ele>120</ele>
        <time>2014-03-23T07:54:15Z</time>
      </trkpt>
      <trkpt lat="49.31474" lon="0.96946">
        <ele>119</ele>
        <time>2014-03-23T07:54:19Z</time>
      </trkpt>
      <trkpt lat="49.31495" lon="0.96968">
        <ele>119</ele>
        <time>2014-03-23T07:54:23Z</time>
      </trkpt>
      <trkpt lat="49.31511" lon="0.96994">
        <ele>116</ele>
        <time>2014-03-23T07:54:27Z</time>
      </trkpt>
      <trkpt lat="49.31527" lon="0.97021">
        <ele>116</ele>
        <time>2014-03-23T07:54:31Z</time>
      </trkpt>
      <trkpt lat="49.31546" lon="0.97045">
        <ele>116</ele>
        <time>2014-03-23T07:54:35Z</time>
      </trkpt>
      <trkpt lat="49.31565" lon="0.97072">
        <ele>115</ele>
        <time>2014-03-23T07:54:39Z</time>
      </trkpt>
      <trkpt lat="49.31583" lon="0.97102">
        <ele>117</ele>
        <time>2014-03-23T07:54:43Z</time>
      </trkpt>
      <trkpt lat="49.316" lon="0.97128">
        <ele>113</ele>
        <time>2014-03-23T07:54:47Z</time>
      </trkpt>
      <trkpt lat="49.31618" lon="0.97158">
        <ele>113</ele>
        <time>2014-03-23T07:54:51Z</time>
      </trkpt>
      <trkpt lat="49.31636" lon="0.97188">
        <ele>114</ele>
        <time>2014-03-23T07:54:55Z</time>
      </trkpt>
      <trkpt lat="49.31653" lon="0.97221">
        <ele>113</ele>
        <time>2014-03-23T07:54:59Z</time>
      </trkpt>
      <trkpt lat="49.31668" lon="0.97252">
        <ele>112</ele>
        <time>2014-03-23T07:55:03Z</time>
      </trkpt>
      <trkpt lat="49.31685" lon="0.97282">
        <ele>109</ele>
        <time>2014-03-23T07:55:07Z</time>
      </trkpt>
      <trkpt lat="49.31704" lon="0.97312">
        <ele>108</ele>
        <time>2014-03-23T07:55:11Z</time>
      </trkpt>
      <trkpt lat="49.3172" lon="0.9734">
        <ele>109</ele>
        <time>2014-03-23T07:55:15Z</time>
      </trkpt>
      <trkpt lat="49.31732" lon="0.97369">
        <ele>109</ele>
        <time>2014-03-23T07:55:19Z</time>
      </trkpt>
      <trkpt lat="49.31743" lon="0.97397">
        <ele>110</ele>
        <time>2014-03-23T07:55:23Z</time>
      </trkpt>
      <trkpt lat="49.3176" lon="0.97422">
        <ele>109</ele>
        <time>2014-03-23T07:55:27Z</time>
      </trkpt>
      <trkpt lat="49.31776" lon="0.97441">
        <ele>108</ele>
        <time>2014-03-23T07:55:31Z</time>
      </trkpt>
      <trkpt lat="49.31797" lon="0.97461">
        <ele>107</ele>
        <time>2014-03-23T07:55:35Z</time>
      </trkpt>
      <trkpt lat="49.31815" lon="0.97483">
        <ele>107</ele>
        <time>2014-03-23T07:55:39Z</time>
      </trkpt>
      <trkpt lat="49.31827" lon="0.97513">
        <ele>107</ele>
        <time>2014-03-23T07:55:43Z</time>
      </trkpt>
      <trkpt lat="49.31831" lon="0.97541">
        <ele>106</ele>
        <time>2014-03-23T07:55:47Z</time>
      </trkpt>
      <trkpt lat="49.31817" lon="0.97582">
        <ele>106</ele>
        <time>2014-03-23T07:55:55Z</time>
      </trkpt>
      <trkpt lat="49.31795" lon="0.97633">
        <ele>105</ele>
        <time>2014-03-23T07:56:03Z</time>
      </trkpt>
      <trkpt lat="49.31782" lon="0.97661">
        <ele>105</ele>
        <time>2014-03-23T07:56:07Z</time>
      </trkpt>
      <trkpt lat="49.3177" lon="0.9769">
        <ele>103</ele>
        <time>2014-03-23T07:56:11Z</time>
      </trkpt>
      <trkpt lat="49.31758" lon="0.9772">
        <ele>102</ele>
        <time>2014-03-23T07:56:15Z</time>
      </trkpt>
      <trkpt lat="49.31743" lon="0.97753">
        <ele>102</ele>
        <time>2014-03-23T07:56:19Z</time>
      </trkpt>
      <trkpt lat="49.31729" lon="0.97789">
        <ele>101</ele>
        <time>2014-03-23T07:56:23Z</time>
      </trkpt>
      <trkpt lat="49.31715" lon="0.97826">
        <ele>100</ele>
        <time>2014-03-23T07:56:27Z</time>
      </trkpt>
      <trkpt lat="49.31698" lon="0.97863">
        <ele>94</ele>
        <time>2014-03-23T07:56:35Z</time>
      </trkpt>
      <trkpt lat="49.31695" lon="0.9789">
        <ele>92</ele>
        <time>2014-03-23T07:56:43Z</time>
      </trkpt>
      <trkpt lat="49.31711" lon="0.97902">
        <ele>90</ele>
        <time>2014-03-23T07:56:55Z</time>
      </trkpt>
      <trkpt lat="49.31733" lon="0.97919">
        <ele>80</ele>
        <time>2014-03-23T07:57:03Z</time>
      </trkpt>
      <trkpt lat="49.3176" lon="0.97946">
        <ele>71</ele>
        <time>2014-03-23T07:57:11Z</time>
      </trkpt>
      <trkpt lat="49.31787" lon="0.97969">
        <ele>67</ele>
        <time>2014-03-23T07:57:19Z</time>
      </trkpt>
      <trkpt lat="49.31804" lon="0.97984">
        <ele>65</ele>
        <time>2014-03-23T07:57:27Z</time>
      </trkpt>
      <trkpt lat="49.31813" lon="0.98012">
        <ele>58</ele>
        <time>2014-03-23T07:57:59Z</time>
      </trkpt>
      <trkpt lat="49.31811" lon="0.98043">
        <ele>57</ele>
        <time>2014-03-23T07:58:07Z</time>
      </trkpt>
      <trkpt lat="49.31794" lon="0.98064">
        <ele>57</ele>
        <time>2014-03-23T07:58:15Z</time>
      </trkpt>
      <trkpt lat="49.31776" lon="0.98064">
        <ele>57</ele>
        <time>2014-03-23T07:58:31Z</time>
      </trkpt>
      <trkpt lat="49.31759" lon="0.98086">
        <ele>54</ele>
        <time>2014-03-23T07:58:39Z</time>
      </trkpt>
      <trkpt lat="49.31745" lon="0.98111">
        <ele>57</ele>
        <time>2014-03-23T07:58:47Z</time>
      </trkpt>
      <trkpt lat="49.31729" lon="0.98146">
        <ele>55</ele>
        <time>2014-03-23T07:58:59Z</time>
      </trkpt>
      <trkpt lat="49.31715" lon="0.98171">
        <ele>52</ele>
        <time>2014-03-23T07:59:07Z</time>
      </trkpt>
      <trkpt lat="49.31702" lon="0.98198">
        <ele>53</ele>
        <time>2014-03-23T07:59:15Z</time>
      </trkpt>
      <trkpt lat="49.31689" lon="0.98218">
        <ele>53</ele>
        <time>2014-03-23T07:59:27Z</time>
      </trkpt>
      <trkpt lat="49.31674" lon="0.98245">
        <ele>56</ele>
        <time>2014-03-23T07:59:39Z</time>
      </trkpt>
      <trkpt lat="49.31664" lon="0.98278">
        <ele>64</ele>
        <time>2014-03-23T08:00:15Z</time>
      </trkpt>
      <trkpt lat="49.31647" lon="0.983">
        <ele>66</ele>
        <time>2014-03-23T08:00:47Z</time>
      </trkpt>
      <trkpt lat="49.31637" lon="0.98323">
        <ele>66</ele>
        <time>2014-03-23T08:01:07Z</time>
      </trkpt>
      <trkpt lat="49.31632" lon="0.98352">
        <ele>64</ele>
        <time>2014-03-23T08:01:27Z</time>
      </trkpt>
      <trkpt lat="49.31613" lon="0.98374">
        <ele>64</ele>
        <time>2014-03-23T08:01:51Z</time>
      </trkpt>
      <trkpt lat="49.31606" lon="0.984">
        <ele>63</ele>
        <time>2014-03-23T08:02:03Z</time>
      </trkpt>
      <trkpt lat="49.31612" lon="0.98433">
        <ele>59</ele>
        <time>2014-03-23T08:02:23Z</time>
      </trkpt>
      <trkpt lat="49.31621" lon="0.98458">
        <ele>59</ele>
        <time>2014-03-23T08:02:31Z</time>
      </trkpt>
      <trkpt lat="49.3163" lon="0.98483">
        <ele>58</ele>
        <time>2014-03-23T08:02:39Z</time>
      </trkpt>
      <trkpt lat="49.31608" lon="0.98495">
        <ele>58</ele>
        <time>2014-03-23T08:02:47Z</time>
      </trkpt>
      <trkpt lat="49.31582" lon="0.98487">
        <ele>57</ele>
        <time>2014-03-23T08:02:59Z</time>
      </trkpt>
      <trkpt lat="49.31559" lon="0.98494">
        <ele>57</ele>
        <time>2014-03-23T08:03:07Z</time>
      </trkpt>
      <trkpt lat="49.31537" lon="0.98484">
        <ele>57</ele>
        <time>2014-03-23T08:03:15Z</time>
      </trkpt>
      <trkpt lat="49.31512" lon="0.98484">
        <ele>56</ele>
        <time>2014-03-23T08:03:27Z</time>
      </trkpt>
      <trkpt lat="49.31486" lon="0.98501">
        <ele>59</ele>
        <time>2014-03-23T08:03:35Z</time>
      </trkpt>
      <trkpt lat="49.3152" lon="0.9852">
        <ele>59</ele>
        <time>2014-03-23T08:04:03Z</time>
      </trkpt>
      <trkpt lat="49.31544" lon="0.98525">
        <ele>60</ele>
        <time>2014-03-23T08:04:07Z</time>
      </trkpt>
      <trkpt lat="49.31568" lon="0.9853">
        <ele>60</ele>
        <time>2014-03-23T08:04:11Z</time>
      </trkpt>
      <trkpt lat="49.31589" lon="0.98537">
        <ele>57</ele>
        <time>2014-03-23T08:04:15Z</time>
      </trkpt>
      <trkpt lat="49.3161" lon="0.98538">
        <ele>57</ele>
        <time>2014-03-23T08:04:23Z</time>
      </trkpt>
      <trkpt lat="49.3164" lon="0.98546">
        <ele>56</ele>
        <time>2014-03-23T08:04:35Z</time>
      </trkpt>
      <trkpt lat="49.31658" lon="0.98558">
        <ele>55</ele>
        <time>2014-03-23T08:04:43Z</time>
      </trkpt>
      <trkpt lat="49.31674" lon="0.9859">
        <ele>50</ele>
        <time>2014-03-23T08:04:59Z</time>
      </trkpt>
      <trkpt lat="49.31693" lon="0.98615">
        <ele>48</ele>
        <time>2014-03-23T08:05:07Z</time>
      </trkpt>
      <trkpt lat="49.31703" lon="0.98656">
        <ele>48</ele>
        <time>2014-03-23T08:05:15Z</time>
      </trkpt>
      <trkpt lat="49.31724" lon="0.98694">
        <ele>49</ele>
        <time>2014-03-23T08:05:27Z</time>
      </trkpt>
      <trkpt lat="49.31746" lon="0.98725">
        <ele>47</ele>
        <time>2014-03-23T08:05:35Z</time>
      </trkpt>
      <trkpt lat="49.31766" lon="0.98769">
        <ele>41</ele>
        <time>2014-03-23T08:05:43Z</time>
      </trkpt>
      <trkpt lat="49.31783" lon="0.98802">
        <ele>40</ele>
        <time>2014-03-23T08:05:51Z</time>
      </trkpt>
      <trkpt lat="49.31808" lon="0.98839">
        <ele>41</ele>
        <time>2014-03-23T08:05:59Z</time>
      </trkpt>
      <trkpt lat="49.31823" lon="0.98858">
        <ele>40</ele>
        <time>2014-03-23T08:06:07Z</time>
      </trkpt>
      <trkpt lat="49.31841" lon="0.98875">
        <ele>35</ele>
        <time>2014-03-23T08:06:19Z</time>
      </trkpt>
      <trkpt lat="49.31863" lon="0.98881">
        <ele>34</ele>
        <time>2014-03-23T08:06:35Z</time>
      </trkpt>
      <trkpt lat="49.31881" lon="0.98889">
        <ele>34</ele>
        <time>2014-03-23T08:06:47Z</time>
      </trkpt>
      <trkpt lat="49.31902" lon="0.98903">
        <ele>34</ele>
        <time>2014-03-23T08:06:59Z</time>
      </trkpt>
      <trkpt lat="49.31907" lon="0.98934">
        <ele>38</ele>
        <time>2014-03-23T08:07:11Z</time>
      </trkpt>
      <trkpt lat="49.31905" lon="0.98963">
        <ele>38</ele>
        <time>2014-03-23T08:08:07Z</time>
      </trkpt>
      <trkpt lat="49.31902" lon="0.98992">
        <ele>38</ele>
        <time>2014-03-23T08:08:11Z</time>
      </trkpt>
      <trkpt lat="49.31895" lon="0.99048">
        <ele>34</ele>
        <time>2014-03-23T08:08:19Z</time>
      </trkpt>
      <trkpt lat="49.31883" lon="0.99094">
        <ele>27</ele>
        <time>2014-03-23T08:08:23Z</time>
      </trkpt>
      <trkpt lat="49.31877" lon="0.99133">
        <ele>26</ele>
        <time>2014-03-23T08:08:27Z</time>
      </trkpt>
      <trkpt lat="49.31866" lon="0.99161">
        <ele>26</ele>
        <time>2014-03-23T08:08:31Z</time>
      </trkpt>
      <trkpt lat="49.31854" lon="0.99199">
        <ele>21</ele>
        <time>2014-03-23T08:08:35Z</time>
      </trkpt>
      <trkpt lat="49.31846" lon="0.99238">
        <ele>19</ele>
        <time>2014-03-23T08:08:39Z</time>
      </trkpt>
      <trkpt lat="49.31839" lon="0.99272">
        <ele>17</ele>
        <time>2014-03-23T08:08:43Z</time>
      </trkpt>
      <trkpt lat="49.31833" lon="0.99312">
        <ele>20</ele>
        <time>2014-03-23T08:08:47Z</time>
      </trkpt>
      <trkpt lat="49.31843" lon="0.99347">
        <ele>15</ele>
        <time>2014-03-23T08:08:51Z</time>
      </trkpt>
      <trkpt lat="49.31853" lon="0.9938">
        <ele>17</ele>
        <time>2014-03-23T08:08:55Z</time>
      </trkpt>
      <trkpt lat="49.31856" lon="0.99408">
        <ele>17</ele>
        <time>2014-03-23T08:08:59Z</time>
      </trkpt>
      <trkpt lat="49.31836" lon="0.99426">
        <ele>19</ele>
        <time>2014-03-23T08:09:03Z</time>
      </trkpt>
      <trkpt lat="49.31814" lon="0.99446">
        <ele>17</ele>
        <time>2014-03-23T08:09:07Z</time>
      </trkpt>
      <trkpt lat="49.31797" lon="0.99469">
        <ele>18</ele>
        <time>2014-03-23T08:09:11Z</time>
      </trkpt>
      <trkpt lat="49.31787" lon="0.99494">
        <ele>17</ele>
        <time>2014-03-23T08:09:15Z</time>
      </trkpt>
      <trkpt lat="49.31765" lon="0.9953">
        <ele>25</ele>
        <time>2014-03-23T08:09:23Z</time>
      </trkpt>
      <trkpt lat="49.31743" lon="0.9956">
        <ele>21</ele>
        <time>2014-03-23T08:09:31Z</time>
      </trkpt>
      <trkpt lat="49.31728" lon="0.99591">
        <ele>29</ele>
        <time>2014-03-23T08:09:39Z</time>
      </trkpt>
      <trkpt lat="49.31723" lon="0.9962">
        <ele>32</ele>
        <time>2014-03-23T08:09:47Z</time>
      </trkpt>
      <trkpt lat="49.31728" lon="0.99647">
        <ele>36</ele>
        <time>2014-03-23T08:10:03Z</time>
      </trkpt>
      <trkpt lat="49.31743" lon="0.99673">
        <ele>46</ele>
        <time>2014-03-23T08:10:19Z</time>
      </trkpt>
      <trkpt lat="49.31754" lon="0.99696">
        <ele>55</ele>
        <time>2014-03-23T08:10:31Z</time>
      </trkpt>
      <trkpt lat="49.31771" lon="0.99718">
        <ele>58</ele>
        <time>2014-03-23T08:10:47Z</time>
      </trkpt>
      <trkpt lat="49.31784" lon="0.99747">
        <ele>60</ele>
        <time>2014-03-23T08:11:07Z</time>
      </trkpt>
      <trkpt lat="49.31804" lon="0.99768">
        <ele>65</ele>
        <time>2014-03-23T08:12:31Z</time>
      </trkpt>
      <trkpt lat="49.31822" lon="0.99794">
        <ele>65</ele>
        <time>2014-03-23T08:12:47Z</time>
      </trkpt>
      <trkpt lat="49.31819" lon="0.9984">
        <ele>66</ele>
        <time>2014-03-23T08:12:59Z</time>
      </trkpt>
      <trkpt lat="49.3181" lon="0.9987">
        <ele>67</ele>
        <time>2014-03-23T08:13:07Z</time>
      </trkpt>
      <trkpt lat="49.31806" lon="0.99907">
        <ele>68</ele>
        <time>2014-03-23T08:13:19Z</time>
      </trkpt>
      <trkpt lat="49.31801" lon="0.99945">
        <ele>71</ele>
        <time>2014-03-23T08:13:31Z</time>
      </trkpt>
      <trkpt lat="49.31794" lon="0.99975">
        <ele>72</ele>
        <time>2014-03-23T08:13:39Z</time>
      </trkpt>
      <trkpt lat="49.31781" lon="1.00007">
        <ele>76</ele>
        <time>2014-03-23T08:13:51Z</time>
      </trkpt>
      <trkpt lat="49.3177" lon="1.00041">
        <ele>76</ele>
        <time>2014-03-23T08:13:59Z</time>
      </trkpt>
      <trkpt lat="49.31759" lon="1.00066">
        <ele>76</ele>
        <time>2014-03-23T08:14:07Z</time>
      </trkpt>
      <trkpt lat="49.31748" lon="1.00091">
        <ele>72</ele>
        <time>2014-03-23T08:14:15Z</time>
      </trkpt>
      <trkpt lat="49.31737" lon="1.00122">
        <ele>68</ele>
        <time>2014-03-23T08:14:23Z</time>
      </trkpt>
      <trkpt lat="49.31739" lon="1.00175">
        <ele>63</ele>
        <time>2014-03-23T08:14:31Z</time>
      </trkpt>
      <trkpt lat="49.31762" lon="1.00198">
        <ele>74</ele>
        <time>2014-03-23T08:14:39Z</time>
      </trkpt>
      <trkpt lat="49.31782" lon="1.00217">
        <ele>75</ele>
        <time>2014-03-23T08:14:51Z</time>
      </trkpt>
      <trkpt lat="49.31796" lon="1.00235">
        <ele>76</ele>
        <time>2014-03-23T08:15:11Z</time>
      </trkpt>
      <trkpt lat="49.31807" lon="1.0026">
        <ele>70</ele>
        <time>2014-03-23T08:15:43Z</time>
      </trkpt>
      <trkpt lat="49.31816" lon="1.00291">
        <ele>67</ele>
        <time>2014-03-23T08:15:51Z</time>
      </trkpt>
      <trkpt lat="49.31828" lon="1.00314">
        <ele>68</ele>
        <time>2014-03-23T08:16:07Z</time>
      </trkpt>
      <trkpt lat="49.3185" lon="1.00322">
        <ele>87</ele>
        <time>2014-03-23T08:16:23Z</time>
      </trkpt>
      <trkpt lat="49.31868" lon="1.00328">
        <ele>93</ele>
        <time>2014-03-23T08:16:35Z</time>
      </trkpt>
      <trkpt lat="49.31859" lon="1.00352">
        <ele>83</ele>
        <time>2014-03-23T08:16:43Z</time>
      </trkpt>
      <trkpt lat="49.31861" lon="1.0038">
        <ele>81</ele>
        <time>2014-03-23T08:16:51Z</time>
      </trkpt>
      <trkpt lat="49.31886" lon="1.00412">
        <ele>86</ele>
        <time>2014-03-23T08:17:03Z</time>
      </trkpt>
      <trkpt lat="49.31905" lon="1.00428">
        <ele>81</ele>
        <time>2014-03-23T08:17:15Z</time>
      </trkpt>
      <trkpt lat="49.3191" lon="1.00467">
        <ele>70</ele>
        <time>2014-03-23T08:17:23Z</time>
      </trkpt>
      <trkpt lat="49.31916" lon="1.00505">
        <ele>67</ele>
        <time>2014-03-23T08:17:35Z</time>
      </trkpt>
      <trkpt lat="49.31935" lon="1.00512">
        <ele>78</ele>
        <time>2014-03-23T08:18:11Z</time>
      </trkpt>
      <trkpt lat="49.31954" lon="1.00531">
        <ele>80</ele>
        <time>2014-03-23T08:19:15Z</time>
      </trkpt>
      <trkpt lat="49.31962" lon="1.00564">
        <ele>78</ele>
        <time>2014-03-23T08:19:31Z</time>
      </trkpt>
      <trkpt lat="49.31958" lon="1.00592">
        <ele>59</ele>
        <time>2014-03-23T08:19:43Z</time>
      </trkpt>
      <trkpt lat="49.31976" lon="1.00611">
        <ele>62</ele>
        <time>2014-03-23T08:19:55Z</time>
      </trkpt>
      <trkpt lat="49.32001" lon="1.00617">
        <ele>87</ele>
        <time>2014-03-23T08:20:03Z</time>
      </trkpt>
      <trkpt lat="49.3201" lon="1.00663">
        <ele>72</ele>
        <time>2014-03-23T08:20:19Z</time>
      </trkpt>
      <trkpt lat="49.32029" lon="1.00696">
        <ele>68</ele>
        <time>2014-03-23T08:20:27Z</time>
      </trkpt>
      <trkpt lat="49.32041" lon="1.00717">
        <ele>68</ele>
        <time>2014-03-23T08:20:31Z</time>
      </trkpt>
      <trkpt lat="49.32051" lon="1.00745">
        <ele>69</ele>
        <time>2014-03-23T08:20:43Z</time>
      </trkpt>
      <trkpt lat="49.32068" lon="1.00761">
        <ele>63</ele>
        <time>2014-03-23T08:21:03Z</time>
      </trkpt>
      <trkpt lat="49.32089" lon="1.00739">
        <ele>85</ele>
        <time>2014-03-23T08:21:23Z</time>
      </trkpt>
      <trkpt lat="49.3211" lon="1.00721">
        <ele>90</ele>
        <time>2014-03-23T08:21:31Z</time>
      </trkpt>
      <trkpt lat="49.32132" lon="1.00707">
        <ele>92</ele>
        <time>2014-03-23T08:21:39Z</time>
      </trkpt>
      <trkpt lat="49.32152" lon="1.00696">
        <ele>92</ele>
        <time>2014-03-23T08:22:03Z</time>
      </trkpt>
      <trkpt lat="49.32171" lon="1.00694">
        <ele>96</ele>
        <time>2014-03-23T08:22:47Z</time>
      </trkpt>
      <trkpt lat="49.32182" lon="1.00723">
        <ele>95</ele>
        <time>2014-03-23T08:22:55Z</time>
      </trkpt>
      <trkpt lat="49.32201" lon="1.00739">
        <ele>96</ele>
        <time>2014-03-23T08:23:07Z</time>
      </trkpt>
      <trkpt lat="49.32226" lon="1.00753">
        <ele>97</ele>
        <time>2014-03-23T08:23:19Z</time>
      </trkpt>
      <trkpt lat="49.32249" lon="1.00748">
        <ele>99</ele>
        <time>2014-03-23T08:23:27Z</time>
      </trkpt>
      <trkpt lat="49.3227" lon="1.00737">
        <ele>96</ele>
        <time>2014-03-23T08:23:31Z</time>
      </trkpt>
      <trkpt lat="49.32296" lon="1.0072">
        <ele>94</ele>
        <time>2014-03-23T08:23:35Z</time>
      </trkpt>
      <trkpt lat="49.32324" lon="1.00698">
        <ele>92</ele>
        <time>2014-03-23T08:23:39Z</time>
      </trkpt>
      <trkpt lat="49.32347" lon="1.00676">
        <ele>88</ele>
        <time>2014-03-23T08:23:43Z</time>
      </trkpt>
      <trkpt lat="49.3237" lon="1.00622">
        <ele>86</ele>
        <time>2014-03-23T08:23:47Z</time>
      </trkpt>
      <trkpt lat="49.32382" lon="1.00582">
        <ele>84</ele>
        <time>2014-03-23T08:23:51Z</time>
      </trkpt>
      <trkpt lat="49.32415" lon="1.00568">
        <ele>82</ele>
        <time>2014-03-23T08:23:59Z</time>
      </trkpt>
      <trkpt lat="49.32443" lon="1.00546">
        <ele>83</ele>
        <time>2014-03-23T08:24:07Z</time>
      </trkpt>
      <trkpt lat="49.32475" lon="1.00511">
        <ele>85</ele>
        <time>2014-03-23T08:24:15Z</time>
      </trkpt>
      <trkpt lat="49.32493" lon="1.00489">
        <ele>84</ele>
        <time>2014-03-23T08:24:19Z</time>
      </trkpt>
      <trkpt lat="49.32517" lon="1.00462">
        <ele>88</ele>
        <time>2014-03-23T08:24:27Z</time>
      </trkpt>
      <trkpt lat="49.32534" lon="1.00431">
        <ele>87</ele>
        <time>2014-03-23T08:24:35Z</time>
      </trkpt>
      <trkpt lat="49.32554" lon="1.00391">
        <ele>83</ele>
        <time>2014-03-23T08:24:43Z</time>
      </trkpt>
      <trkpt lat="49.32573" lon="1.00351">
        <ele>82</ele>
        <time>2014-03-23T08:24:51Z</time>
      </trkpt>
      <trkpt lat="49.32594" lon="1.00321">
        <ele>80</ele>
        <time>2014-03-23T08:24:59Z</time>
      </trkpt>
      <trkpt lat="49.32623" lon="1.0033">
        <ele>80</ele>
        <time>2014-03-23T08:25:07Z</time>
      </trkpt>
      <trkpt lat="49.32648" lon="1.00357">
        <ele>89</ele>
        <time>2014-03-23T08:25:15Z</time>
      </trkpt>
      <trkpt lat="49.32667" lon="1.00372">
        <ele>93</ele>
        <time>2014-03-23T08:25:23Z</time>
      </trkpt>
      <trkpt lat="49.32689" lon="1.0038">
        <ele>94</ele>
        <time>2014-03-23T08:25:31Z</time>
      </trkpt>
      <trkpt lat="49.32716" lon="1.00376">
        <ele>94</ele>
        <time>2014-03-23T08:25:39Z</time>
      </trkpt>
      <trkpt lat="49.32742" lon="1.00364">
        <ele>93</ele>
        <time>2014-03-23T08:25:47Z</time>
      </trkpt>
      <trkpt lat="49.32766" lon="1.00365">
        <ele>94</ele>
        <time>2014-03-23T08:25:55Z</time>
      </trkpt>
      <trkpt lat="49.32793" lon="1.00363">
        <ele>94</ele>
        <time>2014-03-23T08:26:03Z</time>
      </trkpt>
      <trkpt lat="49.32821" lon="1.00366">
        <ele>94</ele>
        <time>2014-03-23T08:26:11Z</time>
      </trkpt>
      <trkpt lat="49.32849" lon="1.00376">
        <ele>93</ele>
        <time>2014-03-23T08:26:19Z</time>
      </trkpt>
      <trkpt lat="49.32877" lon="1.00401">
        <ele>93</ele>
        <time>2014-03-23T08:26:27Z</time>
      </trkpt>
      <trkpt lat="49.32894" lon="1.00422">
        <ele>99</ele>
        <time>2014-03-23T08:26:31Z</time>
      </trkpt>
      <trkpt lat="49.32909" lon="1.00448">
        <ele>101</ele>
        <time>2014-03-23T08:26:39Z</time>
      </trkpt>
      <trkpt lat="49.32916" lon="1.00484">
        <ele>104</ele>
        <time>2014-03-23T08:26:47Z</time>
      </trkpt>
      <trkpt lat="49.32917" lon="1.00518">
        <ele>111</ele>
        <time>2014-03-23T08:26:55Z</time>
      </trkpt>
      <trkpt lat="49.32922" lon="1.00559">
        <ele>113</ele>
        <time>2014-03-23T08:27:03Z</time>
      </trkpt>
      <trkpt lat="49.32932" lon="1.00601">
        <ele>120</ele>
        <time>2014-03-23T08:27:11Z</time>
      </trkpt>
      <trkpt lat="49.32944" lon="1.00632">
        <ele>120</ele>
        <time>2014-03-23T08:27:19Z</time>
      </trkpt>
      <trkpt lat="49.32957" lon="1.00652">
        <ele>120</ele>
        <time>2014-03-23T08:27:27Z</time>
      </trkpt>
      <trkpt lat="49.32977" lon="1.00685">
        <ele>123</ele>
        <time>2014-03-23T08:27:35Z</time>
      </trkpt>
      <trkpt lat="49.32996" lon="1.00707">
        <ele>124</ele>
        <time>2014-03-23T08:27:43Z</time>
      </trkpt>
      <trkpt lat="49.33016" lon="1.00727">
        <ele>121</ele>
        <time>2014-03-23T08:27:51Z</time>
      </trkpt>
      <trkpt lat="49.33031" lon="1.00756">
        <ele>124</ele>
        <time>2014-03-23T08:27:59Z</time>
      </trkpt>
      <trkpt lat="49.33044" lon="1.00782">
        <ele>124</ele>
        <time>2014-03-23T08:28:07Z</time>
      </trkpt>
      <trkpt lat="49.33058" lon="1.0082">
        <ele>124</ele>
        <time>2014-03-23T08:28:15Z</time>
      </trkpt>
      <trkpt lat="49.33074" lon="1.0086">
        <ele>126</ele>
        <time>2014-03-23T08:28:23Z</time>
      </trkpt>
      <trkpt lat="49.33082" lon="1.00893">
        <ele>127</ele>
        <time>2014-03-23T08:28:31Z</time>
      </trkpt>
      <trkpt lat="49.33094" lon="1.00923">
        <ele>126</ele>
        <time>2014-03-23T08:28:39Z</time>
      </trkpt>
      <trkpt lat="49.33108" lon="1.00949">
        <ele>127</ele>
        <time>2014-03-23T08:28:47Z</time>
      </trkpt>
      <trkpt lat="49.33121" lon="1.00983">
        <ele>127</ele>
        <time>2014-03-23T08:28:59Z</time>
      </trkpt>
      <trkpt lat="49.33135" lon="1.01002">
        <ele>128</ele>
        <time>2014-03-23T08:29:07Z</time>
      </trkpt>
      <trkpt lat="49.33157" lon="1.01017">
        <ele>128</ele>
        <time>2014-03-23T08:29:15Z</time>
      </trkpt>
      <trkpt lat="49.33175" lon="1.0104">
        <ele>130</ele>
        <time>2014-03-23T08:29:23Z</time>
      </trkpt>
      <trkpt lat="49.33189" lon="1.01068">
        <ele>130</ele>
        <time>2014-03-23T08:29:31Z</time>
      </trkpt>
      <trkpt lat="49.33202" lon="1.01106">
        <ele>131</ele>
        <time>2014-03-23T08:29:39Z</time>
      </trkpt>
      <trkpt lat="49.33212" lon="1.01143">
        <ele>132</ele>
        <time>2014-03-23T08:29:47Z</time>
      </trkpt>
      <trkpt lat="49.33227" lon="1.01184">
        <ele>133</ele>
        <time>2014-03-23T08:29:55Z</time>
      </trkpt>
      <trkpt lat="49.33243" lon="1.01206">
        <ele>133</ele>
        <time>2014-03-23T08:30:03Z</time>
      </trkpt>
      <trkpt lat="49.33265" lon="1.01187">
        <ele>135</ele>
        <time>2014-03-23T08:30:11Z</time>
      </trkpt>
      <trkpt lat="49.33277" lon="1.01153">
        <ele>133</ele>
        <time>2014-03-23T08:30:19Z</time>
      </trkpt>
      <trkpt lat="49.33304" lon="1.01151">
        <ele>133</ele>
        <time>2014-03-23T08:30:27Z</time>
      </trkpt>
      <trkpt lat="49.33333" lon="1.01156">
        <ele>133</ele>
        <time>2014-03-23T08:30:35Z</time>
      </trkpt>
      <trkpt lat="49.33352" lon="1.01159">
        <ele>132</ele>
        <time>2014-03-23T08:30:39Z</time>
      </trkpt>
      <trkpt lat="49.33372" lon="1.01171">
        <ele>134</ele>
        <time>2014-03-23T08:30:43Z</time>
      </trkpt>
      <trkpt lat="49.33397" lon="1.01211">
        <ele>135</ele>
        <time>2014-03-23T08:30:51Z</time>
      </trkpt>
      <trkpt lat="49.33415" lon="1.0126">
        <ele>137</ele>
        <time>2014-03-23T08:30:59Z</time>
      </trkpt>
      <trkpt lat="49.33436" lon="1.01249">
        <ele>135</ele>
        <time>2014-03-23T08:31:15Z</time>
      </trkpt>
      <trkpt lat="49.33455" lon="1.01228">
        <ele>134</ele>
        <time>2014-03-23T08:31:23Z</time>
      </trkpt>
      <trkpt lat="49.33471" lon="1.01207">
        <ele>133</ele>
        <time>2014-03-23T08:31:43Z</time>
      </trkpt>
      <trkpt lat="49.33505" lon="1.01214">
        <ele>135</ele>
        <time>2014-03-23T08:31:59Z</time>
      </trkpt>
      <trkpt lat="49.33523" lon="1.01225">
        <ele>136</ele>
        <time>2014-03-23T08:32:03Z</time>
      </trkpt>
      <trkpt lat="49.33554" lon="1.01246">
        <ele>137</ele>
        <time>2014-03-23T08:32:11Z</time>
      </trkpt>
      <trkpt lat="49.33584" lon="1.01267">
        <ele>137</ele>
        <time>2014-03-23T08:32:19Z</time>
      </trkpt>
      <trkpt lat="49.33618" lon="1.0129">
        <ele>137</ele>
        <time>2014-03-23T08:32:27Z</time>
      </trkpt>
      <trkpt lat="49.3365" lon="1.01311">
        <ele>137</ele>
        <time>2014-03-23T08:32:35Z</time>
      </trkpt>
      <trkpt lat="49.33668" lon="1.01325">
        <ele>136</ele>
        <time>2014-03-23T08:32:39Z</time>
      </trkpt>
      <trkpt lat="49.33686" lon="1.01334">
        <ele>134</ele>
        <time>2014-03-23T08:32:43Z</time>
      </trkpt>
      <trkpt lat="49.33705" lon="1.01345">
        <ele>134</ele>
        <time>2014-03-23T08:32:47Z</time>
      </trkpt>
      <trkpt lat="49.33722" lon="1.01357">
        <ele>133</ele>
        <time>2014-03-23T08:32:51Z</time>
      </trkpt>
      <trkpt lat="49.33754" lon="1.01377">
        <ele>131</ele>
        <time>2014-03-23T08:32:59Z</time>
      </trkpt>
      <trkpt lat="49.33784" lon="1.01391">
        <ele>131</ele>
        <time>2014-03-23T08:33:07Z</time>
      </trkpt>
      <trkpt lat="49.33782" lon="1.0136">
        <ele>131</ele>
        <time>2014-03-23T08:33:15Z</time>
      </trkpt>
      <trkpt lat="49.33798" lon="1.01372">
        <ele>131</ele>
        <time>2014-03-23T08:33:23Z</time>
      </trkpt>
      <trkpt lat="49.33779" lon="1.01336">
        <ele>132</ele>
        <time>2014-03-23T08:33:47Z</time>
      </trkpt>
      <trkpt lat="49.3377" lon="1.01311">
        <ele>133</ele>
        <time>2014-03-23T08:33:51Z</time>
      </trkpt>
      <trkpt lat="49.33772" lon="1.01259">
        <ele>132</ele>
        <time>2014-03-23T08:33:59Z</time>
      </trkpt>
      <trkpt lat="49.33762" lon="1.01211">
        <ele>131</ele>
        <time>2014-03-23T08:34:07Z</time>
      </trkpt>
      <trkpt lat="49.33753" lon="1.01168">
        <ele>132</ele>
        <time>2014-03-23T08:34:15Z</time>
      </trkpt>
      <trkpt lat="49.33742" lon="1.01119">
        <ele>135</ele>
        <time>2014-03-23T08:34:23Z</time>
      </trkpt>
      <trkpt lat="49.33735" lon="1.01091">
        <ele>134</ele>
        <time>2014-03-23T08:34:27Z</time>
      </trkpt>
      <trkpt lat="49.33729" lon="1.01062">
        <ele>135</ele>
        <time>2014-03-23T08:34:31Z</time>
      </trkpt>
      <trkpt lat="49.33723" lon="1.01035">
        <ele>136</ele>
        <time>2014-03-23T08:34:35Z</time>
      </trkpt>
      <trkpt lat="49.33718" lon="1.01008">
        <ele>136</ele>
        <time>2014-03-23T08:34:39Z</time>
      </trkpt>
      <trkpt lat="49.33711" lon="1.0098">
        <ele>135</ele>
        <time>2014-03-23T08:34:43Z</time>
      </trkpt>
      <trkpt lat="49.33704" lon="1.00952">
        <ele>135</ele>
        <time>2014-03-23T08:34:47Z</time>
      </trkpt>
      <trkpt lat="49.337" lon="1.00923">
        <ele>135</ele>
        <time>2014-03-23T08:34:51Z</time>
      </trkpt>
      <trkpt lat="49.33699" lon="1.00894">
        <ele>134</ele>
        <time>2014-03-23T08:34:55Z</time>
      </trkpt>
      <trkpt lat="49.33694" lon="1.00866">
        <ele>134</ele>
        <time>2014-03-23T08:34:59Z</time>
      </trkpt>
      <trkpt lat="49.33689" lon="1.00838">
        <ele>135</ele>
        <time>2014-03-23T08:35:03Z</time>
      </trkpt>
      <trkpt lat="49.33688" lon="1.00807">
        <ele>135</ele>
        <time>2014-03-23T08:35:07Z</time>
      </trkpt>
      <trkpt lat="49.33689" lon="1.00775">
        <ele>135</ele>
        <time>2014-03-23T08:35:11Z</time>
      </trkpt>
      <trkpt lat="49.33692" lon="1.00747">
        <ele>135</ele>
        <time>2014-03-23T08:35:15Z</time>
      </trkpt>
      <trkpt lat="49.33696" lon="1.00716">
        <ele>135</ele>
        <time>2014-03-23T08:35:19Z</time>
      </trkpt>
      <trkpt lat="49.33701" lon="1.00688">
        <ele>136</ele>
        <time>2014-03-23T08:35:23Z</time>
      </trkpt>
      <trkpt lat="49.33707" lon="1.00634">
        <ele>136</ele>
        <time>2014-03-23T08:35:31Z</time>
      </trkpt>
      <trkpt lat="49.33708" lon="1.00606">
        <ele>136</ele>
        <time>2014-03-23T08:35:35Z</time>
      </trkpt>
      <trkpt lat="49.33711" lon="1.00578">
        <ele>136</ele>
        <time>2014-03-23T08:35:39Z</time>
      </trkpt>
      <trkpt lat="49.33713" lon="1.00549">
        <ele>136</ele>
        <time>2014-03-23T08:35:43Z</time>
      </trkpt>
      <trkpt lat="49.33714" lon="1.0052">
        <ele>136</ele>
        <time>2014-03-23T08:35:47Z</time>
      </trkpt>
      <trkpt lat="49.33713" lon="1.0049">
        <ele>135</ele>
        <time>2014-03-23T08:35:51Z</time>
      </trkpt>
      <trkpt lat="49.33711" lon="1.00462">
        <ele>135</ele>
        <time>2014-03-23T08:35:55Z</time>
      </trkpt>
      <trkpt lat="49.33707" lon="1.00434">
        <ele>135</ele>
        <time>2014-03-23T08:35:59Z</time>
      </trkpt>
      <trkpt lat="49.33699" lon="1.00408">
        <ele>135</ele>
        <time>2014-03-23T08:36:03Z</time>
      </trkpt>
      <trkpt lat="49.33689" lon="1.00383">
        <ele>135</ele>
        <time>2014-03-23T08:36:07Z</time>
      </trkpt>
      <trkpt lat="49.33678" lon="1.0036">
        <ele>134</ele>
        <time>2014-03-23T08:36:11Z</time>
      </trkpt>
      <trkpt lat="49.33666" lon="1.00335">
        <ele>134</ele>
        <time>2014-03-23T08:36:15Z</time>
      </trkpt>
      <trkpt lat="49.33654" lon="1.0031">
        <ele>133</ele>
        <time>2014-03-23T08:36:19Z</time>
      </trkpt>
      <trkpt lat="49.33645" lon="1.00282">
        <ele>132</ele>
        <time>2014-03-23T08:36:23Z</time>
      </trkpt>
      <trkpt lat="49.33641" lon="1.00252">
        <ele>132</ele>
        <time>2014-03-23T08:36:27Z</time>
      </trkpt>
      <trkpt lat="49.33644" lon="1.00223">
        <ele>131</ele>
        <time>2014-03-23T08:36:31Z</time>
      </trkpt>
      <trkpt lat="49.33653" lon="1.00196">
        <ele>131</ele>
        <time>2014-03-23T08:36:35Z</time>
      </trkpt>
      <trkpt lat="49.33662" lon="1.00172">
        <ele>131</ele>
        <time>2014-03-23T08:36:39Z</time>
      </trkpt>
      <trkpt lat="49.33678" lon="1.0013">
        <ele>133</ele>
        <time>2014-03-23T08:36:47Z</time>
      </trkpt>
      <trkpt lat="49.33689" lon="1.00094">
        <ele>132</ele>
        <time>2014-03-23T08:36:55Z</time>
      </trkpt>
      <trkpt lat="49.33699" lon="1.00056">
        <ele>133</ele>
        <time>2014-03-23T08:37:03Z</time>
      </trkpt>
      <trkpt lat="49.33709" lon="1.00011">
        <ele>134</ele>
        <time>2014-03-23T08:37:11Z</time>
      </trkpt>
      <trkpt lat="49.33709" lon="0.99971">
        <ele>135</ele>
        <time>2014-03-23T08:37:19Z</time>
      </trkpt>
      <trkpt lat="49.33699" lon="0.99932">
        <ele>134</ele>
        <time>2014-03-23T08:37:27Z</time>
      </trkpt>
      <trkpt lat="49.33679" lon="0.99895">
        <ele>135</ele>
        <time>2014-03-23T08:37:35Z</time>
      </trkpt>
      <trkpt lat="49.33651" lon="0.99864">
        <ele>134</ele>
        <time>2014-03-23T08:37:43Z</time>
      </trkpt>
      <trkpt lat="49.33625" lon="0.99835">
        <ele>135</ele>
        <time>2014-03-23T08:37:51Z</time>
      </trkpt>
      <trkpt lat="49.33596" lon="0.99803">
        <ele>136</ele>
        <time>2014-03-23T08:37:59Z</time>
      </trkpt>
      <trkpt lat="49.3358" lon="0.99787">
        <ele>134</ele>
        <time>2014-03-23T08:38:03Z</time>
      </trkpt>
      <trkpt lat="49.33562" lon="0.99773">
        <ele>134</ele>
        <time>2014-03-23T08:38:07Z</time>
      </trkpt>
      <trkpt lat="49.33544" lon="0.99757">
        <ele>134</ele>
        <time>2014-03-23T08:38:11Z</time>
      </trkpt>
      <trkpt lat="49.33526" lon="0.99742">
        <ele>137</ele>
        <time>2014-03-23T08:38:15Z</time>
      </trkpt>
      <trkpt lat="49.33502" lon="0.99721">
        <ele>137</ele>
        <time>2014-03-23T08:38:23Z</time>
      </trkpt>
      <trkpt lat="49.33482" lon="0.99716">
        <ele>136</ele>
        <time>2014-03-23T08:38:31Z</time>
      </trkpt>
      <trkpt lat="49.3346" lon="0.99715">
        <ele>136</ele>
        <time>2014-03-23T08:38:35Z</time>
      </trkpt>
      <trkpt lat="49.33427" lon="0.99716">
        <ele>135</ele>
        <time>2014-03-23T08:38:43Z</time>
      </trkpt>
      <trkpt lat="49.33406" lon="0.99718">
        <ele>132</ele>
        <time>2014-03-23T08:38:47Z</time>
      </trkpt>
      <trkpt lat="49.33383" lon="0.99721">
        <ele>132</ele>
        <time>2014-03-23T08:38:51Z</time>
      </trkpt>
      <trkpt lat="49.33361" lon="0.99723">
        <ele>132</ele>
        <time>2014-03-23T08:38:55Z</time>
      </trkpt>
      <trkpt lat="49.33338" lon="0.99723">
        <ele>131</ele>
        <time>2014-03-23T08:38:59Z</time>
      </trkpt>
      <trkpt lat="49.33317" lon="0.99723">
        <ele>130</ele>
        <time>2014-03-23T08:39:03Z</time>
      </trkpt>
      <trkpt lat="49.33296" lon="0.99723">
        <ele>129</ele>
        <time>2014-03-23T08:39:07Z</time>
      </trkpt>
      <trkpt lat="49.33273" lon="0.99722">
        <ele>129</ele>
        <time>2014-03-23T08:39:11Z</time>
      </trkpt>
      <trkpt lat="49.33254" lon="0.99722">
        <ele>129</ele>
        <time>2014-03-23T08:39:15Z</time>
      </trkpt>
      <trkpt lat="49.33239" lon="0.99703">
        <ele>127</ele>
        <time>2014-03-23T08:39:23Z</time>
      </trkpt>
      <trkpt lat="49.33256" lon="0.99687">
        <ele>130</ele>
        <time>2014-03-23T08:41:07Z</time>
      </trkpt>
      <trkpt lat="49.33238" lon="0.9969">
        <ele>128</ele>
        <time>2014-03-23T08:44:07Z</time>
      </trkpt>
      <trkpt lat="49.33218" lon="0.99708">
        <ele>126</ele>
        <time>2014-03-23T08:48:27Z</time>
      </trkpt>
      <trkpt lat="49.33198" lon="0.99701">
        <ele>126</ele>
        <time>2014-03-23T08:48:35Z</time>
      </trkpt>
      <trkpt lat="49.33175" lon="0.9972">
        <ele>125</ele>
        <time>2014-03-23T08:48:47Z</time>
      </trkpt>
      <trkpt lat="49.33151" lon="0.99742">
        <ele>123</ele>
        <time>2014-03-23T08:48:55Z</time>
      </trkpt>
      <trkpt lat="49.33133" lon="0.99775">
        <ele>121</ele>
        <time>2014-03-23T08:49:07Z</time>
      </trkpt>
      <trkpt lat="49.33109" lon="0.99809">
        <ele>121</ele>
        <time>2014-03-23T08:49:15Z</time>
      </trkpt>
      <trkpt lat="49.3308" lon="0.99824">
        <ele>119</ele>
        <time>2014-03-23T08:49:23Z</time>
      </trkpt>
      <trkpt lat="49.33055" lon="0.99831">
        <ele>119</ele>
        <time>2014-03-23T08:49:39Z</time>
      </trkpt>
      <trkpt lat="49.3304" lon="0.99816">
        <ele>119</ele>
        <time>2014-03-23T08:49:47Z</time>
      </trkpt>
      <trkpt lat="49.33022" lon="0.99827">
        <ele>119</ele>
        <time>2014-03-23T08:49:59Z</time>
      </trkpt>
      <trkpt lat="49.33019" lon="0.99864">
        <ele>116</ele>
        <time>2014-03-23T08:50:07Z</time>
      </trkpt>
      <trkpt lat="49.33017" lon="0.99901">
        <ele>115</ele>
        <time>2014-03-23T08:50:15Z</time>
      </trkpt>
      <trkpt lat="49.33006" lon="0.99938">
        <ele>113</ele>
        <time>2014-03-23T08:50:23Z</time>
      </trkpt>
      <trkpt lat="49.33002" lon="0.99974">
        <ele>112</ele>
        <time>2014-03-23T08:50:31Z</time>
      </trkpt>
      <trkpt lat="49.33005" lon="1.00008">
        <ele>109</ele>
        <time>2014-03-23T08:50:39Z</time>
      </trkpt>
      <trkpt lat="49.33002" lon="1.0004">
        <ele>109</ele>
        <time>2014-03-23T08:50:47Z</time>
      </trkpt>
      <trkpt lat="49.33" lon="1.00067">
        <ele>107</ele>
        <time>2014-03-23T08:50:55Z</time>
      </trkpt>
      <trkpt lat="49.32996" lon="1.00105">
        <ele>102</ele>
        <time>2014-03-23T08:51:07Z</time>
      </trkpt>
      <trkpt lat="49.32979" lon="1.00126">
        <ele>100</ele>
        <time>2014-03-23T08:51:15Z</time>
      </trkpt>
      <trkpt lat="49.3296" lon="1.00122">
        <ele>100</ele>
        <time>2014-03-23T08:51:23Z</time>
      </trkpt>
      <trkpt lat="49.3294" lon="1.00112">
        <ele>100</ele>
        <time>2014-03-23T08:51:31Z</time>
      </trkpt>
      <trkpt lat="49.32911" lon="1.00107">
        <ele>98</ele>
        <time>2014-03-23T08:51:39Z</time>
      </trkpt>
      <trkpt lat="49.32891" lon="1.001">
        <ele>97</ele>
        <time>2014-03-23T08:51:47Z</time>
      </trkpt>
      <trkpt lat="49.32873" lon="1.00087">
        <ele>97</ele>
        <time>2014-03-23T08:52:11Z</time>
      </trkpt>
      <trkpt lat="49.32862" lon="1.00056">
        <ele>103</ele>
        <time>2014-03-23T08:52:47Z</time>
      </trkpt>
      <trkpt lat="49.32842" lon="1.00035">
        <ele>104</ele>
        <time>2014-03-23T08:52:59Z</time>
      </trkpt>
      <trkpt lat="49.32827" lon="1.00009">
        <ele>103</ele>
        <time>2014-03-23T08:53:07Z</time>
      </trkpt>
      <trkpt lat="49.32802" lon="0.99998">
        <ele>106</ele>
        <time>2014-03-23T08:53:19Z</time>
      </trkpt>
      <trkpt lat="49.32778" lon="0.9999">
        <ele>104</ele>
        <time>2014-03-23T08:53:27Z</time>
      </trkpt>
      <trkpt lat="49.32763" lon="0.99973">
        <ele>104</ele>
        <time>2014-03-23T08:53:35Z</time>
      </trkpt>
      <trkpt lat="49.32743" lon="0.99965">
        <ele>103</ele>
        <time>2014-03-23T08:53:47Z</time>
      </trkpt>
      <trkpt lat="49.32721" lon="0.99968">
        <ele>103</ele>
        <time>2014-03-23T08:53:55Z</time>
      </trkpt>
      <trkpt lat="49.32699" lon="0.99985">
        <ele>102</ele>
        <time>2014-03-23T08:54:03Z</time>
      </trkpt>
      <trkpt lat="49.32684" lon="1.00004">
        <ele>95</ele>
        <time>2014-03-23T08:54:11Z</time>
      </trkpt>
      <trkpt lat="49.32683" lon="1.00038">
        <ele>92</ele>
        <time>2014-03-23T08:54:35Z</time>
      </trkpt>
      <trkpt lat="49.32659" lon="1.00031">
        <ele>86</ele>
        <time>2014-03-23T08:54:43Z</time>
      </trkpt>
      <trkpt lat="49.32629" lon="1.0001">
        <ele>83</ele>
        <time>2014-03-23T08:54:51Z</time>
      </trkpt>
      <trkpt lat="49.32612" lon="0.99994">
        <ele>87</ele>
        <time>2014-03-23T08:54:55Z</time>
      </trkpt>
      <trkpt lat="49.32594" lon="0.99962">
        <ele>87</ele>
        <time>2014-03-23T08:55:03Z</time>
      </trkpt>
      <trkpt lat="49.32583" lon="0.99934">
        <ele>77</ele>
        <time>2014-03-23T08:55:07Z</time>
      </trkpt>
      <trkpt lat="49.32571" lon="0.99906">
        <ele>80</ele>
        <time>2014-03-23T08:55:11Z</time>
      </trkpt>
      <trkpt lat="49.32553" lon="0.99874">
        <ele>77</ele>
        <time>2014-03-23T08:55:15Z</time>
      </trkpt>
      <trkpt lat="49.32543" lon="0.99849">
        <ele>77</ele>
        <time>2014-03-23T08:55:19Z</time>
      </trkpt>
      <trkpt lat="49.32533" lon="0.99818">
        <ele>79</ele>
        <time>2014-03-23T08:55:23Z</time>
      </trkpt>
      <trkpt lat="49.32519" lon="0.99772">
        <ele>78</ele>
        <time>2014-03-23T08:55:31Z</time>
      </trkpt>
      <trkpt lat="49.32508" lon="0.99723">
        <ele>81</ele>
        <time>2014-03-23T08:55:39Z</time>
      </trkpt>
      <trkpt lat="49.32503" lon="0.99696">
        <ele>82</ele>
        <time>2014-03-23T08:55:43Z</time>
      </trkpt>
      <trkpt lat="49.32489" lon="0.99648">
        <ele>73</ele>
        <time>2014-03-23T08:55:51Z</time>
      </trkpt>
      <trkpt lat="49.32473" lon="0.99611">
        <ele>75</ele>
        <time>2014-03-23T08:55:59Z</time>
      </trkpt>
      <trkpt lat="49.32458" lon="0.99583">
        <ele>83</ele>
        <time>2014-03-23T08:56:07Z</time>
      </trkpt>
      <trkpt lat="49.32433" lon="0.99555">
        <ele>80</ele>
        <time>2014-03-23T08:56:15Z</time>
      </trkpt>
      <trkpt lat="49.3241" lon="0.99537">
        <ele>69</ele>
        <time>2014-03-23T08:56:23Z</time>
      </trkpt>
      <trkpt lat="49.32392" lon="0.99521">
        <ele>70</ele>
        <time>2014-03-23T08:56:31Z</time>
      </trkpt>
      <trkpt lat="49.32371" lon="0.99506">
        <ele>69</ele>
        <time>2014-03-23T08:56:39Z</time>
      </trkpt>
      <trkpt lat="49.32352" lon="0.99513">
        <ele>67</ele>
        <time>2014-03-23T08:57:03Z</time>
      </trkpt>
      <trkpt lat="49.32335" lon="0.99501">
        <ele>69</ele>
        <time>2014-03-23T08:57:27Z</time>
      </trkpt>
      <trkpt lat="49.32318" lon="0.99487">
        <ele>72</ele>
        <time>2014-03-23T08:57:47Z</time>
      </trkpt>
      <trkpt lat="49.32294" lon="0.99484">
        <ele>72</ele>
        <time>2014-03-23T08:57:55Z</time>
      </trkpt>
      <trkpt lat="49.32274" lon="0.99476">
        <ele>71</ele>
        <time>2014-03-23T08:58:03Z</time>
      </trkpt>
      <trkpt lat="49.32244" lon="0.99469">
        <ele>66</ele>
        <time>2014-03-23T08:58:11Z</time>
      </trkpt>
      <trkpt lat="49.32225" lon="0.99467">
        <ele>66</ele>
        <time>2014-03-23T08:58:19Z</time>
      </trkpt>
      <trkpt lat="49.32208" lon="0.99454">
        <ele>67</ele>
        <time>2014-03-23T08:58:27Z</time>
      </trkpt>
      <trkpt lat="49.32185" lon="0.99439">
        <ele>68</ele>
        <time>2014-03-23T08:58:39Z</time>
      </trkpt>
      <trkpt lat="49.32166" lon="0.99432">
        <ele>64</ele>
        <time>2014-03-23T08:58:47Z</time>
      </trkpt>
      <trkpt lat="49.32143" lon="0.99419">
        <ele>61</ele>
        <time>2014-03-23T08:58:55Z</time>
      </trkpt>
      <trkpt lat="49.32115" lon="0.99401">
        <ele>64</ele>
        <time>2014-03-23T08:59:03Z</time>
      </trkpt>
      <trkpt lat="49.32093" lon="0.9938">
        <ele>63</ele>
        <time>2014-03-23T08:59:11Z</time>
      </trkpt>
      <trkpt lat="49.32077" lon="0.99354">
        <ele>52</ele>
        <time>2014-03-23T08:59:19Z</time>
      </trkpt>
      <trkpt lat="49.32052" lon="0.99341">
        <ele>49</ele>
        <time>2014-03-23T08:59:27Z</time>
      </trkpt>
      <trkpt lat="49.32031" lon="0.99331">
        <ele>44</ele>
        <time>2014-03-23T08:59:31Z</time>
      </trkpt>
      <trkpt lat="49.32017" lon="0.9931">
        <ele>42</ele>
        <time>2014-03-23T08:59:35Z</time>
      </trkpt>
      <trkpt lat="49.32029" lon="0.99263">
        <ele>41</ele>
        <time>2014-03-23T08:59:43Z</time>
      </trkpt>
      <trkpt lat="49.32045" lon="0.99231">
        <ele>39</ele>
        <time>2014-03-23T08:59:51Z</time>
      </trkpt>
      <trkpt lat="49.32064" lon="0.99194">
        <ele>40</ele>
        <time>2014-03-23T08:59:59Z</time>
      </trkpt>
      <trkpt lat="49.32085" lon="0.99155">
        <ele>50</ele>
        <time>2014-03-23T09:00:07Z</time>
      </trkpt>
      <trkpt lat="49.32099" lon="0.99122">
        <ele>52</ele>
        <time>2014-03-23T09:00:15Z</time>
      </trkpt>
      <trkpt lat="49.32108" lon="0.99084">
        <ele>50</ele>
        <time>2014-03-23T09:00:23Z</time>
      </trkpt>
      <trkpt lat="49.32123" lon="0.99038">
        <ele>46</ele>
        <time>2014-03-23T09:00:31Z</time>
      </trkpt>
      <trkpt lat="49.32133" lon="0.99006">
        <ele>46</ele>
        <time>2014-03-23T09:00:39Z</time>
      </trkpt>
      <trkpt lat="49.32142" lon="0.98964">
        <ele>41</ele>
        <time>2014-03-23T09:00:47Z</time>
      </trkpt>
      <trkpt lat="49.32156" lon="0.98933">
        <ele>43</ele>
        <time>2014-03-23T09:00:59Z</time>
      </trkpt>
      <trkpt lat="49.32163" lon="0.98906">
        <ele>44</ele>
        <time>2014-03-23T09:01:15Z</time>
      </trkpt>
      <trkpt lat="49.32174" lon="0.98875">
        <ele>55</ele>
        <time>2014-03-23T09:01:47Z</time>
      </trkpt>
      <trkpt lat="49.32185" lon="0.98851">
        <ele>54</ele>
        <time>2014-03-23T09:01:59Z</time>
      </trkpt>
      <trkpt lat="49.32186" lon="0.98815">
        <ele>49</ele>
        <time>2014-03-23T09:02:07Z</time>
      </trkpt>
      <trkpt lat="49.32201" lon="0.98793">
        <ele>50</ele>
        <time>2014-03-23T09:02:19Z</time>
      </trkpt>
      <trkpt lat="49.32222" lon="0.98768">
        <ele>52</ele>
        <time>2014-03-23T09:02:43Z</time>
      </trkpt>
      <trkpt lat="49.32237" lon="0.98752">
        <ele>54</ele>
        <time>2014-03-23T09:02:59Z</time>
      </trkpt>
      <trkpt lat="49.32247" lon="0.98722">
        <ele>51</ele>
        <time>2014-03-23T09:03:11Z</time>
      </trkpt>
      <trkpt lat="49.32247" lon="0.98684">
        <ele>52</ele>
        <time>2014-03-23T09:03:19Z</time>
      </trkpt>
      <trkpt lat="49.32239" lon="0.98657">
        <ele>54</ele>
        <time>2014-03-23T09:03:27Z</time>
      </trkpt>
      <trkpt lat="49.32219" lon="0.98627">
        <ele>51</ele>
        <time>2014-03-23T09:03:35Z</time>
      </trkpt>
      <trkpt lat="49.32207" lon="0.98591">
        <ele>51</ele>
        <time>2014-03-23T09:03:43Z</time>
      </trkpt>
      <trkpt lat="49.32211" lon="0.98544">
        <ele>55</ele>
        <time>2014-03-23T09:03:51Z</time>
      </trkpt>
      <trkpt lat="49.32225" lon="0.98509">
        <ele>57</ele>
        <time>2014-03-23T09:03:59Z</time>
      </trkpt>
      <trkpt lat="49.3223" lon="0.98469">
        <ele>56</ele>
        <time>2014-03-23T09:04:07Z</time>
      </trkpt>
      <trkpt lat="49.32218" lon="0.98499">
        <ele>56</ele>
        <time>2014-03-23T09:04:19Z</time>
      </trkpt>
      <trkpt lat="49.322" lon="0.98532">
        <ele>55</ele>
        <time>2014-03-23T09:04:27Z</time>
      </trkpt>
      <trkpt lat="49.32177" lon="0.98566">
        <ele>52</ele>
        <time>2014-03-23T09:04:35Z</time>
      </trkpt>
      <trkpt lat="49.3216" lon="0.98587">
        <ele>43</ele>
        <time>2014-03-23T09:04:43Z</time>
      </trkpt>
      <trkpt lat="49.32144" lon="0.98559">
        <ele>46</ele>
        <time>2014-03-23T09:04:51Z</time>
      </trkpt>
      <trkpt lat="49.32126" lon="0.98532">
        <ele>46</ele>
        <time>2014-03-23T09:04:59Z</time>
      </trkpt>
      <trkpt lat="49.32103" lon="0.98504">
        <ele>47</ele>
        <time>2014-03-23T09:05:07Z</time>
      </trkpt>
      <trkpt lat="49.32079" lon="0.98475">
        <ele>48</ele>
        <time>2014-03-23T09:05:15Z</time>
      </trkpt>
      <trkpt lat="49.32063" lon="0.98456">
        <ele>48</ele>
        <time>2014-03-23T09:05:23Z</time>
      </trkpt>
      <trkpt lat="49.32037" lon="0.98455">
        <ele>47</ele>
        <time>2014-03-23T09:05:31Z</time>
      </trkpt>
      <trkpt lat="49.32012" lon="0.98459">
        <ele>47</ele>
        <time>2014-03-23T09:05:39Z</time>
      </trkpt>
      <trkpt lat="49.31984" lon="0.9847">
        <ele>43</ele>
        <time>2014-03-23T09:05:47Z</time>
      </trkpt>
      <trkpt lat="49.31965" lon="0.98474">
        <ele>43</ele>
        <time>2014-03-23T09:05:55Z</time>
      </trkpt>
      <trkpt lat="49.31937" lon="0.98484">
        <ele>42</ele>
        <time>2014-03-23T09:06:03Z</time>
      </trkpt>
      <trkpt lat="49.31904" lon="0.9849">
        <ele>38</ele>
        <time>2014-03-23T09:06:11Z</time>
      </trkpt>
      <trkpt lat="49.31885" lon="0.98498">
        <ele>36</ele>
        <time>2014-03-23T09:06:15Z</time>
      </trkpt>
      <trkpt lat="49.31863" lon="0.98496">
        <ele>34</ele>
        <time>2014-03-23T09:06:23Z</time>
      </trkpt>
      <trkpt lat="49.31835" lon="0.98487">
        <ele>32</ele>
        <time>2014-03-23T09:06:31Z</time>
      </trkpt>
      <trkpt lat="49.31827" lon="0.98454">
        <ele>33</ele>
        <time>2014-03-23T09:06:47Z</time>
      </trkpt>
      <trkpt lat="49.31846" lon="0.98419">
        <ele>31</ele>
        <time>2014-03-23T09:06:55Z</time>
      </trkpt>
      <trkpt lat="49.31862" lon="0.98387">
        <ele>32</ele>
        <time>2014-03-23T09:07:03Z</time>
      </trkpt>
      <trkpt lat="49.31875" lon="0.98368">
        <ele>33</ele>
        <time>2014-03-23T09:07:07Z</time>
      </trkpt>
      <trkpt lat="49.31892" lon="0.98339">
        <ele>33</ele>
        <time>2014-03-23T09:07:15Z</time>
      </trkpt>
      <trkpt lat="49.31913" lon="0.98314">
        <ele>32</ele>
        <time>2014-03-23T09:07:23Z</time>
      </trkpt>
      <trkpt lat="49.31941" lon="0.98288">
        <ele>32</ele>
        <time>2014-03-23T09:07:31Z</time>
      </trkpt>
      <trkpt lat="49.31965" lon="0.98254">
        <ele>32</ele>
        <time>2014-03-23T09:07:39Z</time>
      </trkpt>
      <trkpt lat="49.31986" lon="0.98224">
        <ele>29</ele>
        <time>2014-03-23T09:07:47Z</time>
      </trkpt>
      <trkpt lat="49.32" lon="0.98204">
        <ele>28</ele>
        <time>2014-03-23T09:07:51Z</time>
      </trkpt>
      <trkpt lat="49.32013" lon="0.98185">
        <ele>28</ele>
        <time>2014-03-23T09:07:55Z</time>
      </trkpt>
      <trkpt lat="49.32039" lon="0.98161">
        <ele>27</ele>
        <time>2014-03-23T09:08:03Z</time>
      </trkpt>
      <trkpt lat="49.32064" lon="0.98149">
        <ele>28</ele>
        <time>2014-03-23T09:08:11Z</time>
      </trkpt>
      <trkpt lat="49.32082" lon="0.98121">
        <ele>28</ele>
        <time>2014-03-23T09:08:23Z</time>
      </trkpt>
      <trkpt lat="49.32101" lon="0.98097">
        <ele>28</ele>
        <time>2014-03-23T09:08:31Z</time>
      </trkpt>
      <trkpt lat="49.3213" lon="0.98072">
        <ele>28</ele>
        <time>2014-03-23T09:08:39Z</time>
      </trkpt>
      <trkpt lat="49.32148" lon="0.98059">
        <ele>28</ele>
        <time>2014-03-23T09:08:43Z</time>
      </trkpt>
      <trkpt lat="49.32173" lon="0.98044">
        <ele>26</ele>
        <time>2014-03-23T09:08:51Z</time>
      </trkpt>
      <trkpt lat="49.32196" lon="0.98044">
        <ele>26</ele>
        <time>2014-03-23T09:08:59Z</time>
      </trkpt>
      <trkpt lat="49.3222" lon="0.98038">
        <ele>26</ele>
        <time>2014-03-23T09:09:07Z</time>
      </trkpt>
      <trkpt lat="49.32249" lon="0.98043">
        <ele>27</ele>
        <time>2014-03-23T09:09:15Z</time>
      </trkpt>
      <trkpt lat="49.32275" lon="0.98052">
        <ele>27</ele>
        <time>2014-03-23T09:09:23Z</time>
      </trkpt>
      <trkpt lat="49.32293" lon="0.98073">
        <ele>26</ele>
        <time>2014-03-23T09:09:31Z</time>
      </trkpt>
      <trkpt lat="49.32315" lon="0.9809">
        <ele>27</ele>
        <time>2014-03-23T09:09:39Z</time>
      </trkpt>
      <trkpt lat="49.32336" lon="0.98106">
        <ele>26</ele>
        <time>2014-03-23T09:09:47Z</time>
      </trkpt>
      <trkpt lat="49.32355" lon="0.98123">
        <ele>27</ele>
        <time>2014-03-23T09:09:55Z</time>
      </trkpt>
      <trkpt lat="49.32378" lon="0.98136">
        <ele>27</ele>
        <time>2014-03-23T09:10:03Z</time>
      </trkpt>
      <trkpt lat="49.32399" lon="0.98141">
        <ele>27</ele>
        <time>2014-03-23T09:10:11Z</time>
      </trkpt>
      <trkpt lat="49.32421" lon="0.98123">
        <ele>26</ele>
        <time>2014-03-23T09:10:19Z</time>
      </trkpt>
      <trkpt lat="49.32445" lon="0.98091">
        <ele>25</ele>
        <time>2014-03-23T09:10:31Z</time>
      </trkpt>
      <trkpt lat="49.32465" lon="0.9807">
        <ele>27</ele>
        <time>2014-03-23T09:10:39Z</time>
      </trkpt>
      <trkpt lat="49.32478" lon="0.98044">
        <ele>28</ele>
        <time>2014-03-23T09:10:47Z</time>
      </trkpt>
      <trkpt lat="49.32495" lon="0.98029">
        <ele>29</ele>
        <time>2014-03-23T09:10:55Z</time>
      </trkpt>
      <trkpt lat="49.32511" lon="0.98011">
        <ele>31</ele>
        <time>2014-03-23T09:11:03Z</time>
      </trkpt>
      <trkpt lat="49.32527" lon="0.97991">
        <ele>33</ele>
        <time>2014-03-23T09:11:15Z</time>
      </trkpt>
      <trkpt lat="49.32541" lon="0.97973">
        <ele>34</ele>
        <time>2014-03-23T09:11:27Z</time>
      </trkpt>
      <trkpt lat="49.32557" lon="0.97954">
        <ele>34</ele>
        <time>2014-03-23T09:11:59Z</time>
      </trkpt>
      <trkpt lat="49.32577" lon="0.97933">
        <ele>35</ele>
        <time>2014-03-23T09:12:27Z</time>
      </trkpt>
      <trkpt lat="49.3259" lon="0.97911">
        <ele>35</ele>
        <time>2014-03-23T09:12:39Z</time>
      </trkpt>
      <trkpt lat="49.32609" lon="0.979">
        <ele>34</ele>
        <time>2014-03-23T09:12:47Z</time>
      </trkpt>
      <trkpt lat="49.32626" lon="0.9788">
        <ele>33</ele>
        <time>2014-03-23T09:12:59Z</time>
      </trkpt>
      <trkpt lat="49.32635" lon="0.97855">
        <ele>33</ele>
        <time>2014-03-23T09:13:19Z</time>
      </trkpt>
      <trkpt lat="49.32648" lon="0.9783">
        <ele>32</ele>
        <time>2014-03-23T09:13:31Z</time>
      </trkpt>
      <trkpt lat="49.32656" lon="0.97793">
        <ele>32</ele>
        <time>2014-03-23T09:13:43Z</time>
      </trkpt>
      <trkpt lat="49.3268" lon="0.97784">
        <ele>29</ele>
        <time>2014-03-23T09:13:51Z</time>
      </trkpt>
      <trkpt lat="49.32695" lon="0.9776">
        <ele>29</ele>
        <time>2014-03-23T09:13:59Z</time>
      </trkpt>
      <trkpt lat="49.32713" lon="0.97749">
        <ele>29</ele>
        <time>2014-03-23T09:14:07Z</time>
      </trkpt>
      <trkpt lat="49.32729" lon="0.97778">
        <ele>28</ele>
        <time>2014-03-23T09:14:15Z</time>
      </trkpt>
      <trkpt lat="49.32748" lon="0.97819">
        <ele>26</ele>
        <time>2014-03-23T09:14:23Z</time>
      </trkpt>
      <trkpt lat="49.32769" lon="0.9784">
        <ele>31</ele>
        <time>2014-03-23T09:14:31Z</time>
      </trkpt>
      <trkpt lat="49.32784" lon="0.97876">
        <ele>34</ele>
        <time>2014-03-23T09:14:39Z</time>
      </trkpt>
      <trkpt lat="49.32785" lon="0.97919">
        <ele>36</ele>
        <time>2014-03-23T09:14:47Z</time>
      </trkpt>
      <trkpt lat="49.32777" lon="0.97958">
        <ele>37</ele>
        <time>2014-03-23T09:14:55Z</time>
      </trkpt>
      <trkpt lat="49.32765" lon="0.97993">
        <ele>35</ele>
        <time>2014-03-23T09:15:03Z</time>
      </trkpt>
      <trkpt lat="49.32753" lon="0.98025">
        <ele>43</ele>
        <time>2014-03-23T09:15:11Z</time>
      </trkpt>
      <trkpt lat="49.3274" lon="0.98054">
        <ele>36</ele>
        <time>2014-03-23T09:15:19Z</time>
      </trkpt>
      <trkpt lat="49.32724" lon="0.98083">
        <ele>37</ele>
        <time>2014-03-23T09:15:27Z</time>
      </trkpt>
      <trkpt lat="49.32709" lon="0.98108">
        <ele>44</ele>
        <time>2014-03-23T09:15:35Z</time>
      </trkpt>
      <trkpt lat="49.32695" lon="0.98129">
        <ele>44</ele>
        <time>2014-03-23T09:15:43Z</time>
      </trkpt>
      <trkpt lat="49.3268" lon="0.98152">
        <ele>44</ele>
        <time>2014-03-23T09:15:51Z</time>
      </trkpt>
      <trkpt lat="49.32664" lon="0.98172">
        <ele>44</ele>
        <time>2014-03-23T09:15:59Z</time>
      </trkpt>
      <trkpt lat="49.32641" lon="0.98193">
        <ele>46</ele>
        <time>2014-03-23T09:16:11Z</time>
      </trkpt>
      <trkpt lat="49.32624" lon="0.98215">
        <ele>48</ele>
        <time>2014-03-23T09:16:19Z</time>
      </trkpt>
      <trkpt lat="49.32608" lon="0.98234">
        <ele>49</ele>
        <time>2014-03-23T09:16:27Z</time>
      </trkpt>
      <trkpt lat="49.32588" lon="0.98251">
        <ele>54</ele>
        <time>2014-03-23T09:16:35Z</time>
      </trkpt>
      <trkpt lat="49.32571" lon="0.98259">
        <ele>54</ele>
        <time>2014-03-23T09:16:43Z</time>
      </trkpt>
      <trkpt lat="49.32551" lon="0.98267">
        <ele>55</ele>
        <time>2014-03-23T09:16:55Z</time>
      </trkpt>
      <trkpt lat="49.32569" lon="0.98279">
        <ele>56</ele>
        <time>2014-03-23T09:17:19Z</time>
      </trkpt>
      <trkpt lat="49.32592" lon="0.98275">
        <ele>61</ele>
        <time>2014-03-23T09:17:27Z</time>
      </trkpt>
      <trkpt lat="49.32611" lon="0.98269">
        <ele>62</ele>
        <time>2014-03-23T09:17:35Z</time>
      </trkpt>
      <trkpt lat="49.32631" lon="0.98252">
        <ele>63</ele>
        <time>2014-03-23T09:17:43Z</time>
      </trkpt>
      <trkpt lat="49.32654" lon="0.98226">
        <ele>51</ele>
        <time>2014-03-23T09:17:51Z</time>
      </trkpt>
      <trkpt lat="49.32677" lon="0.98204">
        <ele>58</ele>
        <time>2014-03-23T09:17:59Z</time>
      </trkpt>
      <trkpt lat="49.32691" lon="0.98182">
        <ele>57</ele>
        <time>2014-03-23T09:18:03Z</time>
      </trkpt>
      <trkpt lat="49.3271" lon="0.98143">
        <ele>48</ele>
        <time>2014-03-23T09:18:11Z</time>
      </trkpt>
      <trkpt lat="49.32733" lon="0.98121">
        <ele>48</ele>
        <time>2014-03-23T09:18:23Z</time>
      </trkpt>
      <trkpt lat="49.32749" lon="0.98102">
        <ele>46</ele>
        <time>2014-03-23T09:18:31Z</time>
      </trkpt>
      <trkpt lat="49.32765" lon="0.98086">
        <ele>56</ele>
        <time>2014-03-23T09:18:39Z</time>
      </trkpt>
      <trkpt lat="49.32784" lon="0.98066">
        <ele>52</ele>
        <time>2014-03-23T09:18:51Z</time>
      </trkpt>
      <trkpt lat="49.32803" lon="0.98043">
        <ele>54</ele>
        <time>2014-03-23T09:19:07Z</time>
      </trkpt>
      <trkpt lat="49.3282" lon="0.98019">
        <ele>54</ele>
        <time>2014-03-23T09:19:19Z</time>
      </trkpt>
      <trkpt lat="49.32837" lon="0.97997">
        <ele>56</ele>
        <time>2014-03-23T09:19:35Z</time>
      </trkpt>
      <trkpt lat="49.32845" lon="0.97967">
        <ele>55</ele>
        <time>2014-03-23T09:19:43Z</time>
      </trkpt>
      <trkpt lat="49.32848" lon="0.97935">
        <ele>53</ele>
        <time>2014-03-23T09:19:51Z</time>
      </trkpt>
      <trkpt lat="49.32854" lon="0.97904">
        <ele>50</ele>
        <time>2014-03-23T09:19:59Z</time>
      </trkpt>
      <trkpt lat="49.32863" lon="0.97864">
        <ele>50</ele>
        <time>2014-03-23T09:20:11Z</time>
      </trkpt>
      <trkpt lat="49.32871" lon="0.97826">
        <ele>48</ele>
        <time>2014-03-23T09:20:19Z</time>
      </trkpt>
      <trkpt lat="49.32873" lon="0.97789">
        <ele>48</ele>
        <time>2014-03-23T09:20:27Z</time>
      </trkpt>
      <trkpt lat="49.32864" lon="0.97737">
        <ele>45</ele>
        <time>2014-03-23T09:20:35Z</time>
      </trkpt>
      <trkpt lat="49.32854" lon="0.9771">
        <ele>45</ele>
        <time>2014-03-23T09:20:43Z</time>
      </trkpt>
      <trkpt lat="49.32837" lon="0.97719">
        <ele>45</ele>
        <time>2014-03-23T09:20:51Z</time>
      </trkpt>
      <trkpt lat="49.32812" lon="0.97702">
        <ele>41</ele>
        <time>2014-03-23T09:21:07Z</time>
      </trkpt>
      <trkpt lat="49.32787" lon="0.97663">
        <ele>41</ele>
        <time>2014-03-23T09:21:15Z</time>
      </trkpt>
      <trkpt lat="49.32775" lon="0.97641">
        <ele>40</ele>
        <time>2014-03-23T09:21:19Z</time>
      </trkpt>
      <trkpt lat="49.32763" lon="0.97606">
        <ele>41</ele>
        <time>2014-03-23T09:21:27Z</time>
      </trkpt>
      <trkpt lat="49.32754" lon="0.97572">
        <ele>41</ele>
        <time>2014-03-23T09:21:35Z</time>
      </trkpt>
      <trkpt lat="49.32754" lon="0.97541">
        <ele>40</ele>
        <time>2014-03-23T09:21:43Z</time>
      </trkpt>
      <trkpt lat="49.32752" lon="0.97501">
        <ele>40</ele>
        <time>2014-03-23T09:21:51Z</time>
      </trkpt>
      <trkpt lat="49.32754" lon="0.9747">
        <ele>37</ele>
        <time>2014-03-23T09:21:59Z</time>
      </trkpt>
      <trkpt lat="49.3277" lon="0.97452">
        <ele>36</ele>
        <time>2014-03-23T09:22:11Z</time>
      </trkpt>
      <trkpt lat="49.32793" lon="0.97455">
        <ele>36</ele>
        <time>2014-03-23T09:22:27Z</time>
      </trkpt>
      <trkpt lat="49.32805" lon="0.97489">
        <ele>37</ele>
        <time>2014-03-23T09:22:39Z</time>
      </trkpt>
      <trkpt lat="49.32825" lon="0.97519">
        <ele>40</ele>
        <time>2014-03-23T09:23:07Z</time>
      </trkpt>
      <trkpt lat="49.32834" lon="0.97547">
        <ele>38</ele>
        <time>2014-03-23T09:23:15Z</time>
      </trkpt>
      <trkpt lat="49.3284" lon="0.97575">
        <ele>40</ele>
        <time>2014-03-23T09:23:23Z</time>
      </trkpt>
      <trkpt lat="49.32848" lon="0.97602">
        <ele>42</ele>
        <time>2014-03-23T09:23:31Z</time>
      </trkpt>
      <trkpt lat="49.3286" lon="0.97637">
        <ele>42</ele>
        <time>2014-03-23T09:23:43Z</time>
      </trkpt>
      <trkpt lat="49.32877" lon="0.9766">
        <ele>41</ele>
        <time>2014-03-23T09:23:51Z</time>
      </trkpt>
      <trkpt lat="49.32894" lon="0.97689">
        <ele>44</ele>
        <time>2014-03-23T09:23:59Z</time>
      </trkpt>
      <trkpt lat="49.32903" lon="0.97714">
        <ele>45</ele>
        <time>2014-03-23T09:24:07Z</time>
      </trkpt>
      <trkpt lat="49.32915" lon="0.9774">
        <ele>47</ele>
        <time>2014-03-23T09:24:19Z</time>
      </trkpt>
      <trkpt lat="49.329" lon="0.97769">
        <ele>48</ele>
        <time>2014-03-23T09:24:51Z</time>
      </trkpt>
      <trkpt lat="49.32909" lon="0.97794">
        <ele>49</ele>
        <time>2014-03-23T09:25:11Z</time>
      </trkpt>
      <trkpt lat="49.3291" lon="0.97831">
        <ele>53</ele>
        <time>2014-03-23T09:25:27Z</time>
      </trkpt>
      <trkpt lat="49.32917" lon="0.97868">
        <ele>55</ele>
        <time>2014-03-23T09:25:43Z</time>
      </trkpt>
      <trkpt lat="49.32913" lon="0.97897">
        <ele>55</ele>
        <time>2014-03-23T09:25:59Z</time>
      </trkpt>
      <trkpt lat="49.32908" lon="0.97926">
        <ele>59</ele>
        <time>2014-03-23T09:26:31Z</time>
      </trkpt>
      <trkpt lat="49.32894" lon="0.9795">
        <ele>57</ele>
        <time>2014-03-23T09:27:07Z</time>
      </trkpt>
      <trkpt lat="49.32914" lon="0.97957">
        <ele>58</ele>
        <time>2014-03-23T09:27:19Z</time>
      </trkpt>
      <trkpt lat="49.32931" lon="0.9798">
        <ele>62</ele>
        <time>2014-03-23T09:27:47Z</time>
      </trkpt>
      <trkpt lat="49.32941" lon="0.98008">
        <ele>67</ele>
        <time>2014-03-23T09:27:59Z</time>
      </trkpt>
      <trkpt lat="49.32939" lon="0.98043">
        <ele>69</ele>
        <time>2014-03-23T09:28:15Z</time>
      </trkpt>
      <trkpt lat="49.32943" lon="0.98078">
        <ele>71</ele>
        <time>2014-03-23T09:28:35Z</time>
      </trkpt>
      <trkpt lat="49.3294" lon="0.98107">
        <ele>78</ele>
        <time>2014-03-23T09:28:55Z</time>
      </trkpt>
      <trkpt lat="49.32944" lon="0.98141">
        <ele>81</ele>
        <time>2014-03-23T09:29:11Z</time>
      </trkpt>
      <trkpt lat="49.32944" lon="0.98173">
        <ele>89</ele>
        <time>2014-03-23T09:29:27Z</time>
      </trkpt>
      <trkpt lat="49.32951" lon="0.98199">
        <ele>91</ele>
        <time>2014-03-23T09:30:15Z</time>
      </trkpt>
      <trkpt lat="49.32964" lon="0.98171">
        <ele>90</ele>
        <time>2014-03-23T09:31:27Z</time>
      </trkpt>
      <trkpt lat="49.3297" lon="0.98142">
        <ele>82</ele>
        <time>2014-03-23T09:31:35Z</time>
      </trkpt>
      <trkpt lat="49.32975" lon="0.98112">
        <ele>80</ele>
        <time>2014-03-23T09:31:43Z</time>
      </trkpt>
      <trkpt lat="49.32988" lon="0.98068">
        <ele>72</ele>
        <time>2014-03-23T09:31:55Z</time>
      </trkpt>
      <trkpt lat="49.32997" lon="0.98045">
        <ele>70</ele>
        <time>2014-03-23T09:31:59Z</time>
      </trkpt>
      <trkpt lat="49.33008" lon="0.9801">
        <ele>73</ele>
        <time>2014-03-23T09:32:07Z</time>
      </trkpt>
      <trkpt lat="49.33012" lon="0.97968">
        <ele>68</ele>
        <time>2014-03-23T09:32:15Z</time>
      </trkpt>
      <trkpt lat="49.33013" lon="0.9794">
        <ele>65</ele>
        <time>2014-03-23T09:32:19Z</time>
      </trkpt>
      <trkpt lat="49.33032" lon="0.97917">
        <ele>66</ele>
        <time>2014-03-23T09:32:27Z</time>
      </trkpt>
      <trkpt lat="49.33042" lon="0.97882">
        <ele>60</ele>
        <time>2014-03-23T09:32:35Z</time>
      </trkpt>
      <trkpt lat="49.3306" lon="0.97857">
        <ele>60</ele>
        <time>2014-03-23T09:32:43Z</time>
      </trkpt>
      <trkpt lat="49.33081" lon="0.97841">
        <ele>61</ele>
        <time>2014-03-23T09:32:51Z</time>
      </trkpt>
      <trkpt lat="49.33105" lon="0.97839">
        <ele>64</ele>
        <time>2014-03-23T09:33:03Z</time>
      </trkpt>
      <trkpt lat="49.3313" lon="0.97829">
        <ele>59</ele>
        <time>2014-03-23T09:33:11Z</time>
      </trkpt>
      <trkpt lat="49.33152" lon="0.9783">
        <ele>60</ele>
        <time>2014-03-23T09:33:19Z</time>
      </trkpt>
      <trkpt lat="49.33174" lon="0.97846">
        <ele>62</ele>
        <time>2014-03-23T09:33:27Z</time>
      </trkpt>
      <trkpt lat="49.33193" lon="0.97857">
        <ele>63</ele>
        <time>2014-03-23T09:33:39Z</time>
      </trkpt>
      <trkpt lat="49.33209" lon="0.97876">
        <ele>63</ele>
        <time>2014-03-23T09:33:47Z</time>
      </trkpt>
      <trkpt lat="49.33225" lon="0.97903">
        <ele>64</ele>
        <time>2014-03-23T09:33:55Z</time>
      </trkpt>
      <trkpt lat="49.3324" lon="0.97927">
        <ele>69</ele>
        <time>2014-03-23T09:34:03Z</time>
      </trkpt>
      <trkpt lat="49.33254" lon="0.97949">
        <ele>68</ele>
        <time>2014-03-23T09:34:11Z</time>
      </trkpt>
      <trkpt lat="49.3327" lon="0.97976">
        <ele>69</ele>
        <time>2014-03-23T09:34:19Z</time>
      </trkpt>
      <trkpt lat="49.33281" lon="0.98">
        <ele>69</ele>
        <time>2014-03-23T09:34:27Z</time>
      </trkpt>
      <trkpt lat="49.33294" lon="0.98026">
        <ele>74</ele>
        <time>2014-03-23T09:34:35Z</time>
      </trkpt>
      <trkpt lat="49.33305" lon="0.9805">
        <ele>75</ele>
        <time>2014-03-23T09:34:43Z</time>
      </trkpt>
      <trkpt lat="49.33309" lon="0.98087">
        <ele>80</ele>
        <time>2014-03-23T09:34:55Z</time>
      </trkpt>
      <trkpt lat="49.33309" lon="0.98116">
        <ele>81</ele>
        <time>2014-03-23T09:35:07Z</time>
      </trkpt>
      <trkpt lat="49.33316" lon="0.98147">
        <ele>82</ele>
        <time>2014-03-23T09:35:31Z</time>
      </trkpt>
      <trkpt lat="49.33323" lon="0.98175">
        <ele>85</ele>
        <time>2014-03-23T09:35:43Z</time>
      </trkpt>
      <trkpt lat="49.33336" lon="0.98193">
        <ele>85</ele>
        <time>2014-03-23T09:35:51Z</time>
      </trkpt>
      <trkpt lat="49.33352" lon="0.98176">
        <ele>85</ele>
        <time>2014-03-23T09:36:07Z</time>
      </trkpt>
      <trkpt lat="49.3335" lon="0.9814">
        <ele>84</ele>
        <time>2014-03-23T09:36:19Z</time>
      </trkpt>
      <trkpt lat="49.33355" lon="0.98103">
        <ele>82</ele>
        <time>2014-03-23T09:36:31Z</time>
      </trkpt>
      <trkpt lat="49.33355" lon="0.9807">
        <ele>79</ele>
        <time>2014-03-23T09:36:39Z</time>
      </trkpt>
      <trkpt lat="49.3335" lon="0.98027">
        <ele>78</ele>
        <time>2014-03-23T09:36:47Z</time>
      </trkpt>
      <trkpt lat="49.33351" lon="0.97988">
        <ele>73</ele>
        <time>2014-03-23T09:36:55Z</time>
      </trkpt>
      <trkpt lat="49.33356" lon="0.97956">
        <ele>73</ele>
        <time>2014-03-23T09:37:07Z</time>
      </trkpt>
      <trkpt lat="49.33367" lon="0.97933">
        <ele>73</ele>
        <time>2014-03-23T09:37:15Z</time>
      </trkpt>
      <trkpt lat="49.33385" lon="0.97909">
        <ele>72</ele>
        <time>2014-03-23T09:37:27Z</time>
      </trkpt>
      <trkpt lat="49.334" lon="0.97891">
        <ele>73</ele>
        <time>2014-03-23T09:37:43Z</time>
      </trkpt>
      <trkpt lat="49.33408" lon="0.97863">
        <ele>71</ele>
        <time>2014-03-23T09:37:55Z</time>
      </trkpt>
      <trkpt lat="49.33413" lon="0.97829">
        <ele>72</ele>
        <time>2014-03-23T09:38:03Z</time>
      </trkpt>
      <trkpt lat="49.33415" lon="0.97797">
        <ele>69</ele>
        <time>2014-03-23T09:38:11Z</time>
      </trkpt>
      <trkpt lat="49.33418" lon="0.97763">
        <ele>78</ele>
        <time>2014-03-23T09:38:19Z</time>
      </trkpt>
      <trkpt lat="49.3342" lon="0.97729">
        <ele>77</ele>
        <time>2014-03-23T09:38:27Z</time>
      </trkpt>
      <trkpt lat="49.33414" lon="0.97696">
        <ele>67</ele>
        <time>2014-03-23T09:38:35Z</time>
      </trkpt>
      <trkpt lat="49.33405" lon="0.97662">
        <ele>67</ele>
        <time>2014-03-23T09:38:43Z</time>
      </trkpt>
      <trkpt lat="49.33401" lon="0.97621">
        <ele>65</ele>
        <time>2014-03-23T09:38:51Z</time>
      </trkpt>
      <trkpt lat="49.33417" lon="0.97594">
        <ele>70</ele>
        <time>2014-03-23T09:38:59Z</time>
      </trkpt>
      <trkpt lat="49.33438" lon="0.97577">
        <ele>69</ele>
        <time>2014-03-23T09:39:07Z</time>
      </trkpt>
      <trkpt lat="49.33459" lon="0.97557">
        <ele>70</ele>
        <time>2014-03-23T09:39:15Z</time>
      </trkpt>
      <trkpt lat="49.33475" lon="0.9754">
        <ele>70</ele>
        <time>2014-03-23T09:39:23Z</time>
      </trkpt>
      <trkpt lat="49.33471" lon="0.9751">
        <ele>69</ele>
        <time>2014-03-23T09:39:31Z</time>
      </trkpt>
      <trkpt lat="49.33464" lon="0.9748">
        <ele>65</ele>
        <time>2014-03-23T09:39:35Z</time>
      </trkpt>
      <trkpt lat="49.33454" lon="0.97457">
        <ele>64</ele>
        <time>2014-03-23T09:39:51Z</time>
      </trkpt>
      <trkpt lat="49.33461" lon="0.97426">
        <ele>64</ele>
        <time>2014-03-23T09:39:59Z</time>
      </trkpt>
      <trkpt lat="49.33456" lon="0.97391">
        <ele>63</ele>
        <time>2014-03-23T09:40:23Z</time>
      </trkpt>
      <trkpt lat="49.33444" lon="0.97363">
        <ele>62</ele>
        <time>2014-03-23T09:40:31Z</time>
      </trkpt>
      <trkpt lat="49.33444" lon="0.97335">
        <ele>61</ele>
        <time>2014-03-23T09:40:59Z</time>
      </trkpt>
      <trkpt lat="49.33461" lon="0.9735">
        <ele>64</ele>
        <time>2014-03-23T09:41:31Z</time>
      </trkpt>
      <trkpt lat="49.33476" lon="0.97367">
        <ele>65</ele>
        <time>2014-03-23T09:41:43Z</time>
      </trkpt>
      <trkpt lat="49.33493" lon="0.97378">
        <ele>65</ele>
        <time>2014-03-23T09:41:59Z</time>
      </trkpt>
      <trkpt lat="49.33513" lon="0.9741">
        <ele>73</ele>
        <time>2014-03-23T09:42:15Z</time>
      </trkpt>
      <trkpt lat="49.3353" lon="0.97424">
        <ele>75</ele>
        <time>2014-03-23T09:42:23Z</time>
      </trkpt>
      <trkpt lat="49.33549" lon="0.97436">
        <ele>78</ele>
        <time>2014-03-23T09:42:31Z</time>
      </trkpt>
      <trkpt lat="49.33566" lon="0.97448">
        <ele>80</ele>
        <time>2014-03-23T09:42:39Z</time>
      </trkpt>
      <trkpt lat="49.33583" lon="0.97458">
        <ele>80</ele>
        <time>2014-03-23T09:42:47Z</time>
      </trkpt>
      <trkpt lat="49.33604" lon="0.97475">
        <ele>91</ele>
        <time>2014-03-23T09:43:07Z</time>
      </trkpt>
      <trkpt lat="49.33615" lon="0.97512">
        <ele>91</ele>
        <time>2014-03-23T09:43:19Z</time>
      </trkpt>
      <trkpt lat="49.3361" lon="0.97538">
        <ele>91</ele>
        <time>2014-03-23T09:43:27Z</time>
      </trkpt>
      <trkpt lat="49.33622" lon="0.97561">
        <ele>93</ele>
        <time>2014-03-23T09:43:39Z</time>
      </trkpt>
      <trkpt lat="49.33623" lon="0.97595">
        <ele>97</ele>
        <time>2014-03-23T09:43:51Z</time>
      </trkpt>
      <trkpt lat="49.33637" lon="0.97617">
        <ele>98</ele>
        <time>2014-03-23T09:44:03Z</time>
      </trkpt>
      <trkpt lat="49.33647" lon="0.97642">
        <ele>100</ele>
        <time>2014-03-23T09:44:15Z</time>
      </trkpt>
      <trkpt lat="49.33665" lon="0.97665">
        <ele>103</ele>
        <time>2014-03-23T09:44:27Z</time>
      </trkpt>
      <trkpt lat="49.33682" lon="0.97687">
        <ele>108</ele>
        <time>2014-03-23T09:44:43Z</time>
      </trkpt>
      <trkpt lat="49.33704" lon="0.97708">
        <ele>110</ele>
        <time>2014-03-23T09:44:55Z</time>
      </trkpt>
      <trkpt lat="49.3372" lon="0.97731">
        <ele>111</ele>
        <time>2014-03-23T09:45:07Z</time>
      </trkpt>
      <trkpt lat="49.3374" lon="0.97741">
        <ele>112</ele>
        <time>2014-03-23T09:45:19Z</time>
      </trkpt>
      <trkpt lat="49.33756" lon="0.97756">
        <ele>113</ele>
        <time>2014-03-23T09:45:31Z</time>
      </trkpt>
      <trkpt lat="49.33756" lon="0.97795">
        <ele>115</ele>
        <time>2014-03-23T09:46:03Z</time>
      </trkpt>
      <trkpt lat="49.33742" lon="0.9782">
        <ele>115</ele>
        <time>2014-03-23T09:46:15Z</time>
      </trkpt>
      <trkpt lat="49.33721" lon="0.97823">
        <ele>115</ele>
        <time>2014-03-23T09:46:27Z</time>
      </trkpt>
      <trkpt lat="49.337" lon="0.97818">
        <ele>116</ele>
        <time>2014-03-23T09:46:39Z</time>
      </trkpt>
      <trkpt lat="49.33678" lon="0.97814">
        <ele>116</ele>
        <time>2014-03-23T09:46:51Z</time>
      </trkpt>
      <trkpt lat="49.33658" lon="0.97809">
        <ele>116</ele>
        <time>2014-03-23T09:46:59Z</time>
      </trkpt>
      <trkpt lat="49.33635" lon="0.97811">
        <ele>115</ele>
        <time>2014-03-23T09:47:07Z</time>
      </trkpt>
      <trkpt lat="49.33614" lon="0.97821">
        <ele>114</ele>
        <time>2014-03-23T09:47:15Z</time>
      </trkpt>
      <trkpt lat="49.33601" lon="0.97847">
        <ele>118</ele>
        <time>2014-03-23T09:47:23Z</time>
      </trkpt>
      <trkpt lat="49.33576" lon="0.97836">
        <ele>113</ele>
        <time>2014-03-23T09:47:35Z</time>
      </trkpt>
      <trkpt lat="49.33552" lon="0.97823">
        <ele>106</ele>
        <time>2014-03-23T09:47:43Z</time>
      </trkpt>
      <trkpt lat="49.33533" lon="0.97838">
        <ele>109</ele>
        <time>2014-03-23T09:47:51Z</time>
      </trkpt>
      <trkpt lat="49.33525" lon="0.97867">
        <ele>110</ele>
        <time>2014-03-23T09:47:59Z</time>
      </trkpt>
      <trkpt lat="49.3353" lon="0.97901">
        <ele>112</ele>
        <time>2014-03-23T09:48:07Z</time>
      </trkpt>
      <trkpt lat="49.33522" lon="0.97927">
        <ele>115</ele>
        <time>2014-03-23T09:48:15Z</time>
      </trkpt>
      <trkpt lat="49.33505" lon="0.97948">
        <ele>115</ele>
        <time>2014-03-23T09:48:23Z</time>
      </trkpt>
      <trkpt lat="49.33493" lon="0.9797">
        <ele>104</ele>
        <time>2014-03-23T09:48:31Z</time>
      </trkpt>
      <trkpt lat="49.33473" lon="0.98013">
        <ele>106</ele>
        <time>2014-03-23T09:48:39Z</time>
      </trkpt>
      <trkpt lat="49.33467" lon="0.98048">
        <ele>104</ele>
        <time>2014-03-23T09:48:51Z</time>
      </trkpt>
      <trkpt lat="49.33452" lon="0.98084">
        <ele>103</ele>
        <time>2014-03-23T09:49:03Z</time>
      </trkpt>
      <trkpt lat="49.33449" lon="0.98128">
        <ele>103</ele>
        <time>2014-03-23T09:49:11Z</time>
      </trkpt>
      <trkpt lat="49.33453" lon="0.98164">
        <ele>102</ele>
        <time>2014-03-23T09:49:19Z</time>
      </trkpt>
      <trkpt lat="49.33458" lon="0.98198">
        <ele>102</ele>
        <time>2014-03-23T09:49:27Z</time>
      </trkpt>
      <trkpt lat="49.33474" lon="0.9823">
        <ele>103</ele>
        <time>2014-03-23T09:49:35Z</time>
      </trkpt>
      <trkpt lat="49.33487" lon="0.9825">
        <ele>105</ele>
        <time>2014-03-23T09:49:39Z</time>
      </trkpt>
      <trkpt lat="49.33507" lon="0.98289">
        <ele>110</ele>
        <time>2014-03-23T09:49:47Z</time>
      </trkpt>
      <trkpt lat="49.33525" lon="0.98328">
        <ele>109</ele>
        <time>2014-03-23T09:49:55Z</time>
      </trkpt>
      <trkpt lat="49.33501" lon="0.98326">
        <ele>105</ele>
        <time>2014-03-23T09:50:07Z</time>
      </trkpt>
      <trkpt lat="49.33478" lon="0.98311">
        <ele>101</ele>
        <time>2014-03-23T09:50:11Z</time>
      </trkpt>
      <trkpt lat="49.33447" lon="0.98297">
        <ele>100</ele>
        <time>2014-03-23T09:50:15Z</time>
      </trkpt>
      <trkpt lat="49.33417" lon="0.98284">
        <ele>98</ele>
        <time>2014-03-23T09:50:19Z</time>
      </trkpt>
      <trkpt lat="49.33393" lon="0.98275">
        <ele>93</ele>
        <time>2014-03-23T09:50:23Z</time>
      </trkpt>
      <trkpt lat="49.33368" lon="0.98291">
        <ele>93</ele>
        <time>2014-03-23T09:50:31Z</time>
      </trkpt>
      <trkpt lat="49.33349" lon="0.98297">
        <ele>94</ele>
        <time>2014-03-23T09:50:39Z</time>
      </trkpt>
      <trkpt lat="49.33318" lon="0.98284">
        <ele>97</ele>
        <time>2014-03-23T09:50:47Z</time>
      </trkpt>
      <trkpt lat="49.33294" lon="0.98242">
        <ele>92</ele>
        <time>2014-03-23T09:50:55Z</time>
      </trkpt>
      <trkpt lat="49.33284" lon="0.98214">
        <ele>92</ele>
        <time>2014-03-23T09:51:03Z</time>
      </trkpt>
      <trkpt lat="49.33268" lon="0.98195">
        <ele>92</ele>
        <time>2014-03-23T09:51:39Z</time>
      </trkpt>
      <trkpt lat="49.33259" lon="0.98168">
        <ele>92</ele>
        <time>2014-03-23T09:51:51Z</time>
      </trkpt>
      <trkpt lat="49.33245" lon="0.98149">
        <ele>95</ele>
        <time>2014-03-23T09:51:59Z</time>
      </trkpt>
      <trkpt lat="49.33233" lon="0.9812">
        <ele>95</ele>
        <time>2014-03-23T09:52:11Z</time>
      </trkpt>
      <trkpt lat="49.33217" lon="0.981">
        <ele>96</ele>
        <time>2014-03-23T09:52:39Z</time>
      </trkpt>
      <trkpt lat="49.33194" lon="0.98094">
        <ele>99</ele>
        <time>2014-03-23T09:53:11Z</time>
      </trkpt>
      <trkpt lat="49.33191" lon="0.98122">
        <ele>100</ele>
        <time>2014-03-23T09:53:35Z</time>
      </trkpt>
      <trkpt lat="49.33198" lon="0.98147">
        <ele>101</ele>
        <time>2014-03-23T09:53:43Z</time>
      </trkpt>
      <trkpt lat="49.33207" lon="0.98174">
        <ele>106</ele>
        <time>2014-03-23T09:53:51Z</time>
      </trkpt>
      <trkpt lat="49.33218" lon="0.98213">
        <ele>106</ele>
        <time>2014-03-23T09:53:59Z</time>
      </trkpt>
      <trkpt lat="49.33228" lon="0.98244">
        <ele>106</ele>
        <time>2014-03-23T09:54:07Z</time>
      </trkpt>
      <trkpt lat="49.3324" lon="0.98279">
        <ele>112</ele>
        <time>2014-03-23T09:54:15Z</time>
      </trkpt>
      <trkpt lat="49.33248" lon="0.98306">
        <ele>114</ele>
        <time>2014-03-23T09:54:23Z</time>
      </trkpt>
      <trkpt lat="49.3323" lon="0.98297">
        <ele>115</ele>
        <time>2014-03-23T09:54:43Z</time>
      </trkpt>
      <trkpt lat="49.33212" lon="0.98279">
        <ele>115</ele>
        <time>2014-03-23T09:54:59Z</time>
      </trkpt>
      <trkpt lat="49.33197" lon="0.98256">
        <ele>116</ele>
        <time>2014-03-23T09:55:15Z</time>
      </trkpt>
      <trkpt lat="49.33192" lon="0.98217">
        <ele>109</ele>
        <time>2014-03-23T09:55:23Z</time>
      </trkpt>
      <trkpt lat="49.33182" lon="0.98186">
        <ele>109</ele>
        <time>2014-03-23T09:55:35Z</time>
      </trkpt>
      <trkpt lat="49.3317" lon="0.98156">
        <ele>107</ele>
        <time>2014-03-23T09:55:43Z</time>
      </trkpt>
      <trkpt lat="49.33159" lon="0.98132">
        <ele>109</ele>
        <time>2014-03-23T09:55:51Z</time>
      </trkpt>
      <trkpt lat="49.33137" lon="0.98106">
        <ele>107</ele>
        <time>2014-03-23T09:55:59Z</time>
      </trkpt>
      <trkpt lat="49.33123" lon="0.9808">
        <ele>99</ele>
        <time>2014-03-23T09:56:07Z</time>
      </trkpt>
      <trkpt lat="49.33096" lon="0.9806">
        <ele>99</ele>
        <time>2014-03-23T09:56:15Z</time>
      </trkpt>
      <trkpt lat="49.33072" lon="0.98061">
        <ele>92</ele>
        <time>2014-03-23T09:56:23Z</time>
      </trkpt>
      <trkpt lat="49.3306" lon="0.98091">
        <ele>98</ele>
        <time>2014-03-23T09:56:31Z</time>
      </trkpt>
      <trkpt lat="49.33049" lon="0.9812">
        <ele>97</ele>
        <time>2014-03-23T09:56:39Z</time>
      </trkpt>
      <trkpt lat="49.33043" lon="0.98153">
        <ele>98</ele>
        <time>2014-03-23T09:56:47Z</time>
      </trkpt>
      <trkpt lat="49.33036" lon="0.98185">
        <ele>102</ele>
        <time>2014-03-23T09:56:55Z</time>
      </trkpt>
      <trkpt lat="49.33028" lon="0.98216">
        <ele>103</ele>
        <time>2014-03-23T09:57:03Z</time>
      </trkpt>
      <trkpt lat="49.33033" lon="0.98249">
        <ele>104</ele>
        <time>2014-03-23T09:57:15Z</time>
      </trkpt>
      <trkpt lat="49.33035" lon="0.98283">
        <ele>108</ele>
        <time>2014-03-23T09:57:27Z</time>
      </trkpt>
      <trkpt lat="49.3304" lon="0.98312">
        <ele>109</ele>
        <time>2014-03-23T09:57:39Z</time>
      </trkpt>
      <trkpt lat="49.33054" lon="0.98334">
        <ele>112</ele>
        <time>2014-03-23T09:57:51Z</time>
      </trkpt>
      <trkpt lat="49.33066" lon="0.98353">
        <ele>113</ele>
        <time>2014-03-23T09:58:03Z</time>
      </trkpt>
      <trkpt lat="49.33078" lon="0.98375">
        <ele>114</ele>
        <time>2014-03-23T09:58:15Z</time>
      </trkpt>
      <trkpt lat="49.33086" lon="0.98404">
        <ele>120</ele>
        <time>2014-03-23T09:58:23Z</time>
      </trkpt>
      <trkpt lat="49.33095" lon="0.98429">
        <ele>122</ele>
        <time>2014-03-23T09:58:31Z</time>
      </trkpt>
      <trkpt lat="49.33102" lon="0.98466">
        <ele>123</ele>
        <time>2014-03-23T09:59:03Z</time>
      </trkpt>
      <trkpt lat="49.33088" lon="0.98503">
        <ele>120</ele>
        <time>2014-03-23T09:59:11Z</time>
      </trkpt>
      <trkpt lat="49.33086" lon="0.98547">
        <ele>123</ele>
        <time>2014-03-23T09:59:19Z</time>
      </trkpt>
      <trkpt lat="49.33078" lon="0.9859">
        <ele>121</ele>
        <time>2014-03-23T09:59:27Z</time>
      </trkpt>
      <trkpt lat="49.33079" lon="0.98618">
        <ele>122</ele>
        <time>2014-03-23T09:59:35Z</time>
      </trkpt>
      <trkpt lat="49.33083" lon="0.9865">
        <ele>121</ele>
        <time>2014-03-23T09:59:43Z</time>
      </trkpt>
      <trkpt lat="49.33078" lon="0.98684">
        <ele>122</ele>
        <time>2014-03-23T09:59:51Z</time>
      </trkpt>
      <trkpt lat="49.33077" lon="0.98726">
        <ele>123</ele>
        <time>2014-03-23T09:59:59Z</time>
      </trkpt>
      <trkpt lat="49.33062" lon="0.98744">
        <ele>123</ele>
        <time>2014-03-23T10:00:07Z</time>
      </trkpt>
      <trkpt lat="49.33043" lon="0.9876">
        <ele>125</ele>
        <time>2014-03-23T10:00:23Z</time>
      </trkpt>
      <trkpt lat="49.33028" lon="0.98778">
        <ele>126</ele>
        <time>2014-03-23T10:00:35Z</time>
      </trkpt>
      <trkpt lat="49.33004" lon="0.98794">
        <ele>127</ele>
        <time>2014-03-23T10:00:47Z</time>
      </trkpt>
      <trkpt lat="49.32987" lon="0.98808">
        <ele>128</ele>
        <time>2014-03-23T10:00:55Z</time>
      </trkpt>
      <trkpt lat="49.32971" lon="0.98819">
        <ele>128</ele>
        <time>2014-03-23T10:01:03Z</time>
      </trkpt>
      <trkpt lat="49.32952" lon="0.98821">
        <ele>129</ele>
        <time>2014-03-23T10:01:11Z</time>
      </trkpt>
      <trkpt lat="49.32936" lon="0.98796">
        <ele>129</ele>
        <time>2014-03-23T10:01:19Z</time>
      </trkpt>
      <trkpt lat="49.32923" lon="0.98761">
        <ele>129</ele>
        <time>2014-03-23T10:01:27Z</time>
      </trkpt>
      <trkpt lat="49.3291" lon="0.98723">
        <ele>128</ele>
        <time>2014-03-23T10:01:35Z</time>
      </trkpt>
      <trkpt lat="49.32903" lon="0.98697">
        <ele>128</ele>
        <time>2014-03-23T10:01:39Z</time>
      </trkpt>
      <trkpt lat="49.32888" lon="0.98647">
        <ele>127</ele>
        <time>2014-03-23T10:01:47Z</time>
      </trkpt>
      <trkpt lat="49.32876" lon="0.98624">
        <ele>127</ele>
        <time>2014-03-23T10:01:51Z</time>
      </trkpt>
      <trkpt lat="49.32859" lon="0.98584">
        <ele>126</ele>
        <time>2014-03-23T10:01:59Z</time>
      </trkpt>
      <trkpt lat="49.32845" lon="0.98544">
        <ele>125</ele>
        <time>2014-03-23T10:02:07Z</time>
      </trkpt>
      <trkpt lat="49.32843" lon="0.98507">
        <ele>124</ele>
        <time>2014-03-23T10:02:15Z</time>
      </trkpt>
      <trkpt lat="49.32843" lon="0.98466">
        <ele>122</ele>
        <time>2014-03-23T10:02:23Z</time>
      </trkpt>
      <trkpt lat="49.32847" lon="0.98439">
        <ele>121</ele>
        <time>2014-03-23T10:02:27Z</time>
      </trkpt>
      <trkpt lat="49.32856" lon="0.9841">
        <ele>117</ele>
        <time>2014-03-23T10:02:31Z</time>
      </trkpt>
      <trkpt lat="49.32859" lon="0.98378">
        <ele>114</ele>
        <time>2014-03-23T10:02:35Z</time>
      </trkpt>
      <trkpt lat="49.32856" lon="0.98351">
        <ele>113</ele>
        <time>2014-03-23T10:02:39Z</time>
      </trkpt>
      <trkpt lat="49.3285" lon="0.98323">
        <ele>107</ele>
        <time>2014-03-23T10:02:43Z</time>
      </trkpt>
      <trkpt lat="49.32846" lon="0.98274">
        <ele>104</ele>
        <time>2014-03-23T10:02:51Z</time>
      </trkpt>
      <trkpt lat="49.3285" lon="0.98219">
        <ele>95</ele>
        <time>2014-03-23T10:02:59Z</time>
      </trkpt>
      <trkpt lat="49.32851" lon="0.98169">
        <ele>92</ele>
        <time>2014-03-23T10:03:07Z</time>
      </trkpt>
      <trkpt lat="49.32856" lon="0.9812">
        <ele>81</ele>
        <time>2014-03-23T10:03:15Z</time>
      </trkpt>
      <trkpt lat="49.32835" lon="0.98131">
        <ele>83</ele>
        <time>2014-03-23T10:03:31Z</time>
      </trkpt>
      <trkpt lat="49.3281" lon="0.98151">
        <ele>76</ele>
        <time>2014-03-23T10:03:39Z</time>
      </trkpt>
      <trkpt lat="49.32793" lon="0.98183">
        <ele>83</ele>
        <time>2014-03-23T10:03:47Z</time>
      </trkpt>
      <trkpt lat="49.32783" lon="0.98216">
        <ele>85</ele>
        <time>2014-03-23T10:03:55Z</time>
      </trkpt>
      <trkpt lat="49.32765" lon="0.98245">
        <ele>84</ele>
        <time>2014-03-23T10:04:03Z</time>
      </trkpt>
      <trkpt lat="49.32742" lon="0.98276">
        <ele>82</ele>
        <time>2014-03-23T10:04:11Z</time>
      </trkpt>
      <trkpt lat="49.32726" lon="0.98295">
        <ele>83</ele>
        <time>2014-03-23T10:04:15Z</time>
      </trkpt>
      <trkpt lat="49.32709" lon="0.98309">
        <ele>82</ele>
        <time>2014-03-23T10:04:23Z</time>
      </trkpt>
      <trkpt lat="49.32688" lon="0.9833">
        <ele>82</ele>
        <time>2014-03-23T10:04:35Z</time>
      </trkpt>
      <trkpt lat="49.32667" lon="0.98343">
        <ele>87</ele>
        <time>2014-03-23T10:04:43Z</time>
      </trkpt>
      <trkpt lat="49.32643" lon="0.98359">
        <ele>86</ele>
        <time>2014-03-23T10:04:55Z</time>
      </trkpt>
      <trkpt lat="49.32618" lon="0.98371">
        <ele>87</ele>
        <time>2014-03-23T10:05:03Z</time>
      </trkpt>
      <trkpt lat="49.32588" lon="0.98375">
        <ele>86</ele>
        <time>2014-03-23T10:05:11Z</time>
      </trkpt>
      <trkpt lat="49.32554" lon="0.98377">
        <ele>79</ele>
        <time>2014-03-23T10:05:19Z</time>
      </trkpt>
      <trkpt lat="49.32535" lon="0.98373">
        <ele>78</ele>
        <time>2014-03-23T10:05:23Z</time>
      </trkpt>
      <trkpt lat="49.32516" lon="0.98378">
        <ele>78</ele>
        <time>2014-03-23T10:05:27Z</time>
      </trkpt>
      <trkpt lat="49.32497" lon="0.98397">
        <ele>78</ele>
        <time>2014-03-23T10:05:35Z</time>
      </trkpt>
      <trkpt lat="49.32481" lon="0.9842">
        <ele>84</ele>
        <time>2014-03-23T10:05:43Z</time>
      </trkpt>
      <trkpt lat="49.32453" lon="0.98454">
        <ele>83</ele>
        <time>2014-03-23T10:05:51Z</time>
      </trkpt>
      <trkpt lat="49.32441" lon="0.98512">
        <ele>85</ele>
        <time>2014-03-23T10:05:59Z</time>
      </trkpt>
      <trkpt lat="49.32425" lon="0.9854">
        <ele>85</ele>
        <time>2014-03-23T10:06:03Z</time>
      </trkpt>
      <trkpt lat="49.324" lon="0.98548">
        <ele>77</ele>
        <time>2014-03-23T10:06:07Z</time>
      </trkpt>
      <trkpt lat="49.32378" lon="0.98558">
        <ele>76</ele>
        <time>2014-03-23T10:06:11Z</time>
      </trkpt>
      <trkpt lat="49.32383" lon="0.9859">
        <ele>79</ele>
        <time>2014-03-23T10:06:23Z</time>
      </trkpt>
      <trkpt lat="49.32392" lon="0.98615">
        <ele>80</ele>
        <time>2014-03-23T10:06:35Z</time>
      </trkpt>
      <trkpt lat="49.32399" lon="0.98646">
        <ele>83</ele>
        <time>2014-03-23T10:06:47Z</time>
      </trkpt>
      <trkpt lat="49.32408" lon="0.98678">
        <ele>87</ele>
        <time>2014-03-23T10:06:59Z</time>
      </trkpt>
      <trkpt lat="49.32419" lon="0.98701">
        <ele>94</ele>
        <time>2014-03-23T10:07:11Z</time>
      </trkpt>
      <trkpt lat="49.32431" lon="0.98732">
        <ele>95</ele>
        <time>2014-03-23T10:07:27Z</time>
      </trkpt>
      <trkpt lat="49.32438" lon="0.98764">
        <ele>98</ele>
        <time>2014-03-23T10:07:47Z</time>
      </trkpt>
      <trkpt lat="49.32447" lon="0.98789">
        <ele>100</ele>
        <time>2014-03-23T10:07:59Z</time>
      </trkpt>
      <trkpt lat="49.32454" lon="0.98819">
        <ele>101</ele>
        <time>2014-03-23T10:08:11Z</time>
      </trkpt>
      <trkpt lat="49.32465" lon="0.98846">
        <ele>104</ele>
        <time>2014-03-23T10:08:23Z</time>
      </trkpt>
      <trkpt lat="49.32474" lon="0.9888">
        <ele>105</ele>
        <time>2014-03-23T10:08:35Z</time>
      </trkpt>
      <trkpt lat="49.32485" lon="0.9891">
        <ele>107</ele>
        <time>2014-03-23T10:08:47Z</time>
      </trkpt>
      <trkpt lat="49.32499" lon="0.98941">
        <ele>107</ele>
        <time>2014-03-23T10:08:59Z</time>
      </trkpt>
      <trkpt lat="49.32514" lon="0.98958">
        <ele>113</ele>
        <time>2014-03-23T10:09:07Z</time>
      </trkpt>
      <trkpt lat="49.3252" lon="0.98986">
        <ele>112</ele>
        <time>2014-03-23T10:09:15Z</time>
      </trkpt>
      <trkpt lat="49.32533" lon="0.99043">
        <ele>112</ele>
        <time>2014-03-23T10:09:23Z</time>
      </trkpt>
      <trkpt lat="49.32542" lon="0.99069">
        <ele>112</ele>
        <time>2014-03-23T10:09:27Z</time>
      </trkpt>
      <trkpt lat="49.32544" lon="0.99099">
        <ele>113</ele>
        <time>2014-03-23T10:09:39Z</time>
      </trkpt>
      <trkpt lat="49.32556" lon="0.99122">
        <ele>114</ele>
        <time>2014-03-23T10:09:51Z</time>
      </trkpt>
      <trkpt lat="49.32565" lon="0.99147">
        <ele>115</ele>
        <time>2014-03-23T10:10:03Z</time>
      </trkpt>
      <trkpt lat="49.32576" lon="0.99175">
        <ele>118</ele>
        <time>2014-03-23T10:10:51Z</time>
      </trkpt>
      <trkpt lat="49.32586" lon="0.99213">
        <ele>119</ele>
        <time>2014-03-23T10:11:03Z</time>
      </trkpt>
      <trkpt lat="49.32595" lon="0.99244">
        <ele>119</ele>
        <time>2014-03-23T10:11:11Z</time>
      </trkpt>
      <trkpt lat="49.32604" lon="0.99272">
        <ele>119</ele>
        <time>2014-03-23T10:11:19Z</time>
      </trkpt>
      <trkpt lat="49.32617" lon="0.99307">
        <ele>119</ele>
        <time>2014-03-23T10:11:31Z</time>
      </trkpt>
      <trkpt lat="49.32628" lon="0.99336">
        <ele>119</ele>
        <time>2014-03-23T10:11:39Z</time>
      </trkpt>
      <trkpt lat="49.32637" lon="0.99362">
        <ele>119</ele>
        <time>2014-03-23T10:11:47Z</time>
      </trkpt>
      <trkpt lat="49.32644" lon="0.9939">
        <ele>119</ele>
        <time>2014-03-23T10:11:55Z</time>
      </trkpt>
      <trkpt lat="49.32654" lon="0.99417">
        <ele>118</ele>
        <time>2014-03-23T10:12:03Z</time>
      </trkpt>
      <trkpt lat="49.32661" lon="0.99443">
        <ele>118</ele>
        <time>2014-03-23T10:12:11Z</time>
      </trkpt>
      <trkpt lat="49.32671" lon="0.99473">
        <ele>120</ele>
        <time>2014-03-23T10:12:19Z</time>
      </trkpt>
      <trkpt lat="49.32679" lon="0.99498">
        <ele>120</ele>
        <time>2014-03-23T10:12:27Z</time>
      </trkpt>
      <trkpt lat="49.3269" lon="0.99527">
        <ele>121</ele>
        <time>2014-03-23T10:12:35Z</time>
      </trkpt>
      <trkpt lat="49.32707" lon="0.99541">
        <ele>122</ele>
        <time>2014-03-23T10:12:43Z</time>
      </trkpt>
      <trkpt lat="49.32725" lon="0.9956">
        <ele>124</ele>
        <time>2014-03-23T10:12:51Z</time>
      </trkpt>
      <trkpt lat="49.32742" lon="0.99575">
        <ele>126</ele>
        <time>2014-03-23T10:12:59Z</time>
      </trkpt>
      <trkpt lat="49.32766" lon="0.99586">
        <ele>129</ele>
        <time>2014-03-23T10:13:07Z</time>
      </trkpt>
      <trkpt lat="49.32789" lon="0.99598">
        <ele>129</ele>
        <time>2014-03-23T10:13:15Z</time>
      </trkpt>
      <trkpt lat="49.32815" lon="0.99615">
        <ele>130</ele>
        <time>2014-03-23T10:13:23Z</time>
      </trkpt>
      <trkpt lat="49.32839" lon="0.99621">
        <ele>132</ele>
        <time>2014-03-23T10:13:31Z</time>
      </trkpt>
      <trkpt lat="49.32864" lon="0.99627">
        <ele>133</ele>
        <time>2014-03-23T10:13:39Z</time>
      </trkpt>
      <trkpt lat="49.32892" lon="0.99626">
        <ele>133</ele>
        <time>2014-03-23T10:13:47Z</time>
      </trkpt>
      <trkpt lat="49.32918" lon="0.99624">
        <ele>134</ele>
        <time>2014-03-23T10:13:55Z</time>
      </trkpt>
      <trkpt lat="49.32942" lon="0.99624">
        <ele>134</ele>
        <time>2014-03-23T10:14:03Z</time>
      </trkpt>
      <trkpt lat="49.32969" lon="0.99638">
        <ele>134</ele>
        <time>2014-03-23T10:14:11Z</time>
      </trkpt>
      <trkpt lat="49.32993" lon="0.99662">
        <ele>133</ele>
        <time>2014-03-23T10:14:19Z</time>
      </trkpt>
      <trkpt lat="49.33024" lon="0.99678">
        <ele>128</ele>
        <time>2014-03-23T10:14:27Z</time>
      </trkpt>
      <trkpt lat="49.33045" lon="0.99661">
        <ele>131</ele>
        <time>2014-03-23T10:14:35Z</time>
      </trkpt>
      <trkpt lat="49.33067" lon="0.99646">
        <ele>131</ele>
        <time>2014-03-23T10:14:43Z</time>
      </trkpt>
      <trkpt lat="49.33091" lon="0.9963">
        <ele>130</ele>
        <time>2014-03-23T10:14:51Z</time>
      </trkpt>
      <trkpt lat="49.33106" lon="0.99612">
        <ele>131</ele>
        <time>2014-03-23T10:14:55Z</time>
      </trkpt>
      <trkpt lat="49.33126" lon="0.99602">
        <ele>131</ele>
        <time>2014-03-23T10:15:03Z</time>
      </trkpt>
      <trkpt lat="49.33145" lon="0.99596">
        <ele>131</ele>
        <time>2014-03-23T10:15:11Z</time>
      </trkpt>
      <trkpt lat="49.33164" lon="0.99583">
        <ele>132</ele>
        <time>2014-03-23T10:15:19Z</time>
      </trkpt>
      <trkpt lat="49.33186" lon="0.9957">
        <ele>134</ele>
        <time>2014-03-23T10:15:27Z</time>
      </trkpt>
      <trkpt lat="49.33202" lon="0.99594">
        <ele>132</ele>
        <time>2014-03-23T10:15:35Z</time>
      </trkpt>
      <trkpt lat="49.33214" lon="0.99635">
        <ele>131</ele>
        <time>2014-03-23T10:15:43Z</time>
      </trkpt>
      <trkpt lat="49.33227" lon="0.99671">
        <ele>128</ele>
        <time>2014-03-23T10:15:51Z</time>
      </trkpt>
      <trkpt lat="49.33242" lon="0.99689">
        <ele>128</ele>
        <time>2014-03-23T10:16:03Z</time>
      </trkpt>
      <trkpt lat="49.33254" lon="0.99658">
        <ele>132</ele>
        <time>2014-03-23T10:30:27Z</time>
      </trkpt>
      <trkpt lat="49.33261" lon="0.99626">
        <ele>135</ele>
        <time>2014-03-23T10:30:35Z</time>
      </trkpt>
      <trkpt lat="49.33267" lon="0.99593">
        <ele>136</ele>
        <time>2014-03-23T10:30:43Z</time>
      </trkpt>
      <trkpt lat="49.33285" lon="0.99568">
        <ele>138</ele>
        <time>2014-03-23T10:30:51Z</time>
      </trkpt>
      <trkpt lat="49.33305" lon="0.99557">
        <ele>138</ele>
        <time>2014-03-23T10:30:59Z</time>
      </trkpt>
      <trkpt lat="49.33323" lon="0.99535">
        <ele>138</ele>
        <time>2014-03-23T10:31:07Z</time>
      </trkpt>
      <trkpt lat="49.33341" lon="0.9952">
        <ele>140</ele>
        <time>2014-03-23T10:31:15Z</time>
      </trkpt>
      <trkpt lat="49.3336" lon="0.99508">
        <ele>140</ele>
        <time>2014-03-23T10:31:23Z</time>
      </trkpt>
      <trkpt lat="49.33381" lon="0.99492">
        <ele>141</ele>
        <time>2014-03-23T10:31:31Z</time>
      </trkpt>
      <trkpt lat="49.33403" lon="0.99477">
        <ele>141</ele>
        <time>2014-03-23T10:31:39Z</time>
      </trkpt>
      <trkpt lat="49.33428" lon="0.99455">
        <ele>144</ele>
        <time>2014-03-23T10:31:47Z</time>
      </trkpt>
      <trkpt lat="49.33451" lon="0.99439">
        <ele>144</ele>
        <time>2014-03-23T10:31:55Z</time>
      </trkpt>
      <trkpt lat="49.33471" lon="0.99424">
        <ele>145</ele>
        <time>2014-03-23T10:32:03Z</time>
      </trkpt>
      <trkpt lat="49.33495" lon="0.99408">
        <ele>146</ele>
        <time>2014-03-23T10:32:11Z</time>
      </trkpt>
      <trkpt lat="49.33515" lon="0.9939">
        <ele>147</ele>
        <time>2014-03-23T10:32:19Z</time>
      </trkpt>
      <trkpt lat="49.33538" lon="0.99371">
        <ele>147</ele>
        <time>2014-03-23T10:32:27Z</time>
      </trkpt>
      <trkpt lat="49.3356" lon="0.99353">
        <ele>147</ele>
        <time>2014-03-23T10:32:35Z</time>
      </trkpt>
      <trkpt lat="49.33582" lon="0.99341">
        <ele>147</ele>
        <time>2014-03-23T10:32:43Z</time>
      </trkpt>
      <trkpt lat="49.33572" lon="0.99301">
        <ele>146</ele>
        <time>2014-03-23T10:32:55Z</time>
      </trkpt>
      <trkpt lat="49.33556" lon="0.99252">
        <ele>146</ele>
        <time>2014-03-23T10:33:03Z</time>
      </trkpt>
      <trkpt lat="49.33546" lon="0.99228">
        <ele>146</ele>
        <time>2014-03-23T10:33:07Z</time>
      </trkpt>
      <trkpt lat="49.33535" lon="0.99174">
        <ele>145</ele>
        <time>2014-03-23T10:33:15Z</time>
      </trkpt>
      <trkpt lat="49.33547" lon="0.99152">
        <ele>145</ele>
        <time>2014-03-23T10:33:19Z</time>
      </trkpt>
      <trkpt lat="49.33572" lon="0.99128">
        <ele>145</ele>
        <time>2014-03-23T10:33:27Z</time>
      </trkpt>
      <trkpt lat="49.33597" lon="0.99109">
        <ele>145</ele>
        <time>2014-03-23T10:33:35Z</time>
      </trkpt>
      <trkpt lat="49.3362" lon="0.99095">
        <ele>145</ele>
        <time>2014-03-23T10:33:43Z</time>
      </trkpt>
      <trkpt lat="49.33643" lon="0.99079">
        <ele>145</ele>
        <time>2014-03-23T10:33:51Z</time>
      </trkpt>
      <trkpt lat="49.33665" lon="0.99068">
        <ele>145</ele>
        <time>2014-03-23T10:33:59Z</time>
      </trkpt>
      <trkpt lat="49.3369" lon="0.99044">
        <ele>145</ele>
        <time>2014-03-23T10:34:07Z</time>
      </trkpt>
      <trkpt lat="49.33712" lon="0.99025">
        <ele>145</ele>
        <time>2014-03-23T10:34:15Z</time>
      </trkpt>
      <trkpt lat="49.33733" lon="0.99012">
        <ele>146</ele>
        <time>2014-03-23T10:34:23Z</time>
      </trkpt>
      <trkpt lat="49.33759" lon="0.98993">
        <ele>144</ele>
        <time>2014-03-23T10:34:31Z</time>
      </trkpt>
      <trkpt lat="49.33777" lon="0.9897">
        <ele>141</ele>
        <time>2014-03-23T10:34:39Z</time>
      </trkpt>
      <trkpt lat="49.33776" lon="0.98941">
        <ele>141</ele>
        <time>2014-03-23T10:34:47Z</time>
      </trkpt>
      <trkpt lat="49.33769" lon="0.98911">
        <ele>141</ele>
        <time>2014-03-23T10:34:55Z</time>
      </trkpt>
      <trkpt lat="49.33754" lon="0.98893">
        <ele>141</ele>
        <time>2014-03-23T10:35:03Z</time>
      </trkpt>
      <trkpt lat="49.33741" lon="0.98862">
        <ele>142</ele>
        <time>2014-03-23T10:35:11Z</time>
      </trkpt>
      <trkpt lat="49.33734" lon="0.98837">
        <ele>141</ele>
        <time>2014-03-23T10:35:19Z</time>
      </trkpt>
      <trkpt lat="49.33725" lon="0.98807">
        <ele>141</ele>
        <time>2014-03-23T10:35:27Z</time>
      </trkpt>
      <trkpt lat="49.33719" lon="0.98773">
        <ele>141</ele>
        <time>2014-03-23T10:35:35Z</time>
      </trkpt>
      <trkpt lat="49.3371" lon="0.98734">
        <ele>140</ele>
        <time>2014-03-23T10:35:39Z</time>
      </trkpt>
      <trkpt lat="49.33693" lon="0.98691">
        <ele>138</ele>
        <time>2014-03-23T10:35:47Z</time>
      </trkpt>
      <trkpt lat="49.33687" lon="0.98652">
        <ele>136</ele>
        <time>2014-03-23T10:35:55Z</time>
      </trkpt>
      <trkpt lat="49.33679" lon="0.98623">
        <ele>135</ele>
        <time>2014-03-23T10:36:03Z</time>
      </trkpt>
      <trkpt lat="49.33661" lon="0.98575">
        <ele>130</ele>
        <time>2014-03-23T10:36:11Z</time>
      </trkpt>
      <trkpt lat="49.33658" lon="0.98544">
        <ele>129</ele>
        <time>2014-03-23T10:36:15Z</time>
      </trkpt>
      <trkpt lat="49.33641" lon="0.98515">
        <ele>128</ele>
        <time>2014-03-23T10:36:31Z</time>
      </trkpt>
      <trkpt lat="49.33637" lon="0.98487">
        <ele>124</ele>
        <time>2014-03-23T10:36:35Z</time>
      </trkpt>
      <trkpt lat="49.33638" lon="0.98446">
        <ele>123</ele>
        <time>2014-03-23T10:36:39Z</time>
      </trkpt>
      <trkpt lat="49.33626" lon="0.98422">
        <ele>122</ele>
        <time>2014-03-23T10:36:43Z</time>
      </trkpt>
      <trkpt lat="49.33608" lon="0.98406">
        <ele>119</ele>
        <time>2014-03-23T10:36:47Z</time>
      </trkpt>
      <trkpt lat="49.33592" lon="0.98378">
        <ele>119</ele>
        <time>2014-03-23T10:36:55Z</time>
      </trkpt>
      <trkpt lat="49.33591" lon="0.98348">
        <ele>118</ele>
        <time>2014-03-23T10:37:11Z</time>
      </trkpt>
      <trkpt lat="49.33594" lon="0.9832">
        <ele>119</ele>
        <time>2014-03-23T10:37:35Z</time>
      </trkpt>
      <trkpt lat="49.33597" lon="0.98293">
        <ele>121</ele>
        <time>2014-03-23T10:38:03Z</time>
      </trkpt>
      <trkpt lat="49.33588" lon="0.98267">
        <ele>121</ele>
        <time>2014-03-23T10:38:15Z</time>
      </trkpt>
      <trkpt lat="49.33568" lon="0.98241">
        <ele>118</ele>
        <time>2014-03-23T10:38:23Z</time>
      </trkpt>
      <trkpt lat="49.33544" lon="0.98222">
        <ele>116</ele>
        <time>2014-03-23T10:38:31Z</time>
      </trkpt>
      <trkpt lat="49.33531" lon="0.9819">
        <ele>116</ele>
        <time>2014-03-23T10:38:39Z</time>
      </trkpt>
      <trkpt lat="49.33524" lon="0.9815">
        <ele>117</ele>
        <time>2014-03-23T10:38:47Z</time>
      </trkpt>
      <trkpt lat="49.3352" lon="0.98103">
        <ele>117</ele>
        <time>2014-03-23T10:38:55Z</time>
      </trkpt>
      <trkpt lat="49.33529" lon="0.98068">
        <ele>118</ele>
        <time>2014-03-23T10:39:03Z</time>
      </trkpt>
      <trkpt lat="49.33546" lon="0.98051">
        <ele>120</ele>
        <time>2014-03-23T10:39:11Z</time>
      </trkpt>
      <trkpt lat="49.33564" lon="0.98036">
        <ele>121</ele>
        <time>2014-03-23T10:39:19Z</time>
      </trkpt>
      <trkpt lat="49.33584" lon="0.98021">
        <ele>128</ele>
        <time>2014-03-23T10:39:27Z</time>
      </trkpt>
      <trkpt lat="49.33609" lon="0.98005">
        <ele>129</ele>
        <time>2014-03-23T10:39:39Z</time>
      </trkpt>
      <trkpt lat="49.33629" lon="0.97996">
        <ele>128</ele>
        <time>2014-03-23T10:39:51Z</time>
      </trkpt>
      <trkpt lat="49.33642" lon="0.98029">
        <ele>130</ele>
        <time>2014-03-23T10:40:03Z</time>
      </trkpt>
      <trkpt lat="49.33651" lon="0.98055">
        <ele>131</ele>
        <time>2014-03-23T10:40:11Z</time>
      </trkpt>
      <trkpt lat="49.33661" lon="0.98082">
        <ele>133</ele>
        <time>2014-03-23T10:40:19Z</time>
      </trkpt>
      <trkpt lat="49.33682" lon="0.98094">
        <ele>135</ele>
        <time>2014-03-23T10:40:27Z</time>
      </trkpt>
      <trkpt lat="49.33702" lon="0.98075">
        <ele>135</ele>
        <time>2014-03-23T10:40:35Z</time>
      </trkpt>
      <trkpt lat="49.33708" lon="0.98044">
        <ele>135</ele>
        <time>2014-03-23T10:40:43Z</time>
      </trkpt>
      <trkpt lat="49.33718" lon="0.98013">
        <ele>135</ele>
        <time>2014-03-23T10:40:47Z</time>
      </trkpt>
      <trkpt lat="49.33735" lon="0.97997">
        <ele>133</ele>
        <time>2014-03-23T10:40:51Z</time>
      </trkpt>
      <trkpt lat="49.33748" lon="0.97978">
        <ele>132</ele>
        <time>2014-03-23T10:40:55Z</time>
      </trkpt>
      <trkpt lat="49.33755" lon="0.97951">
        <ele>129</ele>
        <time>2014-03-23T10:40:59Z</time>
      </trkpt>
      <trkpt lat="49.33763" lon="0.97914">
        <ele>124</ele>
        <time>2014-03-23T10:41:03Z</time>
      </trkpt>
      <trkpt lat="49.33772" lon="0.97878">
        <ele>121</ele>
        <time>2014-03-23T10:41:07Z</time>
      </trkpt>
      <trkpt lat="49.3378" lon="0.97843">
        <ele>119</ele>
        <time>2014-03-23T10:41:11Z</time>
      </trkpt>
      <trkpt lat="49.33785" lon="0.97813">
        <ele>115</ele>
        <time>2014-03-23T10:41:15Z</time>
      </trkpt>
      <trkpt lat="49.33773" lon="0.97784">
        <ele>115</ele>
        <time>2014-03-23T10:41:23Z</time>
      </trkpt>
      <trkpt lat="49.33769" lon="0.97755">
        <ele>114</ele>
        <time>2014-03-23T10:41:35Z</time>
      </trkpt>
      <trkpt lat="49.33775" lon="0.97712">
        <ele>115</ele>
        <time>2014-03-23T10:41:43Z</time>
      </trkpt>
      <trkpt lat="49.33753" lon="0.97687">
        <ele>115</ele>
        <time>2014-03-23T10:41:55Z</time>
      </trkpt>
      <trkpt lat="49.33733" lon="0.97658">
        <ele>111</ele>
        <time>2014-03-23T10:42:03Z</time>
      </trkpt>
      <trkpt lat="49.33726" lon="0.97612">
        <ele>109</ele>
        <time>2014-03-23T10:42:11Z</time>
      </trkpt>
      <trkpt lat="49.33743" lon="0.97582">
        <ele>113</ele>
        <time>2014-03-23T10:42:19Z</time>
      </trkpt>
      <trkpt lat="49.33761" lon="0.97569">
        <ele>118</ele>
        <time>2014-03-23T10:42:31Z</time>
      </trkpt>
      <trkpt lat="49.33785" lon="0.9756">
        <ele>120</ele>
        <time>2014-03-23T10:42:43Z</time>
      </trkpt>
      <trkpt lat="49.33793" lon="0.97528">
        <ele>120</ele>
        <time>2014-03-23T10:43:35Z</time>
      </trkpt>
      <trkpt lat="49.33791" lon="0.975">
        <ele>120</ele>
        <time>2014-03-23T10:43:43Z</time>
      </trkpt>
      <trkpt lat="49.33789" lon="0.97457">
        <ele>122</ele>
        <time>2014-03-23T10:43:55Z</time>
      </trkpt>
      <trkpt lat="49.33788" lon="0.97418">
        <ele>122</ele>
        <time>2014-03-23T10:44:03Z</time>
      </trkpt>
      <trkpt lat="49.33787" lon="0.97382">
        <ele>123</ele>
        <time>2014-03-23T10:44:11Z</time>
      </trkpt>
      <trkpt lat="49.33785" lon="0.97339">
        <ele>123</ele>
        <time>2014-03-23T10:44:19Z</time>
      </trkpt>
      <trkpt lat="49.33782" lon="0.97301">
        <ele>122</ele>
        <time>2014-03-23T10:44:27Z</time>
      </trkpt>
      <trkpt lat="49.33776" lon="0.97268">
        <ele>122</ele>
        <time>2014-03-23T10:44:35Z</time>
      </trkpt>
      <trkpt lat="49.33775" lon="0.97218">
        <ele>120</ele>
        <time>2014-03-23T10:44:43Z</time>
      </trkpt>
      <trkpt lat="49.33772" lon="0.97164">
        <ele>119</ele>
        <time>2014-03-23T10:44:51Z</time>
      </trkpt>
      <trkpt lat="49.33765" lon="0.971">
        <ele>117</ele>
        <time>2014-03-23T10:44:59Z</time>
      </trkpt>
      <trkpt lat="49.33756" lon="0.9705">
        <ele>113</ele>
        <time>2014-03-23T10:45:03Z</time>
      </trkpt>
      <trkpt lat="49.33749" lon="0.97">
        <ele>111</ele>
        <time>2014-03-23T10:45:07Z</time>
      </trkpt>
      <trkpt lat="49.33748" lon="0.96945">
        <ele>105</ele>
        <time>2014-03-23T10:45:11Z</time>
      </trkpt>
      <trkpt lat="49.33757" lon="0.96893">
        <ele>109</ele>
        <time>2014-03-23T10:45:15Z</time>
      </trkpt>
      <trkpt lat="49.33773" lon="0.96846">
        <ele>109</ele>
        <time>2014-03-23T10:45:19Z</time>
      </trkpt>
      <trkpt lat="49.33787" lon="0.9682">
        <ele>109</ele>
        <time>2014-03-23T10:45:23Z</time>
      </trkpt>
      <trkpt lat="49.33799" lon="0.96798">
        <ele>109</ele>
        <time>2014-03-23T10:45:27Z</time>
      </trkpt>
      <trkpt lat="49.33806" lon="0.96765">
        <ele>109</ele>
        <time>2014-03-23T10:45:31Z</time>
      </trkpt>
      <trkpt lat="49.33803" lon="0.96735">
        <ele>108</ele>
        <time>2014-03-23T10:45:35Z</time>
      </trkpt>
      <trkpt lat="49.33794" lon="0.96703">
        <ele>108</ele>
        <time>2014-03-23T10:45:39Z</time>
      </trkpt>
      <trkpt lat="49.33781" lon="0.96666">
        <ele>107</ele>
        <time>2014-03-23T10:45:43Z</time>
      </trkpt>
      <trkpt lat="49.33766" lon="0.96623">
        <ele>107</ele>
        <time>2014-03-23T10:45:47Z</time>
      </trkpt>
      <trkpt lat="49.3375" lon="0.96575">
        <ele>104</ele>
        <time>2014-03-23T10:45:51Z</time>
      </trkpt>
      <trkpt lat="49.3374" lon="0.9652">
        <ele>99</ele>
        <time>2014-03-23T10:45:55Z</time>
      </trkpt>
      <trkpt lat="49.33744" lon="0.96476">
        <ele>99</ele>
        <time>2014-03-23T10:45:59Z</time>
      </trkpt>
      <trkpt lat="49.33755" lon="0.96442">
        <ele>105</ele>
        <time>2014-03-23T10:46:03Z</time>
      </trkpt>
      <trkpt lat="49.3377" lon="0.96418">
        <ele>105</ele>
        <time>2014-03-23T10:46:07Z</time>
      </trkpt>
      <trkpt lat="49.33787" lon="0.96392">
        <ele>104</ele>
        <time>2014-03-23T10:46:11Z</time>
      </trkpt>
      <trkpt lat="49.33809" lon="0.96363">
        <ele>103</ele>
        <time>2014-03-23T10:46:15Z</time>
      </trkpt>
      <trkpt lat="49.33833" lon="0.96339">
        <ele>102</ele>
        <time>2014-03-23T10:46:19Z</time>
      </trkpt>
      <trkpt lat="49.33859" lon="0.96315">
        <ele>97</ele>
        <time>2014-03-23T10:46:23Z</time>
      </trkpt>
      <trkpt lat="49.33882" lon="0.96291">
        <ele>96</ele>
        <time>2014-03-23T10:46:27Z</time>
      </trkpt>
      <trkpt lat="49.33858" lon="0.96294">
        <ele>96</ele>
        <time>2014-03-23T10:46:35Z</time>
      </trkpt>
      <trkpt lat="49.33838" lon="0.96297">
        <ele>96</ele>
        <time>2014-03-23T10:46:39Z</time>
      </trkpt>
      <trkpt lat="49.33824" lon="0.96279">
        <ele>94</ele>
        <time>2014-03-23T10:46:43Z</time>
      </trkpt>
      <trkpt lat="49.33836" lon="0.96245">
        <ele>90</ele>
        <time>2014-03-23T10:46:47Z</time>
      </trkpt>
      <trkpt lat="49.33854" lon="0.96218">
        <ele>89</ele>
        <time>2014-03-23T10:46:51Z</time>
      </trkpt>
      <trkpt lat="49.33865" lon="0.96172">
        <ele>88</ele>
        <time>2014-03-23T10:46:59Z</time>
      </trkpt>
      <trkpt lat="49.33868" lon="0.9612">
        <ele>85</ele>
        <time>2014-03-23T10:47:07Z</time>
      </trkpt>
      <trkpt lat="49.33867" lon="0.96079">
        <ele>83</ele>
        <time>2014-03-23T10:47:15Z</time>
      </trkpt>
      <trkpt lat="49.33864" lon="0.96049">
        <ele>83</ele>
        <time>2014-03-23T10:47:23Z</time>
      </trkpt>
      <trkpt lat="49.33874" lon="0.96019">
        <ele>83</ele>
        <time>2014-03-23T10:47:31Z</time>
      </trkpt>
      <trkpt lat="49.33874" lon="0.95989">
        <ele>84</ele>
        <time>2014-03-23T10:47:39Z</time>
      </trkpt>
      <trkpt lat="49.3387" lon="0.95954">
        <ele>84</ele>
        <time>2014-03-23T10:47:47Z</time>
      </trkpt>
      <trkpt lat="49.33867" lon="0.95912">
        <ele>86</ele>
        <time>2014-03-23T10:47:55Z</time>
      </trkpt>
      <trkpt lat="49.33865" lon="0.95868">
        <ele>86</ele>
        <time>2014-03-23T10:48:03Z</time>
      </trkpt>
      <trkpt lat="49.33862" lon="0.95828">
        <ele>88</ele>
        <time>2014-03-23T10:48:11Z</time>
      </trkpt>
      <trkpt lat="49.33858" lon="0.95797">
        <ele>89</ele>
        <time>2014-03-23T10:48:15Z</time>
      </trkpt>
      <trkpt lat="49.33855" lon="0.95765">
        <ele>89</ele>
        <time>2014-03-23T10:48:27Z</time>
      </trkpt>
      <trkpt lat="49.33856" lon="0.95737">
        <ele>92</ele>
        <time>2014-03-23T10:48:31Z</time>
      </trkpt>
      <trkpt lat="49.33857" lon="0.95705">
        <ele>94</ele>
        <time>2014-03-23T10:48:43Z</time>
      </trkpt>
      <trkpt lat="49.33855" lon="0.95673">
        <ele>93</ele>
        <time>2014-03-23T10:48:59Z</time>
      </trkpt>
      <trkpt lat="49.33861" lon="0.95635">
        <ele>99</ele>
        <time>2014-03-23T10:49:11Z</time>
      </trkpt>
      <trkpt lat="49.33856" lon="0.95596">
        <ele>99</ele>
        <time>2014-03-23T10:49:23Z</time>
      </trkpt>
      <trkpt lat="49.33843" lon="0.9557">
        <ele>100</ele>
        <time>2014-03-23T10:49:31Z</time>
      </trkpt>
      <trkpt lat="49.33834" lon="0.95543">
        <ele>101</ele>
        <time>2014-03-23T10:49:39Z</time>
      </trkpt>
      <trkpt lat="49.33827" lon="0.9551">
        <ele>93</ele>
        <time>2014-03-23T10:49:47Z</time>
      </trkpt>
      <trkpt lat="49.33822" lon="0.95469">
        <ele>91</ele>
        <time>2014-03-23T10:49:55Z</time>
      </trkpt>
      <trkpt lat="49.33822" lon="0.95425">
        <ele>96</ele>
        <time>2014-03-23T10:50:03Z</time>
      </trkpt>
      <trkpt lat="49.3382" lon="0.95386">
        <ele>93</ele>
        <time>2014-03-23T10:50:11Z</time>
      </trkpt>
      <trkpt lat="49.33822" lon="0.95358">
        <ele>95</ele>
        <time>2014-03-23T10:50:15Z</time>
      </trkpt>
      <trkpt lat="49.33819" lon="0.95318">
        <ele>98</ele>
        <time>2014-03-23T10:50:23Z</time>
      </trkpt>
      <trkpt lat="49.33813" lon="0.9527">
        <ele>98</ele>
        <time>2014-03-23T10:50:31Z</time>
      </trkpt>
      <trkpt lat="49.33808" lon="0.95224">
        <ele>99</ele>
        <time>2014-03-23T10:50:39Z</time>
      </trkpt>
      <trkpt lat="49.33804" lon="0.95173">
        <ele>100</ele>
        <time>2014-03-23T10:50:47Z</time>
      </trkpt>
      <trkpt lat="49.33807" lon="0.95129">
        <ele>100</ele>
        <time>2014-03-23T10:50:55Z</time>
      </trkpt>
      <trkpt lat="49.33816" lon="0.95098">
        <ele>103</ele>
        <time>2014-03-23T10:50:59Z</time>
      </trkpt>
      <trkpt lat="49.33827" lon="0.95073">
        <ele>103</ele>
        <time>2014-03-23T10:51:03Z</time>
      </trkpt>
      <trkpt lat="49.33853" lon="0.95043">
        <ele>107</ele>
        <time>2014-03-23T10:51:11Z</time>
      </trkpt>
      <trkpt lat="49.33877" lon="0.95028">
        <ele>108</ele>
        <time>2014-03-23T10:51:19Z</time>
      </trkpt>
      <trkpt lat="49.33893" lon="0.95">
        <ele>105</ele>
        <time>2014-03-23T10:51:31Z</time>
      </trkpt>
      <trkpt lat="49.33898" lon="0.94964">
        <ele>105</ele>
        <time>2014-03-23T10:51:39Z</time>
      </trkpt>
      <trkpt lat="49.33899" lon="0.94933">
        <ele>106</ele>
        <time>2014-03-23T10:51:47Z</time>
      </trkpt>
      <trkpt lat="49.339" lon="0.94897">
        <ele>108</ele>
        <time>2014-03-23T10:51:55Z</time>
      </trkpt>
      <trkpt lat="49.33907" lon="0.94869">
        <ele>108</ele>
        <time>2014-03-23T10:52:03Z</time>
      </trkpt>
      <trkpt lat="49.33904" lon="0.94832">
        <ele>112</ele>
        <time>2014-03-23T10:52:15Z</time>
      </trkpt>
      <trkpt lat="49.3391" lon="0.94801">
        <ele>113</ele>
        <time>2014-03-23T10:52:23Z</time>
      </trkpt>
      <trkpt lat="49.33905" lon="0.9477">
        <ele>115</ele>
        <time>2014-03-23T10:52:39Z</time>
      </trkpt>
      <trkpt lat="49.3389" lon="0.94752">
        <ele>115</ele>
        <time>2014-03-23T10:52:51Z</time>
      </trkpt>
      <trkpt lat="49.33889" lon="0.94722">
        <ele>118</ele>
        <time>2014-03-23T10:54:43Z</time>
      </trkpt>
      <trkpt lat="49.3389" lon="0.94694">
        <ele>118</ele>
        <time>2014-03-23T10:54:55Z</time>
      </trkpt>
      <trkpt lat="49.33892" lon="0.94663">
        <ele>122</ele>
        <time>2014-03-23T10:55:03Z</time>
      </trkpt>
      <trkpt lat="49.33884" lon="0.94622">
        <ele>123</ele>
        <time>2014-03-23T10:55:19Z</time>
      </trkpt>
      <trkpt lat="49.33883" lon="0.94589">
        <ele>124</ele>
        <time>2014-03-23T10:55:27Z</time>
      </trkpt>
      <trkpt lat="49.33886" lon="0.9455">
        <ele>129</ele>
        <time>2014-03-23T10:55:39Z</time>
      </trkpt>
      <trkpt lat="49.3389" lon="0.94521">
        <ele>129</ele>
        <time>2014-03-23T10:55:47Z</time>
      </trkpt>
      <trkpt lat="49.33892" lon="0.94478">
        <ele>130</ele>
        <time>2014-03-23T10:55:59Z</time>
      </trkpt>
      <trkpt lat="49.33888" lon="0.94451">
        <ele>130</ele>
        <time>2014-03-23T10:56:07Z</time>
      </trkpt>
      <trkpt lat="49.33858" lon="0.94436">
        <ele>130</ele>
        <time>2014-03-23T10:56:15Z</time>
      </trkpt>
      <trkpt lat="49.33829" lon="0.94423">
        <ele>129</ele>
        <time>2014-03-23T10:56:23Z</time>
      </trkpt>
      <trkpt lat="49.33799" lon="0.94411">
        <ele>127</ele>
        <time>2014-03-23T10:56:31Z</time>
      </trkpt>
      <trkpt lat="49.33777" lon="0.94402">
        <ele>126</ele>
        <time>2014-03-23T10:56:35Z</time>
      </trkpt>
      <trkpt lat="49.33759" lon="0.94397">
        <ele>126</ele>
        <time>2014-03-23T10:56:39Z</time>
      </trkpt>
      <trkpt lat="49.33727" lon="0.94382">
        <ele>119</ele>
        <time>2014-03-23T10:56:47Z</time>
      </trkpt>
      <trkpt lat="49.33708" lon="0.94376">
        <ele>118</ele>
        <time>2014-03-23T10:56:51Z</time>
      </trkpt>
      <trkpt lat="49.33679" lon="0.94362">
        <ele>115</ele>
        <time>2014-03-23T10:56:59Z</time>
      </trkpt>
      <trkpt lat="49.33665" lon="0.94335">
        <ele>110</ele>
        <time>2014-03-23T10:57:15Z</time>
      </trkpt>
      <trkpt lat="49.33666" lon="0.94301">
        <ele>104</ele>
        <time>2014-03-23T10:57:27Z</time>
      </trkpt>
      <trkpt lat="49.33665" lon="0.94271">
        <ele>106</ele>
        <time>2014-03-23T10:57:35Z</time>
      </trkpt>
      <trkpt lat="49.33665" lon="0.9424">
        <ele>109</ele>
        <time>2014-03-23T10:57:43Z</time>
      </trkpt>
      <trkpt lat="49.33669" lon="0.94204">
        <ele>117</ele>
        <time>2014-03-23T10:57:55Z</time>
      </trkpt>
      <trkpt lat="49.33675" lon="0.94172">
        <ele>116</ele>
        <time>2014-03-23T10:58:07Z</time>
      </trkpt>
      <trkpt lat="49.3368" lon="0.94137">
        <ele>120</ele>
        <time>2014-03-23T10:58:19Z</time>
      </trkpt>
      <trkpt lat="49.33687" lon="0.9411">
        <ele>122</ele>
        <time>2014-03-23T10:58:27Z</time>
      </trkpt>
      <trkpt lat="49.3369" lon="0.94082">
        <ele>126</ele>
        <time>2014-03-23T10:58:35Z</time>
      </trkpt>
      <trkpt lat="49.33695" lon="0.94052">
        <ele>128</ele>
        <time>2014-03-23T10:58:43Z</time>
      </trkpt>
      <trkpt lat="49.33693" lon="0.94021">
        <ele>129</ele>
        <time>2014-03-23T10:58:51Z</time>
      </trkpt>
      <trkpt lat="49.33677" lon="0.93964">
        <ele>131</ele>
        <time>2014-03-23T10:58:59Z</time>
      </trkpt>
      <trkpt lat="49.33673" lon="0.93934">
        <ele>131</ele>
        <time>2014-03-23T10:59:03Z</time>
      </trkpt>
      <trkpt lat="49.33658" lon="0.93902">
        <ele>125</ele>
        <time>2014-03-23T10:59:11Z</time>
      </trkpt>
      <trkpt lat="49.33632" lon="0.93852">
        <ele>120</ele>
        <time>2014-03-23T10:59:19Z</time>
      </trkpt>
      <trkpt lat="49.33618" lon="0.93831">
        <ele>115</ele>
        <time>2014-03-23T10:59:23Z</time>
      </trkpt>
      <trkpt lat="49.33608" lon="0.93788">
        <ele>113</ele>
        <time>2014-03-23T10:59:31Z</time>
      </trkpt>
      <trkpt lat="49.33595" lon="0.93758">
        <ele>109</ele>
        <time>2014-03-23T10:59:39Z</time>
      </trkpt>
      <trkpt lat="49.336" lon="0.93729">
        <ele>104</ele>
        <time>2014-03-23T10:59:47Z</time>
      </trkpt>
      <trkpt lat="49.33607" lon="0.93691">
        <ele>101</ele>
        <time>2014-03-23T10:59:55Z</time>
      </trkpt>
      <trkpt lat="49.33623" lon="0.93666">
        <ele>89</ele>
        <time>2014-03-23T11:00:03Z</time>
      </trkpt>
      <trkpt lat="49.33643" lon="0.93667">
        <ele>91</ele>
        <time>2014-03-23T11:00:15Z</time>
      </trkpt>
      <trkpt lat="49.33661" lon="0.93676">
        <ele>101</ele>
        <time>2014-03-23T11:00:39Z</time>
      </trkpt>
      <trkpt lat="49.33684" lon="0.93685">
        <ele>105</ele>
        <time>2014-03-23T11:01:07Z</time>
      </trkpt>
      <trkpt lat="49.33707" lon="0.93694">
        <ele>107</ele>
        <time>2014-03-23T11:01:19Z</time>
      </trkpt>
      <trkpt lat="49.3373" lon="0.93701">
        <ele>108</ele>
        <time>2014-03-23T11:01:27Z</time>
      </trkpt>
      <trkpt lat="49.33753" lon="0.93706">
        <ele>112</ele>
        <time>2014-03-23T11:01:39Z</time>
      </trkpt>
      <trkpt lat="49.33773" lon="0.93711">
        <ele>113</ele>
        <time>2014-03-23T11:01:55Z</time>
      </trkpt>
      <trkpt lat="49.33793" lon="0.93717">
        <ele>115</ele>
        <time>2014-03-23T11:02:07Z</time>
      </trkpt>
      <trkpt lat="49.33812" lon="0.93726">
        <ele>118</ele>
        <time>2014-03-23T11:02:19Z</time>
      </trkpt>
      <trkpt lat="49.33835" lon="0.93729">
        <ele>126</ele>
        <time>2014-03-23T11:02:35Z</time>
      </trkpt>
      <trkpt lat="49.33856" lon="0.93726">
        <ele>127</ele>
        <time>2014-03-23T11:03:03Z</time>
      </trkpt>
      <trkpt lat="49.33874" lon="0.93713">
        <ele>127</ele>
        <time>2014-03-23T11:03:11Z</time>
      </trkpt>
      <trkpt lat="49.33887" lon="0.93677">
        <ele>127</ele>
        <time>2014-03-23T11:03:27Z</time>
      </trkpt>
      <trkpt lat="49.33889" lon="0.93645">
        <ele>118</ele>
        <time>2014-03-23T11:03:35Z</time>
      </trkpt>
      <trkpt lat="49.33897" lon="0.93618">
        <ele>116</ele>
        <time>2014-03-23T11:03:39Z</time>
      </trkpt>
      <trkpt lat="49.33905" lon="0.9359">
        <ele>118</ele>
        <time>2014-03-23T11:03:47Z</time>
      </trkpt>
      <trkpt lat="49.33915" lon="0.93542">
        <ele>107</ele>
        <time>2014-03-23T11:03:55Z</time>
      </trkpt>
      <trkpt lat="49.33924" lon="0.93501">
        <ele>115</ele>
        <time>2014-03-23T11:04:03Z</time>
      </trkpt>
      <trkpt lat="49.33929" lon="0.93461">
        <ele>117</ele>
        <time>2014-03-23T11:04:11Z</time>
      </trkpt>
      <trkpt lat="49.33938" lon="0.93417">
        <ele>113</ele>
        <time>2014-03-23T11:04:19Z</time>
      </trkpt>
      <trkpt lat="49.33943" lon="0.93374">
        <ele>115</ele>
        <time>2014-03-23T11:04:31Z</time>
      </trkpt>
      <trkpt lat="49.33955" lon="0.9334">
        <ele>117</ele>
        <time>2014-03-23T11:04:39Z</time>
      </trkpt>
      <trkpt lat="49.33961" lon="0.93305">
        <ele>118</ele>
        <time>2014-03-23T11:04:51Z</time>
      </trkpt>
      <trkpt lat="49.33969" lon="0.9327">
        <ele>119</ele>
        <time>2014-03-23T11:05:03Z</time>
      </trkpt>
      <trkpt lat="49.33973" lon="0.93237">
        <ele>120</ele>
        <time>2014-03-23T11:05:11Z</time>
      </trkpt>
      <trkpt lat="49.33965" lon="0.93206">
        <ele>118</ele>
        <time>2014-03-23T11:05:19Z</time>
      </trkpt>
      <trkpt lat="49.33949" lon="0.93175">
        <ele>115</ele>
        <time>2014-03-23T11:05:27Z</time>
      </trkpt>
      <trkpt lat="49.33943" lon="0.93142">
        <ele>115</ele>
        <time>2014-03-23T11:05:35Z</time>
      </trkpt>
      <trkpt lat="49.33929" lon="0.93107">
        <ele>113</ele>
        <time>2014-03-23T11:05:43Z</time>
      </trkpt>
      <trkpt lat="49.33921" lon="0.93082">
        <ele>110</ele>
        <time>2014-03-23T11:05:51Z</time>
      </trkpt>
      <trkpt lat="49.33912" lon="0.93045">
        <ele>104</ele>
        <time>2014-03-23T11:06:03Z</time>
      </trkpt>
      <trkpt lat="49.33899" lon="0.93023">
        <ele>105</ele>
        <time>2014-03-23T11:06:11Z</time>
      </trkpt>
      <trkpt lat="49.33901" lon="0.92992">
        <ele>110</ele>
        <time>2014-03-23T11:06:23Z</time>
      </trkpt>
      <trkpt lat="49.33919" lon="0.92971">
        <ele>118</ele>
        <time>2014-03-23T11:06:55Z</time>
      </trkpt>
      <trkpt lat="49.33905" lon="0.92992">
        <ele>111</ele>
        <time>2014-03-23T11:08:03Z</time>
      </trkpt>
      <trkpt lat="49.33889" lon="0.92972">
        <ele>108</ele>
        <time>2014-03-23T11:09:11Z</time>
      </trkpt>
      <trkpt lat="49.33872" lon="0.92948">
        <ele>107</ele>
        <time>2014-03-23T11:09:19Z</time>
      </trkpt>
      <trkpt lat="49.33856" lon="0.92915">
        <ele>110</ele>
        <time>2014-03-23T11:09:27Z</time>
      </trkpt>
      <trkpt lat="49.33842" lon="0.92895">
        <ele>109</ele>
        <time>2014-03-23T11:09:31Z</time>
      </trkpt>
      <trkpt lat="49.33823" lon="0.92879">
        <ele>100</ele>
        <time>2014-03-23T11:09:35Z</time>
      </trkpt>
      <trkpt lat="49.33799" lon="0.9286">
        <ele>99</ele>
        <time>2014-03-23T11:09:39Z</time>
      </trkpt>
      <trkpt lat="49.33775" lon="0.92841">
        <ele>96</ele>
        <time>2014-03-23T11:09:43Z</time>
      </trkpt>
      <trkpt lat="49.33752" lon="0.9282">
        <ele>98</ele>
        <time>2014-03-23T11:09:47Z</time>
      </trkpt>
      <trkpt lat="49.33734" lon="0.92795">
        <ele>90</ele>
        <time>2014-03-23T11:09:51Z</time>
      </trkpt>
      <trkpt lat="49.33706" lon="0.92768">
        <ele>88</ele>
        <time>2014-03-23T11:09:55Z</time>
      </trkpt>
      <trkpt lat="49.33684" lon="0.92745">
        <ele>88</ele>
        <time>2014-03-23T11:09:59Z</time>
      </trkpt>
      <trkpt lat="49.3366" lon="0.92713">
        <ele>79</ele>
        <time>2014-03-23T11:10:03Z</time>
      </trkpt>
      <trkpt lat="49.33639" lon="0.9268">
        <ele>80</ele>
        <time>2014-03-23T11:10:07Z</time>
      </trkpt>
      <trkpt lat="49.33619" lon="0.9265">
        <ele>82</ele>
        <time>2014-03-23T11:10:11Z</time>
      </trkpt>
      <trkpt lat="49.33592" lon="0.92636">
        <ele>80</ele>
        <time>2014-03-23T11:10:15Z</time>
      </trkpt>
      <trkpt lat="49.33564" lon="0.92631">
        <ele>68</ele>
        <time>2014-03-23T11:10:19Z</time>
      </trkpt>
      <trkpt lat="49.33542" lon="0.92609">
        <ele>67</ele>
        <time>2014-03-23T11:10:27Z</time>
      </trkpt>
      <trkpt lat="49.3352" lon="0.92614">
        <ele>65</ele>
        <time>2014-03-23T11:12:07Z</time>
      </trkpt>
      <trkpt lat="49.33494" lon="0.92603">
        <ele>62</ele>
        <time>2014-03-23T11:12:15Z</time>
      </trkpt>
      <trkpt lat="49.33467" lon="0.92614">
        <ele>62</ele>
        <time>2014-03-23T11:12:23Z</time>
      </trkpt>
      <trkpt lat="49.33449" lon="0.92614">
        <ele>62</ele>
        <time>2014-03-23T11:12:27Z</time>
      </trkpt>
      <trkpt lat="49.3342" lon="0.92601">
        <ele>62</ele>
        <time>2014-03-23T11:12:35Z</time>
      </trkpt>
      <trkpt lat="49.33394" lon="0.92584">
        <ele>65</ele>
        <time>2014-03-23T11:12:43Z</time>
      </trkpt>
      <trkpt lat="49.33365" lon="0.92564">
        <ele>64</ele>
        <time>2014-03-23T11:12:51Z</time>
      </trkpt>
      <trkpt lat="49.33341" lon="0.92536">
        <ele>63</ele>
        <time>2014-03-23T11:12:59Z</time>
      </trkpt>
      <trkpt lat="49.33313" lon="0.92523">
        <ele>65</ele>
        <time>2014-03-23T11:13:07Z</time>
      </trkpt>
      <trkpt lat="49.33284" lon="0.92536">
        <ele>66</ele>
        <time>2014-03-23T11:13:15Z</time>
      </trkpt>
      <trkpt lat="49.33253" lon="0.9255">
        <ele>68</ele>
        <time>2014-03-23T11:13:23Z</time>
      </trkpt>
      <trkpt lat="49.33223" lon="0.92561">
        <ele>69</ele>
        <time>2014-03-23T11:13:31Z</time>
      </trkpt>
      <trkpt lat="49.33193" lon="0.92572">
        <ele>69</ele>
        <time>2014-03-23T11:13:39Z</time>
      </trkpt>
      <trkpt lat="49.33162" lon="0.92583">
        <ele>70</ele>
        <time>2014-03-23T11:13:47Z</time>
      </trkpt>
      <trkpt lat="49.33133" lon="0.926">
        <ele>74</ele>
        <time>2014-03-23T11:13:55Z</time>
      </trkpt>
      <trkpt lat="49.33102" lon="0.92615">
        <ele>74</ele>
        <time>2014-03-23T11:14:03Z</time>
      </trkpt>
      <trkpt lat="49.33071" lon="0.92631">
        <ele>73</ele>
        <time>2014-03-23T11:14:11Z</time>
      </trkpt>
      <trkpt lat="49.33041" lon="0.92648">
        <ele>73</ele>
        <time>2014-03-23T11:14:19Z</time>
      </trkpt>
      <trkpt lat="49.3301" lon="0.92665">
        <ele>73</ele>
        <time>2014-03-23T11:14:27Z</time>
      </trkpt>
      <trkpt lat="49.32979" lon="0.92684">
        <ele>77</ele>
        <time>2014-03-23T11:14:35Z</time>
      </trkpt>
      <trkpt lat="49.32954" lon="0.92701">
        <ele>78</ele>
        <time>2014-03-23T11:14:43Z</time>
      </trkpt>
      <trkpt lat="49.32928" lon="0.92716">
        <ele>78</ele>
        <time>2014-03-23T11:14:51Z</time>
      </trkpt>
      <trkpt lat="49.32902" lon="0.92729">
        <ele>77</ele>
        <time>2014-03-23T11:14:59Z</time>
      </trkpt>
      <trkpt lat="49.32877" lon="0.92734">
        <ele>78</ele>
        <time>2014-03-23T11:15:07Z</time>
      </trkpt>
      <trkpt lat="49.3285" lon="0.92717">
        <ele>78</ele>
        <time>2014-03-23T11:15:15Z</time>
      </trkpt>
      <trkpt lat="49.32823" lon="0.92703">
        <ele>82</ele>
        <time>2014-03-23T11:15:23Z</time>
      </trkpt>
      <trkpt lat="49.32797" lon="0.9269">
        <ele>83</ele>
        <time>2014-03-23T11:15:31Z</time>
      </trkpt>
      <trkpt lat="49.32771" lon="0.92679">
        <ele>83</ele>
        <time>2014-03-23T11:15:43Z</time>
      </trkpt>
      <trkpt lat="49.3275" lon="0.92669">
        <ele>84</ele>
        <time>2014-03-23T11:15:51Z</time>
      </trkpt>
      <trkpt lat="49.32728" lon="0.9266">
        <ele>84</ele>
        <time>2014-03-23T11:15:59Z</time>
      </trkpt>
      <trkpt lat="49.32707" lon="0.92651">
        <ele>84</ele>
        <time>2014-03-23T11:16:07Z</time>
      </trkpt>
      <trkpt lat="49.32684" lon="0.92641">
        <ele>84</ele>
        <time>2014-03-23T11:16:15Z</time>
      </trkpt>
      <trkpt lat="49.3266" lon="0.92633">
        <ele>86</ele>
        <time>2014-03-23T11:16:23Z</time>
      </trkpt>
      <trkpt lat="49.32634" lon="0.92631">
        <ele>86</ele>
        <time>2014-03-23T11:16:31Z</time>
      </trkpt>
      <trkpt lat="49.3261" lon="0.9264">
        <ele>87</ele>
        <time>2014-03-23T11:16:39Z</time>
      </trkpt>
      <trkpt lat="49.32586" lon="0.92652">
        <ele>89</ele>
        <time>2014-03-23T11:16:47Z</time>
      </trkpt>
      <trkpt lat="49.32563" lon="0.92665">
        <ele>89</ele>
        <time>2014-03-23T11:16:55Z</time>
      </trkpt>
      <trkpt lat="49.32538" lon="0.92671">
        <ele>89</ele>
        <time>2014-03-23T11:17:03Z</time>
      </trkpt>
      <trkpt lat="49.32515" lon="0.92678">
        <ele>88</ele>
        <time>2014-03-23T11:17:11Z</time>
      </trkpt>
      <trkpt lat="49.325" lon="0.92696">
        <ele>88</ele>
        <time>2014-03-23T11:17:19Z</time>
      </trkpt>
      <trkpt lat="49.32494" lon="0.92723">
        <ele>87</ele>
        <time>2014-03-23T11:17:27Z</time>
      </trkpt>
      <trkpt lat="49.32472" lon="0.9277">
        <ele>88</ele>
        <time>2014-03-23T11:17:35Z</time>
      </trkpt>
      <trkpt lat="49.32459" lon="0.92794">
        <ele>88</ele>
        <time>2014-03-23T11:17:39Z</time>
      </trkpt>
      <trkpt lat="49.32439" lon="0.92835">
        <ele>89</ele>
        <time>2014-03-23T11:17:47Z</time>
      </trkpt>
      <trkpt lat="49.32418" lon="0.92875">
        <ele>91</ele>
        <time>2014-03-23T11:17:55Z</time>
      </trkpt>
      <trkpt lat="49.32404" lon="0.92893">
        <ele>88</ele>
        <time>2014-03-23T11:17:59Z</time>
      </trkpt>
      <trkpt lat="49.32372" lon="0.92917">
        <ele>87</ele>
        <time>2014-03-23T11:18:07Z</time>
      </trkpt>
      <trkpt lat="49.32341" lon="0.92929">
        <ele>89</ele>
        <time>2014-03-23T11:18:15Z</time>
      </trkpt>
      <trkpt lat="49.32313" lon="0.92944">
        <ele>88</ele>
        <time>2014-03-23T11:18:23Z</time>
      </trkpt>
      <trkpt lat="49.32286" lon="0.92969">
        <ele>88</ele>
        <time>2014-03-23T11:18:31Z</time>
      </trkpt>
      <trkpt lat="49.32261" lon="0.93">
        <ele>86</ele>
        <time>2014-03-23T11:18:39Z</time>
      </trkpt>
      <trkpt lat="49.32229" lon="0.93017">
        <ele>93</ele>
        <time>2014-03-23T11:18:47Z</time>
      </trkpt>
      <trkpt lat="49.32196" lon="0.93014">
        <ele>94</ele>
        <time>2014-03-23T11:18:55Z</time>
      </trkpt>
      <trkpt lat="49.32165" lon="0.93001">
        <ele>89</ele>
        <time>2014-03-23T11:19:03Z</time>
      </trkpt>
      <trkpt lat="49.32137" lon="0.92991">
        <ele>92</ele>
        <time>2014-03-23T11:19:11Z</time>
      </trkpt>
      <trkpt lat="49.32105" lon="0.92984">
        <ele>95</ele>
        <time>2014-03-23T11:19:19Z</time>
      </trkpt>
      <trkpt lat="49.32076" lon="0.9298">
        <ele>98</ele>
        <time>2014-03-23T11:19:27Z</time>
      </trkpt>
      <trkpt lat="49.32048" lon="0.92981">
        <ele>99</ele>
        <time>2014-03-23T11:19:35Z</time>
      </trkpt>
      <trkpt lat="49.32022" lon="0.92987">
        <ele>99</ele>
        <time>2014-03-23T11:19:43Z</time>
      </trkpt>
      <trkpt lat="49.31991" lon="0.92998">
        <ele>98</ele>
        <time>2014-03-23T11:19:51Z</time>
      </trkpt>
      <trkpt lat="49.31964" lon="0.93006">
        <ele>102</ele>
        <time>2014-03-23T11:19:59Z</time>
      </trkpt>
      <trkpt lat="49.3193" lon="0.93004">
        <ele>99</ele>
        <time>2014-03-23T11:20:07Z</time>
      </trkpt>
      <trkpt lat="49.319" lon="0.93006">
        <ele>101</ele>
        <time>2014-03-23T11:20:15Z</time>
      </trkpt>
      <trkpt lat="49.31873" lon="0.93006">
        <ele>104</ele>
        <time>2014-03-23T11:20:23Z</time>
      </trkpt>
      <trkpt lat="49.31845" lon="0.92999">
        <ele>101</ele>
        <time>2014-03-23T11:20:31Z</time>
      </trkpt>
      <trkpt lat="49.31821" lon="0.9299">
        <ele>103</ele>
        <time>2014-03-23T11:20:39Z</time>
      </trkpt>
      <trkpt lat="49.31797" lon="0.92982">
        <ele>105</ele>
        <time>2014-03-23T11:20:47Z</time>
      </trkpt>
      <trkpt lat="49.31774" lon="0.92973">
        <ele>106</ele>
        <time>2014-03-23T11:20:55Z</time>
      </trkpt>
      <trkpt lat="49.31748" lon="0.9296">
        <ele>109</ele>
        <time>2014-03-23T11:21:03Z</time>
      </trkpt>
      <trkpt lat="49.31725" lon="0.92937">
        <ele>109</ele>
        <time>2014-03-23T11:21:11Z</time>
      </trkpt>
      <trkpt lat="49.31701" lon="0.92918">
        <ele>109</ele>
        <time>2014-03-23T11:21:19Z</time>
      </trkpt>
      <trkpt lat="49.31675" lon="0.92898">
        <ele>106</ele>
        <time>2014-03-23T11:21:27Z</time>
      </trkpt>
      <trkpt lat="49.31647" lon="0.92882">
        <ele>108</ele>
        <time>2014-03-23T11:21:35Z</time>
      </trkpt>
      <trkpt lat="49.31619" lon="0.92869">
        <ele>109</ele>
        <time>2014-03-23T11:21:43Z</time>
      </trkpt>
      <trkpt lat="49.31593" lon="0.92851">
        <ele>111</ele>
        <time>2014-03-23T11:21:51Z</time>
      </trkpt>
      <trkpt lat="49.31568" lon="0.92835">
        <ele>114</ele>
        <time>2014-03-23T11:21:59Z</time>
      </trkpt>
      <trkpt lat="49.3155" lon="0.92821">
        <ele>117</ele>
        <time>2014-03-23T11:22:07Z</time>
      </trkpt>
      <trkpt lat="49.31521" lon="0.92804">
        <ele>118</ele>
        <time>2014-03-23T11:22:15Z</time>
      </trkpt>
      <trkpt lat="49.31499" lon="0.92784">
        <ele>120</ele>
        <time>2014-03-23T11:22:23Z</time>
      </trkpt>
      <trkpt lat="49.31475" lon="0.92761">
        <ele>121</ele>
        <time>2014-03-23T11:22:31Z</time>
      </trkpt>
      <trkpt lat="49.31457" lon="0.92738">
        <ele>121</ele>
        <time>2014-03-23T11:22:39Z</time>
      </trkpt>
      <trkpt lat="49.31439" lon="0.9272">
        <ele>121</ele>
        <time>2014-03-23T11:22:47Z</time>
      </trkpt>
      <trkpt lat="49.31422" lon="0.92684">
        <ele>120</ele>
        <time>2014-03-23T11:22:55Z</time>
      </trkpt>
      <trkpt lat="49.31407" lon="0.92656">
        <ele>119</ele>
        <time>2014-03-23T11:23:03Z</time>
      </trkpt>
      <trkpt lat="49.3139" lon="0.92634">
        <ele>119</ele>
        <time>2014-03-23T11:23:11Z</time>
      </trkpt>
      <trkpt lat="49.31371" lon="0.92614">
        <ele>119</ele>
        <time>2014-03-23T11:23:19Z</time>
      </trkpt>
      <trkpt lat="49.31343" lon="0.92611">
        <ele>119</ele>
        <time>2014-03-23T11:23:31Z</time>
      </trkpt>
      <trkpt lat="49.31321" lon="0.92624">
        <ele>120</ele>
        <time>2014-03-23T11:23:39Z</time>
      </trkpt>
      <trkpt lat="49.31295" lon="0.92633">
        <ele>120</ele>
        <time>2014-03-23T11:23:47Z</time>
      </trkpt>
      <trkpt lat="49.31275" lon="0.92641">
        <ele>121</ele>
        <time>2014-03-23T11:23:55Z</time>
      </trkpt>
      <trkpt lat="49.31252" lon="0.92651">
        <ele>122</ele>
        <time>2014-03-23T11:24:03Z</time>
      </trkpt>
      <trkpt lat="49.31228" lon="0.92662">
        <ele>122</ele>
        <time>2014-03-23T11:24:11Z</time>
      </trkpt>
      <trkpt lat="49.31202" lon="0.92671">
        <ele>125</ele>
        <time>2014-03-23T11:24:19Z</time>
      </trkpt>
      <trkpt lat="49.31178" lon="0.92683">
        <ele>125</ele>
        <time>2014-03-23T11:24:27Z</time>
      </trkpt>
      <trkpt lat="49.31154" lon="0.92694">
        <ele>125</ele>
        <time>2014-03-23T11:24:35Z</time>
      </trkpt>
      <trkpt lat="49.31126" lon="0.92703">
        <ele>125</ele>
        <time>2014-03-23T11:24:43Z</time>
      </trkpt>
      <trkpt lat="49.3109" lon="0.92716">
        <ele>125</ele>
        <time>2014-03-23T11:24:51Z</time>
      </trkpt>
      <trkpt lat="49.31059" lon="0.92727">
        <ele>124</ele>
        <time>2014-03-23T11:24:59Z</time>
      </trkpt>
      <trkpt lat="49.31028" lon="0.92739">
        <ele>123</ele>
        <time>2014-03-23T11:25:07Z</time>
      </trkpt>
      <trkpt lat="49.31005" lon="0.92744">
        <ele>123</ele>
        <time>2014-03-23T11:25:15Z</time>
      </trkpt>
      <trkpt lat="49.30974" lon="0.92753">
        <ele>123</ele>
        <time>2014-03-23T11:25:23Z</time>
      </trkpt>
      <trkpt lat="49.3094" lon="0.92765">
        <ele>123</ele>
        <time>2014-03-23T11:25:31Z</time>
      </trkpt>
      <trkpt lat="49.30922" lon="0.92771">
        <ele>123</ele>
        <time>2014-03-23T11:25:35Z</time>
      </trkpt>
      <trkpt lat="49.30904" lon="0.92777">
        <ele>123</ele>
        <time>2014-03-23T11:25:39Z</time>
      </trkpt>
      <trkpt lat="49.30869" lon="0.92789">
        <ele>124</ele>
        <time>2014-03-23T11:25:47Z</time>
      </trkpt>
      <trkpt lat="49.30837" lon="0.92799">
        <ele>124</ele>
        <time>2014-03-23T11:25:55Z</time>
      </trkpt>
      <trkpt lat="49.30807" lon="0.92809">
        <ele>125</ele>
        <time>2014-03-23T11:26:03Z</time>
      </trkpt>
      <trkpt lat="49.30775" lon="0.9282">
        <ele>126</ele>
        <time>2014-03-23T11:26:11Z</time>
      </trkpt>
      <trkpt lat="49.30746" lon="0.9283">
        <ele>127</ele>
        <time>2014-03-23T11:26:19Z</time>
      </trkpt>
      <trkpt lat="49.30716" lon="0.9284">
        <ele>128</ele>
        <time>2014-03-23T11:26:27Z</time>
      </trkpt>
      <trkpt lat="49.30687" lon="0.92849">
        <ele>129</ele>
        <time>2014-03-23T11:26:35Z</time>
      </trkpt>
      <trkpt lat="49.30659" lon="0.92859">
        <ele>131</ele>
        <time>2014-03-23T11:26:43Z</time>
      </trkpt>
      <trkpt lat="49.30631" lon="0.92869">
        <ele>131</ele>
        <time>2014-03-23T11:26:51Z</time>
      </trkpt>
      <trkpt lat="49.30602" lon="0.92878">
        <ele>131</ele>
        <time>2014-03-23T11:26:59Z</time>
      </trkpt>
      <trkpt lat="49.30573" lon="0.92889">
        <ele>133</ele>
        <time>2014-03-23T11:27:07Z</time>
      </trkpt>
      <trkpt lat="49.30544" lon="0.92899">
        <ele>133</ele>
        <time>2014-03-23T11:27:15Z</time>
      </trkpt>
      <trkpt lat="49.30514" lon="0.92908">
        <ele>134</ele>
        <time>2014-03-23T11:27:23Z</time>
      </trkpt>
      <trkpt lat="49.30483" lon="0.92918">
        <ele>135</ele>
        <time>2014-03-23T11:27:31Z</time>
      </trkpt>
      <trkpt lat="49.30451" lon="0.92928">
        <ele>135</ele>
        <time>2014-03-23T11:27:39Z</time>
      </trkpt>
      <trkpt lat="49.30416" lon="0.9294">
        <ele>136</ele>
        <time>2014-03-23T11:27:47Z</time>
      </trkpt>
      <trkpt lat="49.30397" lon="0.92948">
        <ele>136</ele>
        <time>2014-03-23T11:27:51Z</time>
      </trkpt>
      <trkpt lat="49.3038" lon="0.92954">
        <ele>136</ele>
        <time>2014-03-23T11:27:55Z</time>
      </trkpt>
      <trkpt lat="49.30362" lon="0.9296">
        <ele>136</ele>
        <time>2014-03-23T11:27:59Z</time>
      </trkpt>
      <trkpt lat="49.30343" lon="0.92966">
        <ele>136</ele>
        <time>2014-03-23T11:28:03Z</time>
      </trkpt>
      <trkpt lat="49.30325" lon="0.92972">
        <ele>137</ele>
        <time>2014-03-23T11:28:07Z</time>
      </trkpt>
      <trkpt lat="49.30306" lon="0.92979">
        <ele>137</ele>
        <time>2014-03-23T11:28:11Z</time>
      </trkpt>
      <trkpt lat="49.30287" lon="0.92984">
        <ele>137</ele>
        <time>2014-03-23T11:28:15Z</time>
      </trkpt>
      <trkpt lat="49.30268" lon="0.9299">
        <ele>137</ele>
        <time>2014-03-23T11:28:19Z</time>
      </trkpt>
      <trkpt lat="49.30249" lon="0.92996">
        <ele>137</ele>
        <time>2014-03-23T11:28:23Z</time>
      </trkpt>
      <trkpt lat="49.30229" lon="0.93004">
        <ele>137</ele>
        <time>2014-03-23T11:28:27Z</time>
      </trkpt>
      <trkpt lat="49.30209" lon="0.9301">
        <ele>137</ele>
        <time>2014-03-23T11:28:31Z</time>
      </trkpt>
      <trkpt lat="49.3019" lon="0.93017">
        <ele>137</ele>
        <time>2014-03-23T11:28:35Z</time>
      </trkpt>
      <trkpt lat="49.30169" lon="0.93023">
        <ele>138</ele>
        <time>2014-03-23T11:28:39Z</time>
      </trkpt>
      <trkpt lat="49.30149" lon="0.9303">
        <ele>137</ele>
        <time>2014-03-23T11:28:43Z</time>
      </trkpt>
      <trkpt lat="49.30129" lon="0.93035">
        <ele>137</ele>
        <time>2014-03-23T11:28:47Z</time>
      </trkpt>
      <trkpt lat="49.3011" lon="0.93042">
        <ele>136</ele>
        <time>2014-03-23T11:28:51Z</time>
      </trkpt>
      <trkpt lat="49.30092" lon="0.93042">
        <ele>136</ele>
        <time>2014-03-23T11:28:55Z</time>
      </trkpt>
      <trkpt lat="49.30076" lon="0.9299">
        <ele>136</ele>
        <time>2014-03-23T11:29:03Z</time>
      </trkpt>
      <trkpt lat="49.30058" lon="0.92983">
        <ele>137</ele>
        <time>2014-03-23T11:29:07Z</time>
      </trkpt>
      <trkpt lat="49.30037" lon="0.92983">
        <ele>137</ele>
        <time>2014-03-23T11:29:11Z</time>
      </trkpt>
      <trkpt lat="49.30018" lon="0.9299">
        <ele>137</ele>
        <time>2014-03-23T11:29:15Z</time>
      </trkpt>
      <trkpt lat="49.29997" lon="0.92997">
        <ele>138</ele>
        <time>2014-03-23T11:29:19Z</time>
      </trkpt>
      <trkpt lat="49.29978" lon="0.92986">
        <ele>138</ele>
        <time>2014-03-23T11:29:23Z</time>
      </trkpt>
      <trkpt lat="49.2996" lon="0.92972">
        <ele>138</ele>
        <time>2014-03-23T11:29:27Z</time>
      </trkpt>
      <trkpt lat="49.29944" lon="0.92956">
        <ele>138</ele>
        <time>2014-03-23T11:29:31Z</time>
      </trkpt>
      <trkpt lat="49.29927" lon="0.92937">
        <ele>138</ele>
        <time>2014-03-23T11:29:35Z</time>
      </trkpt>
      <trkpt lat="49.29908" lon="0.92918">
        <ele>138</ele>
        <time>2014-03-23T11:29:39Z</time>
      </trkpt>
      <trkpt lat="49.29889" lon="0.929">
        <ele>138</ele>
        <time>2014-03-23T11:29:43Z</time>
      </trkpt>
      <trkpt lat="49.2987" lon="0.92882">
        <ele>138</ele>
        <time>2014-03-23T11:29:47Z</time>
      </trkpt>
      <trkpt lat="49.2985" lon="0.92867">
        <ele>138</ele>
        <time>2014-03-23T11:29:51Z</time>
      </trkpt>
      <trkpt lat="49.29829" lon="0.92851">
        <ele>138</ele>
        <time>2014-03-23T11:29:55Z</time>
      </trkpt>
      <trkpt lat="49.29807" lon="0.92838">
        <ele>137</ele>
        <time>2014-03-23T11:29:59Z</time>
      </trkpt>
      <trkpt lat="49.2979" lon="0.92853">
        <ele>137</ele>
        <time>2014-03-23T11:30:03Z</time>
      </trkpt>
      <trkpt lat="49.29775" lon="0.92879">
        <ele>137</ele>
        <time>2014-03-23T11:30:07Z</time>
      </trkpt>
      <trkpt lat="49.29752" lon="0.92889">
        <ele>137</ele>
        <time>2014-03-23T11:30:11Z</time>
      </trkpt>
      <trkpt lat="49.29734" lon="0.92871">
        <ele>136</ele>
        <time>2014-03-23T11:30:15Z</time>
      </trkpt>
      <trkpt lat="49.29718" lon="0.92846">
        <ele>136</ele>
        <time>2014-03-23T11:30:19Z</time>
      </trkpt>
      <trkpt lat="49.29702" lon="0.92822">
        <ele>136</ele>
        <time>2014-03-23T11:30:23Z</time>
      </trkpt>
      <trkpt lat="49.29685" lon="0.92799">
        <ele>136</ele>
        <time>2014-03-23T11:30:27Z</time>
      </trkpt>
      <trkpt lat="49.29667" lon="0.92782">
        <ele>135</ele>
        <time>2014-03-23T11:30:31Z</time>
      </trkpt>
      <trkpt lat="49.29652" lon="0.92766">
        <ele>135</ele>
        <time>2014-03-23T11:30:35Z</time>
      </trkpt>
      <trkpt lat="49.29636" lon="0.9275">
        <ele>136</ele>
        <time>2014-03-23T11:30:39Z</time>
      </trkpt>
      <trkpt lat="49.29617" lon="0.9273">
        <ele>136</ele>
        <time>2014-03-23T11:30:47Z</time>
      </trkpt>
      <trkpt lat="49.29598" lon="0.92724">
        <ele>136</ele>
        <time>2014-03-23T11:30:55Z</time>
      </trkpt>
      <trkpt lat="49.29579" lon="0.92729">
        <ele>136</ele>
        <time>2014-03-23T11:30:59Z</time>
      </trkpt>
      <trkpt lat="49.29559" lon="0.92734">
        <ele>136</ele>
        <time>2014-03-23T11:31:03Z</time>
      </trkpt>
      <trkpt lat="49.29539" lon="0.9274">
        <ele>135</ele>
        <time>2014-03-23T11:31:07Z</time>
      </trkpt>
      <trkpt lat="49.29518" lon="0.92744">
        <ele>135</ele>
        <time>2014-03-23T11:31:11Z</time>
      </trkpt>
      <trkpt lat="49.29499" lon="0.92751">
        <ele>134</ele>
        <time>2014-03-23T11:31:15Z</time>
      </trkpt>
      <trkpt lat="49.29471" lon="0.9276">
        <ele>135</ele>
        <time>2014-03-23T11:31:23Z</time>
      </trkpt>
      <trkpt lat="49.29444" lon="0.92768">
        <ele>135</ele>
        <time>2014-03-23T11:31:31Z</time>
      </trkpt>
      <trkpt lat="49.29414" lon="0.92774">
        <ele>136</ele>
        <time>2014-03-23T11:31:39Z</time>
      </trkpt>
      <trkpt lat="49.29384" lon="0.92781">
        <ele>136</ele>
        <time>2014-03-23T11:31:47Z</time>
      </trkpt>
      <trkpt lat="49.29354" lon="0.92786">
        <ele>137</ele>
        <time>2014-03-23T11:31:55Z</time>
      </trkpt>
      <trkpt lat="49.29341" lon="0.92765">
        <ele>137</ele>
        <time>2014-03-23T11:32:03Z</time>
      </trkpt>
      <trkpt lat="49.29344" lon="0.92714">
        <ele>137</ele>
        <time>2014-03-23T11:32:11Z</time>
      </trkpt>
      <trkpt lat="49.29345" lon="0.92667">
        <ele>137</ele>
        <time>2014-03-23T11:32:19Z</time>
      </trkpt>
      <trkpt lat="49.29343" lon="0.92614">
        <ele>137</ele>
        <time>2014-03-23T11:32:27Z</time>
      </trkpt>
      <trkpt lat="49.29342" lon="0.92584">
        <ele>137</ele>
        <time>2014-03-23T11:32:31Z</time>
      </trkpt>
      <trkpt lat="49.29341" lon="0.92552">
        <ele>137</ele>
        <time>2014-03-23T11:32:35Z</time>
      </trkpt>
      <trkpt lat="49.29342" lon="0.92522">
        <ele>138</ele>
        <time>2014-03-23T11:32:39Z</time>
      </trkpt>
      <trkpt lat="49.2934" lon="0.92493">
        <ele>138</ele>
        <time>2014-03-23T11:32:43Z</time>
      </trkpt>
      <trkpt lat="49.29337" lon="0.92463">
        <ele>138</ele>
        <time>2014-03-23T11:32:47Z</time>
      </trkpt>
      <trkpt lat="49.29329" lon="0.92437">
        <ele>138</ele>
        <time>2014-03-23T11:32:51Z</time>
      </trkpt>
      <trkpt lat="49.29314" lon="0.92423">
        <ele>138</ele>
        <time>2014-03-23T11:32:55Z</time>
      </trkpt>
      <trkpt lat="49.29295" lon="0.9243">
        <ele>138</ele>
        <time>2014-03-23T11:32:59Z</time>
      </trkpt>
      <trkpt lat="49.29274" lon="0.92441">
        <ele>138</ele>
        <time>2014-03-23T11:33:03Z</time>
      </trkpt>
      <trkpt lat="49.29255" lon="0.92451">
        <ele>138</ele>
        <time>2014-03-23T11:33:07Z</time>
      </trkpt>
      <trkpt lat="49.29236" lon="0.92462">
        <ele>138</ele>
        <time>2014-03-23T11:33:11Z</time>
      </trkpt>
      <trkpt lat="49.29217" lon="0.92475">
        <ele>138</ele>
        <time>2014-03-23T11:33:15Z</time>
      </trkpt>
      <trkpt lat="49.29199" lon="0.92488">
        <ele>139</ele>
        <time>2014-03-23T11:33:19Z</time>
      </trkpt>
      <trkpt lat="49.29182" lon="0.92499">
        <ele>139</ele>
        <time>2014-03-23T11:33:23Z</time>
      </trkpt>
      <trkpt lat="49.29165" lon="0.92477">
        <ele>139</ele>
        <time>2014-03-23T11:33:35Z</time>
      </trkpt>
      <trkpt lat="49.29146" lon="0.9244">
        <ele>139</ele>
        <time>2014-03-23T11:33:43Z</time>
      </trkpt>
      <trkpt lat="49.29129" lon="0.9241">
        <ele>140</ele>
        <time>2014-03-23T11:33:51Z</time>
      </trkpt>
      <trkpt lat="49.29108" lon="0.92377">
        <ele>140</ele>
        <time>2014-03-23T11:33:59Z</time>
      </trkpt>
      <trkpt lat="49.2908" lon="0.92386">
        <ele>140</ele>
        <time>2014-03-23T11:34:07Z</time>
      </trkpt>
      <trkpt lat="49.29058" lon="0.92381">
        <ele>140</ele>
        <time>2014-03-23T11:34:15Z</time>
      </trkpt>
    </trkseg>
  </trk>
</gpx>